<?xml version="1.0" encoding="UTF-8"?>
<gpx xmlns="http://www.topografix.com/GPX/1/1" xmlns:ns2="http://www.garmin.com/xmlschemas/GpxExtensions/v3" xmlns:ns3="http://www.garmin.com/xmlschemas/TrackPointExtension/v1" xmlns:xsi="http://www.w3.org/2001/XMLSchema-instance" xsi:schemaLocation="http://www.topografix.com/GPX/1/1 http://www.topografix.com/GPX/11.xsd" version="1.1" creator="Garmin Connect">
  <metadata>
    <name>VR - Road 17 Giro delle Pertiche</name>
    <link href="connect.garmin.com">
      <text>Garmin Connect</text>
    </link>
    <time>2017-11-22T14:02:23Z</time>
  </metadata>
  <trk>
    <trkseg>
      <trkpt lat="45.7029711920768" lon="10.38722530938685">
        <ele>311.0</ele>
        <time>2017-11-22T14:02:23Z</time>
      </trkpt>
      <trkpt lat="45.70288904942572" lon="10.387122631072998">
        <ele>310.97891025890345</ele>
        <time>2017-11-22T14:02:23.175000Z</time>
      </trkpt>
      <trkpt lat="45.702717304229736" lon="10.386993885040283">
        <ele>310.94141529697225</ele>
        <time>2017-11-22T14:02:23.486000Z</time>
      </trkpt>
      <trkpt lat="45.70241689682007" lon="10.386993885040283">
        <ele>310.883312114676</ele>
        <time>2017-11-22T14:02:23.968000Z</time>
      </trkpt>
      <trkpt lat="45.70220232009888" lon="10.386886596679688">
        <ele>311.0905056315657</ele>
        <time>2017-11-22T14:02:24.332000Z</time>
      </trkpt>
      <trkpt lat="45.70218086242676" lon="10.386865139007568">
        <ele>311.13968819128064</ele>
        <time>2017-11-22T14:02:24.374000Z</time>
      </trkpt>
      <trkpt lat="45.70207357406616" lon="10.386435985565186">
        <ele>311.73790071156947</ele>
        <time>2017-11-22T14:02:24.884000Z</time>
      </trkpt>
      <trkpt lat="45.70190199650824" lon="10.385727882385254">
        <ele>313.88175073662694</ele>
        <time>2017-11-22T14:02:25.723000Z</time>
      </trkpt>
      <trkpt lat="45.70160150527954" lon="10.384461879730225">
        <ele>312.0</ele>
        <time>2017-11-22T14:02:27.220000Z</time>
      </trkpt>
      <trkpt lat="45.70162924937904" lon="10.384198855608702">
        <ele>313.0580496834404</ele>
        <time>2017-11-22T14:02:27.518000Z</time>
      </trkpt>
      <trkpt lat="45.70162924937904" lon="10.384198604151607">
        <ele>313.05904985992976</ele>
        <time>2017-11-22T14:02:27.518000Z</time>
      </trkpt>
      <trkpt lat="45.70164442062378" lon="10.384054183959961">
        <ele>315.97327962130106</ele>
        <time>2017-11-22T14:02:27.682000Z</time>
      </trkpt>
      <trkpt lat="45.701751708984375" lon="10.383882522583008">
        <ele>318.5562196681987</ele>
        <time>2017-11-22T14:02:27.940000Z</time>
      </trkpt>
      <trkpt lat="45.702266693115234" lon="10.38334608078003">
        <ele>322.1831803002938</ele>
        <time>2017-11-22T14:02:28.961000Z</time>
      </trkpt>
      <trkpt lat="45.702524185180664" lon="10.38283109664917">
        <ele>326.7023536448863</ele>
        <time>2017-11-22T14:02:29.670000Z</time>
      </trkpt>
      <trkpt lat="45.70284605026245" lon="10.381886959075928">
        <ele>322.477871816225</ele>
        <time>2017-11-22T14:02:30.846000Z</time>
      </trkpt>
      <trkpt lat="45.70303916931152" lon="10.381543636322021">
        <ele>318.5193776346452</ele>
        <time>2017-11-22T14:02:31.340000Z</time>
      </trkpt>
      <trkpt lat="45.703039253130555" lon="10.381543636322021">
        <ele>318.5197863727534</ele>
        <time>2017-11-22T14:02:31.340000Z</time>
      </trkpt>
      <trkpt lat="45.703232288360596" lon="10.381135940551758">
        <ele>320.19724221223663</ele>
        <time>2017-11-22T14:02:31.891000Z</time>
      </trkpt>
      <trkpt lat="45.703275203704834" lon="10.380899906158447">
        <ele>321.02787076223564</ele>
        <time>2017-11-22T14:02:32.164000Z</time>
      </trkpt>
      <trkpt lat="45.7032684981823" lon="10.380830001085997">
        <ele>321.9348397593504</ele>
        <time>2017-11-22T14:02:32.243000Z</time>
      </trkpt>
      <trkpt lat="45.7032684981823" lon="10.38082966580987">
        <ele>321.9359815683676</ele>
        <time>2017-11-22T14:02:32.244000Z</time>
      </trkpt>
      <trkpt lat="45.70318937301636" lon="10.379998683929443">
        <ele>327.79213947264003</ele>
        <time>2017-11-22T14:02:33.183000Z</time>
      </trkpt>
      <trkpt lat="45.70318945683539" lon="10.379998683929443">
        <ele>327.7923045872755</ele>
        <time>2017-11-22T14:02:33.183000Z</time>
      </trkpt>
      <trkpt lat="45.702996253967285" lon="10.379011631011963">
        <ele>332.20254603895523</ele>
        <time>2017-11-22T14:02:34.331000Z</time>
      </trkpt>
      <trkpt lat="45.70288896560669" lon="10.378732681274414">
        <ele>332.10767000603903</ele>
        <time>2017-11-22T14:02:34.688000Z</time>
      </trkpt>
      <trkpt lat="45.70117235183716" lon="10.375943183898926">
        <ele>329.0</ele>
        <time>2017-11-22T14:02:38.851000Z</time>
      </trkpt>
      <trkpt lat="45.70104360580444" lon="10.375728607177734">
        <ele>337.67350431827487</ele>
        <time>2017-11-22T14:02:39.168000Z</time>
      </trkpt>
      <trkpt lat="45.7008505705744" lon="10.374891757965088">
        <ele>339.77175120560577</ele>
        <time>2017-11-22T14:02:40.155000Z</time>
      </trkpt>
      <trkpt lat="45.70087194442749" lon="10.374376773834229">
        <ele>340.46812034552164</ele>
        <time>2017-11-22T14:02:40.733000Z</time>
      </trkpt>
      <trkpt lat="45.70104360580444" lon="10.373303890228271">
        <ele>336.09328143179005</ele>
        <time>2017-11-22T14:02:41.965000Z</time>
      </trkpt>
      <trkpt lat="45.70106506347656" lon="10.372788906097412">
        <ele>334.63843233566695</ele>
        <time>2017-11-22T14:02:42.543000Z</time>
      </trkpt>
      <trkpt lat="45.700743198394775" lon="10.370965003967285">
        <ele>326.0</ele>
        <time>2017-11-22T14:02:44.649000Z</time>
      </trkpt>
      <trkpt lat="45.700764656066895" lon="10.370793342590332">
        <ele>327.1345122211573</ele>
        <time>2017-11-22T14:02:44.844000Z</time>
      </trkpt>
      <trkpt lat="45.70119380950928" lon="10.369956493377686">
        <ele>342.8732515040465</ele>
        <time>2017-11-22T14:02:46.006000Z</time>
      </trkpt>
      <trkpt lat="45.70136547088623" lon="10.369055271148682">
        <ele>346.7461443036618</ele>
        <time>2017-11-22T14:02:47.052000Z</time>
      </trkpt>
      <trkpt lat="45.70134627632797" lon="10.368690993636847">
        <ele>348.0</ele>
        <time>2017-11-22T14:02:47.461000Z</time>
      </trkpt>
      <trkpt lat="45.70134627632797" lon="10.36869065836072">
        <ele>347.9995078424524</ele>
        <time>2017-11-22T14:02:47.461000Z</time>
      </trkpt>
      <trkpt lat="45.70134401321411" lon="10.368647575378418">
        <ele>347.93608696309184</ele>
        <time>2017-11-22T14:02:47.509000Z</time>
      </trkpt>
      <trkpt lat="45.701022148132324" lon="10.367703437805176">
        <ele>347.7271992386747</ele>
        <time>2017-11-22T14:02:48.685000Z</time>
      </trkpt>
      <trkpt lat="45.700979232788086" lon="10.367166996002197">
        <ele>344.26792603963213</ele>
        <time>2017-11-22T14:02:49.290000Z</time>
      </trkpt>
      <trkpt lat="45.701022148132324" lon="10.366802215576172">
        <ele>343.7249112383835</ele>
        <time>2017-11-22T14:02:49.704000Z</time>
      </trkpt>
      <trkpt lat="45.701472759246826" lon="10.365192890167236">
        <ele>339.0</ele>
        <time>2017-11-22T14:02:51.645000Z</time>
      </trkpt>
      <trkpt lat="45.70145130157471" lon="10.363733768463135">
        <ele>333.93191136131935</ele>
        <time>2017-11-22T14:02:53.279000Z</time>
      </trkpt>
      <trkpt lat="45.70160158909857" lon="10.363283157348633">
        <ele>333.4435868199121</ele>
        <time>2017-11-22T14:02:53.838000Z</time>
      </trkpt>
      <trkpt lat="45.70175179280341" lon="10.36309003829956">
        <ele>334.7249572688177</ele>
        <time>2017-11-22T14:02:54.162000Z</time>
      </trkpt>
      <trkpt lat="45.70205211639404" lon="10.362553596496582">
        <ele>335.3942093062087</ele>
        <time>2017-11-22T14:02:54.932000Z</time>
      </trkpt>
      <trkpt lat="45.70233114995062" lon="10.361502170562744">
        <ele>342.9873472086977</ele>
        <time>2017-11-22T14:02:56.191000Z</time>
      </trkpt>
      <trkpt lat="45.702502727508545" lon="10.360751152038574">
        <ele>358.24581968797924</ele>
        <time>2017-11-22T14:02:57.076000Z</time>
      </trkpt>
      <trkpt lat="45.7026569545269" lon="10.360331302508712">
        <ele>362.80355548555445</ele>
        <time>2017-11-22T14:02:57.607000Z</time>
      </trkpt>
      <trkpt lat="45.70265703834593" lon="10.360331134870648">
        <ele>362.8044911921625</ele>
        <time>2017-11-22T14:02:57.607000Z</time>
      </trkpt>
      <trkpt lat="45.70288896560669" lon="10.359699726104736">
        <ele>367.3756370573039</ele>
        <time>2017-11-22T14:02:58.406000Z</time>
      </trkpt>
      <trkpt lat="45.70254564285278" lon="10.357446670532227">
        <ele>371.14397201771544</ele>
        <time>2017-11-22T14:03:00.988000Z</time>
      </trkpt>
      <trkpt lat="45.70291042327881" lon="10.355772972106934">
        <ele>367.0</ele>
        <time>2017-11-22T14:03:02.951000Z</time>
      </trkpt>
      <trkpt lat="45.70303916931152" lon="10.354335308074951">
        <ele>376.19618209881855</ele>
        <time>2017-11-22T14:03:04.574000Z</time>
      </trkpt>
      <trkpt lat="45.703017711639404" lon="10.353970527648926">
        <ele>376.35745841045144</ele>
        <time>2017-11-22T14:03:04.984000Z</time>
      </trkpt>
      <trkpt lat="45.70288896560669" lon="10.353562831878662">
        <ele>378.97947278355133</ele>
        <time>2017-11-22T14:03:05.485000Z</time>
      </trkpt>
      <trkpt lat="45.702543715015054" lon="10.353018343448639">
        <ele>388.95582120170707</ele>
        <time>2017-11-22T14:03:06.308000Z</time>
      </trkpt>
      <trkpt lat="45.70254363119602" lon="10.353018259629607">
        <ele>388.95596057114653</ele>
        <time>2017-11-22T14:03:06.308000Z</time>
      </trkpt>
      <trkpt lat="45.70233106613159" lon="10.352683067321777">
        <ele>377.3870091137492</ele>
        <time>2017-11-22T14:03:06.815000Z</time>
      </trkpt>
      <trkpt lat="45.70185899734497" lon="10.351781845092773">
        <ele>387.1262132870941</ele>
        <time>2017-11-22T14:03:08.076000Z</time>
      </trkpt>
      <trkpt lat="45.701773166656494" lon="10.351524353027344">
        <ele>394.8297122371593</ele>
        <time>2017-11-22T14:03:08.395000Z</time>
      </trkpt>
      <trkpt lat="45.701236724853516" lon="10.35036563873291">
        <ele>384.29391089699516</ele>
        <time>2017-11-22T14:03:09.951000Z</time>
      </trkpt>
      <trkpt lat="45.70104360580444" lon="10.349829196929932">
        <ele>391.7204984661691</ele>
        <time>2017-11-22T14:03:10.627000Z</time>
      </trkpt>
      <trkpt lat="45.70052250288427" lon="10.348181398585439">
        <ele>388.0</ele>
        <time>2017-11-22T14:03:12.652000Z</time>
      </trkpt>
      <trkpt lat="45.70052241906524" lon="10.348181147128344">
        <ele>387.99993277359977</ele>
        <time>2017-11-22T14:03:12.652000Z</time>
      </trkpt>
      <trkpt lat="45.700249671936035" lon="10.347318649291992">
        <ele>394.7714941484673</ele>
        <time>2017-11-22T14:03:13.712000Z</time>
      </trkpt>
      <trkpt lat="45.69945573806763" lon="10.345902442932129">
        <ele>387.0</ele>
        <time>2017-11-22T14:03:15.745000Z</time>
      </trkpt>
      <trkpt lat="45.699305618181825" lon="10.345065593719482">
        <ele>389.4378370287047</ele>
        <time>2017-11-22T14:03:16.712000Z</time>
      </trkpt>
      <trkpt lat="45.69917687214911" lon="10.344722270965576">
        <ele>396.0980526380022</ele>
        <time>2017-11-22T14:03:17.148000Z</time>
      </trkpt>
      <trkpt lat="45.69887638092041" lon="10.344228744506836">
        <ele>385.3004281204032</ele>
        <time>2017-11-22T14:03:17.881000Z</time>
      </trkpt>
      <trkpt lat="45.698769092559814" lon="10.343906879425049">
        <ele>388.55513588317416</ele>
        <time>2017-11-22T14:03:18.280000Z</time>
      </trkpt>
      <trkpt lat="45.698747634887695" lon="10.343542098999023">
        <ele>389.1587237373861</ele>
        <time>2017-11-22T14:03:18.690000Z</time>
      </trkpt>
      <trkpt lat="45.69887638092041" lon="10.342855453491211">
        <ele>390.63219660952706</ele>
        <time>2017-11-22T14:03:19.486000Z</time>
      </trkpt>
      <trkpt lat="45.69885492324829" lon="10.342533588409424">
        <ele>391.9086697998861</ele>
        <time>2017-11-22T14:03:19.848000Z</time>
      </trkpt>
      <trkpt lat="45.69870471954346" lon="10.341997146606445">
        <ele>395.5236869307751</ele>
        <time>2017-11-22T14:03:20.495000Z</time>
      </trkpt>
      <trkpt lat="45.69836139678955" lon="10.341246128082275">
        <ele>408.9773295798196</ele>
        <time>2017-11-22T14:03:21.500000Z</time>
      </trkpt>
      <trkpt lat="45.69829702377319" lon="10.340945720672607">
        <ele>402.03674442345306</ele>
        <time>2017-11-22T14:03:21.852000Z</time>
      </trkpt>
      <trkpt lat="45.69833993911743" lon="10.340688228607178">
        <ele>417.0</ele>
        <time>2017-11-22T14:03:22.148000Z</time>
      </trkpt>
      <trkpt lat="45.69857597351074" lon="10.339829921722412">
        <ele>412.08740676976475</ele>
        <time>2017-11-22T14:03:23.181000Z</time>
      </trkpt>
      <trkpt lat="45.69861888885498" lon="10.339336395263672">
        <ele>410.15764252625735</ele>
        <time>2017-11-22T14:03:23.738000Z</time>
      </trkpt>
      <trkpt lat="45.69859743118286" lon="10.339100360870361">
        <ele>404.9007237488535</ele>
        <time>2017-11-22T14:03:24.005000Z</time>
      </trkpt>
      <trkpt lat="45.69828453473747" lon="10.338431904092431">
        <ele>398.3196102252527</ele>
        <time>2017-11-22T14:03:24.906000Z</time>
      </trkpt>
      <trkpt lat="45.698284450918436" lon="10.338431652635336">
        <ele>398.3197552653126</ele>
        <time>2017-11-22T14:03:24.906000Z</time>
      </trkpt>
      <trkpt lat="45.69812536239624" lon="10.338091850280762">
        <ele>399.86603810877347</ele>
        <time>2017-11-22T14:03:25.364000Z</time>
      </trkpt>
      <trkpt lat="45.69758892059326" lon="10.336053371429443">
        <ele>410.0</ele>
        <time>2017-11-22T14:03:27.803000Z</time>
      </trkpt>
      <trkpt lat="45.695528984069824" lon="10.32987356185913">
        <ele>401.0</ele>
        <time>2017-11-22T14:03:35.470000Z</time>
      </trkpt>
      <trkpt lat="45.695507526397705" lon="10.329530239105225">
        <ele>401.0</ele>
        <time>2017-11-22T14:03:35.856000Z</time>
      </trkpt>
      <trkpt lat="45.69570064544678" lon="10.329036712646484">
        <ele>402.0</ele>
        <time>2017-11-22T14:03:36.489000Z</time>
      </trkpt>
      <trkpt lat="45.695786476135254" lon="10.328328609466553">
        <ele>406.25135488547977</ele>
        <time>2017-11-22T14:03:37.294000Z</time>
      </trkpt>
      <trkpt lat="45.69546804763377" lon="10.326647367328405">
        <ele>414.4764731640211</ele>
        <time>2017-11-22T14:03:39.245000Z</time>
      </trkpt>
      <trkpt lat="45.695467963814735" lon="10.32664711587131">
        <ele>414.47682906951513</ele>
        <time>2017-11-22T14:03:39.245000Z</time>
      </trkpt>
      <trkpt lat="45.69525011815131" lon="10.325496196746826">
        <ele>416.0</ele>
        <time>2017-11-22T14:03:40.580000Z</time>
      </trkpt>
      <trkpt lat="45.694799507036805" lon="10.322985649108887">
        <ele>414.0</ele>
        <time>2017-11-22T14:03:43.483000Z</time>
      </trkpt>
      <trkpt lat="45.69473513402045" lon="10.322513580322266">
        <ele>415.7896875304869</ele>
        <time>2017-11-22T14:03:44.022000Z</time>
      </trkpt>
      <trkpt lat="45.69460638798773" lon="10.322041511535645">
        <ele>420.0086980312572</ele>
        <time>2017-11-22T14:03:44.589000Z</time>
      </trkpt>
      <trkpt lat="45.694542014971375" lon="10.321612358093262">
        <ele>422.31235219559477</ele>
        <time>2017-11-22T14:03:45.081000Z</time>
      </trkpt>
      <trkpt lat="45.69439172744751" lon="10.320110321044922">
        <ele>426.0</ele>
        <time>2017-11-22T14:03:46.780000Z</time>
      </trkpt>
      <trkpt lat="45.69441326893866" lon="10.319831371307373">
        <ele>427.0252588343951</ele>
        <time>2017-11-22T14:03:47.094000Z</time>
      </trkpt>
      <trkpt lat="45.69471342489123" lon="10.31932694837451">
        <ele>428.6589812704016</ele>
        <time>2017-11-22T14:03:47.836000Z</time>
      </trkpt>
      <trkpt lat="45.694713508710265" lon="10.319326864555478">
        <ele>428.6593421515022</ele>
        <time>2017-11-22T14:03:47.836000Z</time>
      </trkpt>
      <trkpt lat="45.69494962692261" lon="10.31893014907837">
        <ele>431.27767607479024</ele>
        <time>2017-11-22T14:03:48.420000Z</time>
      </trkpt>
      <trkpt lat="45.69512128829956" lon="10.318608283996582">
        <ele>434.4153461671686</ele>
        <time>2017-11-22T14:03:48.873000Z</time>
      </trkpt>
      <trkpt lat="45.69537878036499" lon="10.318372249603271">
        <ele>435.64507711743425</ele>
        <time>2017-11-22T14:03:49.363000Z</time>
      </trkpt>
      <trkpt lat="45.696022510528564" lon="10.318114757537842">
        <ele>439.0</ele>
        <time>2017-11-22T14:03:50.435000Z</time>
      </trkpt>
      <trkpt lat="45.69640874862671" lon="10.317385196685791">
        <ele>440.4373487857171</ele>
        <time>2017-11-22T14:03:51.460000Z</time>
      </trkpt>
      <trkpt lat="45.69746017456055" lon="10.316312313079834">
        <ele>444.0</ele>
        <time>2017-11-22T14:03:53.530000Z</time>
      </trkpt>
      <trkpt lat="45.697524547576904" lon="10.316312313079834">
        <ele>447.8284372964287</ele>
        <time>2017-11-22T14:03:53.633000Z</time>
      </trkpt>
      <trkpt lat="45.697556901723146" lon="10.316360928118229">
        <ele>447.9463011341048</ele>
        <time>2017-11-22T14:03:53.708000Z</time>
      </trkpt>
      <trkpt lat="45.69755698554218" lon="10.31636101193726">
        <ele>447.94655806398026</ele>
        <time>2017-11-22T14:03:53.708000Z</time>
      </trkpt>
      <trkpt lat="45.69756746292114" lon="10.316376686096191">
        <ele>447.98463874677674</ele>
        <time>2017-11-22T14:03:53.732000Z</time>
      </trkpt>
      <trkpt lat="45.69756746292114" lon="10.316483974456787">
        <ele>448.1729520732866</ele>
        <time>2017-11-22T14:03:53.852000Z</time>
      </trkpt>
      <trkpt lat="45.69694519042969" lon="10.317342281341553">
        <ele>448.01102474428836</ele>
        <time>2017-11-22T14:03:55.237000Z</time>
      </trkpt>
      <trkpt lat="45.69690227508545" lon="10.317471027374268">
        <ele>448.2630463403848</ele>
        <time>2017-11-22T14:03:55.397000Z</time>
      </trkpt>
      <trkpt lat="45.69692105054855" lon="10.317564904689789">
        <ele>453.76889186509334</ele>
        <time>2017-11-22T14:03:55.506000Z</time>
      </trkpt>
      <trkpt lat="45.696921134367585" lon="10.317565072327852">
        <ele>453.76925608358397</ele>
        <time>2017-11-22T14:03:55.506000Z</time>
      </trkpt>
      <trkpt lat="45.69692373275757" lon="10.317578315734863">
        <ele>453.7935579141769</ele>
        <time>2017-11-22T14:03:55.521000Z</time>
      </trkpt>
      <trkpt lat="45.69698818959296" lon="10.317621231079102">
        <ele>453.97335797694296</ele>
        <time>2017-11-22T14:03:55.635000Z</time>
      </trkpt>
      <trkpt lat="45.69821119308472" lon="10.316162109375">
        <ele>455.0</ele>
        <time>2017-11-22T14:03:58.187000Z</time>
      </trkpt>
      <trkpt lat="45.69855451583862" lon="10.315389633178711">
        <ele>472.8719698367623</ele>
        <time>2017-11-22T14:03:59.212000Z</time>
      </trkpt>
      <trkpt lat="45.69866180419922" lon="10.315325260162354">
        <ele>473.9211120254895</ele>
        <time>2017-11-22T14:03:59.398000Z</time>
      </trkpt>
      <trkpt lat="45.69869793020189" lon="10.315406564623117">
        <ele>474.5281059628291</ele>
        <time>2017-11-22T14:03:59.506000Z</time>
      </trkpt>
      <trkpt lat="45.69869801402092" lon="10.31540673226118">
        <ele>474.52940461816576</ele>
        <time>2017-11-22T14:03:59.506000Z</time>
      </trkpt>
      <trkpt lat="45.698747634887695" lon="10.315518379211426">
        <ele>475.36298757915796</ele>
        <time>2017-11-22T14:03:59.654000Z</time>
      </trkpt>
      <trkpt lat="45.698490142822266" lon="10.316505432128906">
        <ele>485.0</ele>
        <time>2017-11-22T14:04:00.834000Z</time>
      </trkpt>
      <trkpt lat="45.69833993911743" lon="10.316784381866455">
        <ele>488.90359574196026</ele>
        <time>2017-11-22T14:04:01.228000Z</time>
      </trkpt>
      <trkpt lat="45.69771766662598" lon="10.317578315734863">
        <ele>488.1690309969768</ele>
        <time>2017-11-22T14:04:02.564000Z</time>
      </trkpt>
      <trkpt lat="45.69761037826538" lon="10.317857265472412">
        <ele>489.08166328606717</ele>
        <time>2017-11-22T14:04:02.921000Z</time>
      </trkpt>
      <trkpt lat="45.697524547576904" lon="10.318286418914795">
        <ele>490.3609961649411</ele>
        <time>2017-11-22T14:04:03.421000Z</time>
      </trkpt>
      <trkpt lat="45.69667110219598" lon="10.319348070770502">
        <ele>499.0</ele>
        <time>2017-11-22T14:04:05.233000Z</time>
      </trkpt>
      <trkpt lat="45.69667110219598" lon="10.319348154589534">
        <ele>499.00032258390456</ele>
        <time>2017-11-22T14:04:05.233000Z</time>
      </trkpt>
      <trkpt lat="45.69664478302002" lon="10.319380760192871">
        <ele>490.52543131998414</ele>
        <time>2017-11-22T14:04:05.289000Z</time>
      </trkpt>
      <trkpt lat="45.69660186767578" lon="10.319595336914062">
        <ele>491.38443600997175</ele>
        <time>2017-11-22T14:04:05.539000Z</time>
      </trkpt>
      <trkpt lat="45.6966233253479" lon="10.319788455963135">
        <ele>492.13701559328234</ele>
        <time>2017-11-22T14:04:05.758000Z</time>
      </trkpt>
      <trkpt lat="45.69694519042969" lon="10.320453643798828">
        <ele>506.58467979540166</ele>
        <time>2017-11-22T14:04:06.664000Z</time>
      </trkpt>
      <trkpt lat="45.69696664810181" lon="10.320689678192139">
        <ele>507.0040274001669</ele>
        <time>2017-11-22T14:04:06.931000Z</time>
      </trkpt>
      <trkpt lat="45.69685935974121" lon="10.321033000946045">
        <ele>508.3333333333333</ele>
        <time>2017-11-22T14:04:07.352000Z</time>
      </trkpt>
      <trkpt lat="45.69683790206909" lon="10.321333408355713">
        <ele>508.3333333333333</ele>
        <time>2017-11-22T14:04:07.690000Z</time>
      </trkpt>
      <trkpt lat="45.696988105773926" lon="10.322041511535645">
        <ele>509.0</ele>
        <time>2017-11-22T14:04:08.519000Z</time>
      </trkpt>
      <trkpt lat="45.697009563446045" lon="10.322835445404053">
        <ele>507.6666666666667</ele>
        <time>2017-11-22T14:04:09.409000Z</time>
      </trkpt>
      <trkpt lat="45.69707033224404" lon="10.322826644405723">
        <ele>507.6981378087782</ele>
        <time>2017-11-22T14:04:09.507000Z</time>
      </trkpt>
      <trkpt lat="45.69707041606307" lon="10.322826560586691">
        <ele>507.6981904882303</ele>
        <time>2017-11-22T14:04:09.507000Z</time>
      </trkpt>
      <trkpt lat="45.69715976715088" lon="10.322813987731934">
        <ele>507.74445079005676</ele>
        <time>2017-11-22T14:04:09.651000Z</time>
      </trkpt>
      <trkpt lat="45.697181224823" lon="10.322706699371338">
        <ele>507.78461341949134</ele>
        <time>2017-11-22T14:04:09.776000Z</time>
      </trkpt>
      <trkpt lat="45.69713830947876" lon="10.321183204650879">
        <ele>509.0</ele>
        <time>2017-11-22T14:04:11.483000Z</time>
      </trkpt>
      <trkpt lat="45.697181224823" lon="10.32092571258545">
        <ele>508.92427813281137</ele>
        <time>2017-11-22T14:04:11.779000Z</time>
      </trkpt>
      <trkpt lat="45.697267055511475" lon="10.320861339569092">
        <ele>508.884596200963</ele>
        <time>2017-11-22T14:04:11.934000Z</time>
      </trkpt>
      <trkpt lat="45.697307623922825" lon="10.320861339569092">
        <ele>508.86798180976194</ele>
        <time>2017-11-22T14:04:11.999000Z</time>
      </trkpt>
      <trkpt lat="45.69735288619995" lon="10.320861339569092">
        <ele>508.8494450923063</ele>
        <time>2017-11-22T14:04:12.072000Z</time>
      </trkpt>
      <trkpt lat="45.69739580154419" lon="10.320968627929688">
        <ele>508.8140796291741</ele>
        <time>2017-11-22T14:04:12.210000Z</time>
      </trkpt>
      <trkpt lat="45.697267055511475" lon="10.321483612060547">
        <ele>508.65761992632105</ele>
        <time>2017-11-22T14:04:12.822000Z</time>
      </trkpt>
      <trkpt lat="45.69733142852783" lon="10.322299003601074">
        <ele>509.35006294676805</ele>
        <time>2017-11-22T14:04:13.741000Z</time>
      </trkpt>
      <trkpt lat="45.69735288619995" lon="10.322470664978027">
        <ele>509.3555408834748</ele>
        <time>2017-11-22T14:04:13.936000Z</time>
      </trkpt>
      <trkpt lat="45.69743871688843" lon="10.322535037994385">
        <ele>508.02656526519286</ele>
        <time>2017-11-22T14:04:14.091000Z</time>
      </trkpt>
      <trkpt lat="45.697524547576904" lon="10.322492122650146">
        <ele>514.3207833969486</ele>
        <time>2017-11-22T14:04:14.237000Z</time>
      </trkpt>
      <trkpt lat="45.69754600524902" lon="10.32238483428955">
        <ele>514.5730368226749</ele>
        <time>2017-11-22T14:04:14.362000Z</time>
      </trkpt>
      <trkpt lat="45.69743871688843" lon="10.32167673110962">
        <ele>511.54414600502145</ele>
        <time>2017-11-22T14:04:15.173000Z</time>
      </trkpt>
      <trkpt lat="45.697503089904785" lon="10.32139778137207">
        <ele>520.2600943720336</ele>
        <time>2017-11-22T14:04:15.502000Z</time>
      </trkpt>
      <trkpt lat="45.69788932800293" lon="10.320990085601807">
        <ele>525.8320656675374</ele>
        <time>2017-11-22T14:04:16.271000Z</time>
      </trkpt>
      <trkpt lat="45.697975158691406" lon="10.320796966552734">
        <ele>530.0218255356099</ele>
        <time>2017-11-22T14:04:16.527000Z</time>
      </trkpt>
      <trkpt lat="45.69795370101929" lon="10.320603847503662">
        <ele>531.6077342246198</ele>
        <time>2017-11-22T14:04:16.746000Z</time>
      </trkpt>
      <trkpt lat="45.697782039642334" lon="10.319960117340088">
        <ele>529.2798069536179</ele>
        <time>2017-11-22T14:04:17.518000Z</time>
      </trkpt>
      <trkpt lat="45.697868624702096" lon="10.319804297760129">
        <ele>529.6666666666666</ele>
        <time>2017-11-22T14:04:17.741000Z</time>
      </trkpt>
      <trkpt lat="45.69786870852113" lon="10.319804046303034">
        <ele>529.6671365606338</ele>
        <time>2017-11-22T14:04:17.741000Z</time>
      </trkpt>
      <trkpt lat="45.69788932800293" lon="10.319766998291016">
        <ele>529.7470278525155</ele>
        <time>2017-11-22T14:04:17.794000Z</time>
      </trkpt>
      <trkpt lat="45.697975158691406" lon="10.319852828979492">
        <ele>529.9998207234169</ele>
        <time>2017-11-22T14:04:17.962000Z</time>
      </trkpt>
      <trkpt lat="45.698232650756836" lon="10.320582389831543">
        <ele>535.0450292226102</ele>
        <time>2017-11-22T14:04:18.877000Z</time>
      </trkpt>
      <trkpt lat="45.69859743118286" lon="10.321204662322998">
        <ele>538.3335501661753</ele>
        <time>2017-11-22T14:04:19.787000Z</time>
      </trkpt>
      <trkpt lat="45.69891929626465" lon="10.321934223175049">
        <ele>540.4102998587472</ele>
        <time>2017-11-22T14:04:20.753000Z</time>
      </trkpt>
      <trkpt lat="45.699026584625244" lon="10.322020053863525">
        <ele>540.8337887556903</ele>
        <time>2017-11-22T14:04:20.950000Z</time>
      </trkpt>
      <trkpt lat="45.69907930679619" lon="10.321956686675549">
        <ele>541.3749417224703</ele>
        <time>2017-11-22T14:04:21.060000Z</time>
      </trkpt>
      <trkpt lat="45.69907947443426" lon="10.321956519037485">
        <ele>541.3766409724552</ele>
        <time>2017-11-22T14:04:21.060000Z</time>
      </trkpt>
      <trkpt lat="45.69913387298584" lon="10.32189130783081">
        <ele>541.9662313094335</ele>
        <time>2017-11-22T14:04:21.174000Z</time>
      </trkpt>
      <trkpt lat="45.69911241531372" lon="10.321526527404785">
        <ele>544.0909401259278</ele>
        <time>2017-11-22T14:04:21.584000Z</time>
      </trkpt>
      <trkpt lat="45.69915533065796" lon="10.321311950683594">
        <ele>545.3864153401299</ele>
        <time>2017-11-22T14:04:21.834000Z</time>
      </trkpt>
      <trkpt lat="45.699477195739746" lon="10.321011543273926">
        <ele>554.912622564937</ele>
        <time>2017-11-22T14:04:22.450000Z</time>
      </trkpt>
      <trkpt lat="45.69958448410034" lon="10.320818424224854">
        <ele>558.3448505028026</ele>
        <time>2017-11-22T14:04:22.726000Z</time>
      </trkpt>
      <trkpt lat="45.69962739944458" lon="10.320217609405518">
        <ele>561.8501836765103</ele>
        <time>2017-11-22T14:04:23.402000Z</time>
      </trkpt>
      <trkpt lat="45.69971323013306" lon="10.32017469406128">
        <ele>561.9307721443492</ele>
        <time>2017-11-22T14:04:23.548000Z</time>
      </trkpt>
      <trkpt lat="45.69973770529032" lon="10.3202357981354">
        <ele>561.9743813387196</ele>
        <time>2017-11-22T14:04:23.627000Z</time>
      </trkpt>
      <trkpt lat="45.69973770529032" lon="10.320235965773463">
        <ele>561.9744851232192</ele>
        <time>2017-11-22T14:04:23.627000Z</time>
      </trkpt>
      <trkpt lat="45.69979906082153" lon="10.32038927078247">
        <ele>562.0838745491964</ele>
        <time>2017-11-22T14:04:23.825000Z</time>
      </trkpt>
      <trkpt lat="45.69971323013306" lon="10.321075916290283">
        <ele>560.5157287932398</ele>
        <time>2017-11-22T14:04:24.606000Z</time>
      </trkpt>
      <trkpt lat="45.699734687805176" lon="10.321269035339355">
        <ele>560.6026759222938</ele>
        <time>2017-11-22T14:04:24.825000Z</time>
      </trkpt>
      <trkpt lat="45.69982051849365" lon="10.32139778137207">
        <ele>560.6818132722198</ele>
        <time>2017-11-22T14:04:25.024000Z</time>
      </trkpt>
      <trkpt lat="45.69994926452637" lon="10.32141923904419">
        <ele>561.6170079684844</ele>
        <time>2017-11-22T14:04:25.232000Z</time>
      </trkpt>
      <trkpt lat="45.70007801055908" lon="10.32141923904419">
        <ele>565.2125972513699</ele>
        <time>2017-11-22T14:04:25.438000Z</time>
      </trkpt>
      <trkpt lat="45.70037841796875" lon="10.321226119995117">
        <ele>567.5885233462244</ele>
        <time>2017-11-22T14:04:25.966000Z</time>
      </trkpt>
      <trkpt lat="45.7005500793457" lon="10.320990085601807">
        <ele>569.3057094640844</ele>
        <time>2017-11-22T14:04:26.348000Z</time>
      </trkpt>
      <trkpt lat="45.70070028305054" lon="10.320882797241211">
        <ele>570.5168198950564</ele>
        <time>2017-11-22T14:04:26.617000Z</time>
      </trkpt>
      <trkpt lat="45.70093631744385" lon="10.320839881896973">
        <ele>575.2335201105169</ele>
        <time>2017-11-22T14:04:26.998000Z</time>
      </trkpt>
      <trkpt lat="45.70160150527954" lon="10.321011543273926">
        <ele>582.222446337304</ele>
        <time>2017-11-22T14:04:28.082000Z</time>
      </trkpt>
      <trkpt lat="45.702009201049805" lon="10.320839881896973">
        <ele>588.5845041260959</ele>
        <time>2017-11-22T14:04:28.763000Z</time>
      </trkpt>
      <trkpt lat="45.702245235443115" lon="10.320818424224854">
        <ele>600.9020868731151</ele>
        <time>2017-11-22T14:04:29.142000Z</time>
      </trkpt>
      <trkpt lat="45.70265293121338" lon="10.320990085601807">
        <ele>593.6473367818895</ele>
        <time>2017-11-22T14:04:29.823000Z</time>
      </trkpt>
      <trkpt lat="45.70272224955261" lon="10.320938033983111">
        <ele>594.0301866518845</ele>
        <time>2017-11-22T14:04:29.948000Z</time>
      </trkpt>
      <trkpt lat="45.70272241719067" lon="10.32093795016408">
        <ele>594.0310551700612</ele>
        <time>2017-11-22T14:04:29.948000Z</time>
      </trkpt>
      <trkpt lat="45.702738761901855" lon="10.32092571258545">
        <ele>594.1212714124921</ele>
        <time>2017-11-22T14:04:29.978000Z</time>
      </trkpt>
      <trkpt lat="45.702738761901855" lon="10.320818424224854">
        <ele>602.821099424349</ele>
        <time>2017-11-22T14:04:30.098000Z</time>
      </trkpt>
      <trkpt lat="45.70269584655762" lon="10.320689678192139">
        <ele>603.308420005716</ele>
        <time>2017-11-22T14:04:30.258000Z</time>
      </trkpt>
      <trkpt lat="45.70254564285278" lon="10.3206467628479">
        <ele>604.0575917411692</ele>
        <time>2017-11-22T14:04:30.504000Z</time>
      </trkpt>
      <trkpt lat="45.70194482803345" lon="10.320603847503662">
        <ele>608.0</ele>
        <time>2017-11-22T14:04:31.468000Z</time>
      </trkpt>
      <trkpt lat="45.702009201049805" lon="10.320475101470947">
        <ele>607.8690730095112</ele>
        <time>2017-11-22T14:04:31.645000Z</time>
      </trkpt>
      <trkpt lat="45.70205815136433" lon="10.320480465888977">
        <ele>607.8109477607107</ele>
        <time>2017-11-22T14:04:31.724000Z</time>
      </trkpt>
      <trkpt lat="45.70205823518336" lon="10.320480465888977">
        <ele>607.8108485214096</ele>
        <time>2017-11-22T14:04:31.724000Z</time>
      </trkpt>
      <trkpt lat="45.70280313491821" lon="10.320560932159424">
        <ele>605.9264026941637</ele>
        <time>2017-11-22T14:04:32.922000Z</time>
      </trkpt>
      <trkpt lat="45.70303916931152" lon="10.320496559143066">
        <ele>605.6419209312791</ele>
        <time>2017-11-22T14:04:33.307000Z</time>
      </trkpt>
      <trkpt lat="45.703489780426025" lon="10.320239067077637">
        <ele>605.3959501625003</ele>
        <time>2017-11-22T14:04:34.085000Z</time>
      </trkpt>
      <trkpt lat="45.70361852645874" lon="10.320239067077637">
        <ele>605.2422236445105</ele>
        <time>2017-11-22T14:04:34.291000Z</time>
      </trkpt>
      <trkpt lat="45.70396184921265" lon="10.320453643798828">
        <ele>604.7949381519388</ele>
        <time>2017-11-22T14:04:34.892000Z</time>
      </trkpt>
      <trkpt lat="45.70439100265503" lon="10.320882797241211">
        <ele>601.7566942357288</ele>
        <time>2017-11-22T14:04:35.731000Z</time>
      </trkpt>
      <trkpt lat="45.70484161376953" lon="10.321075916290283">
        <ele>604.8969589728986</ele>
        <time>2017-11-22T14:04:36.485000Z</time>
      </trkpt>
      <trkpt lat="45.705013275146484" lon="10.321290493011475">
        <ele>614.0849226771335</ele>
        <time>2017-11-22T14:04:36.850000Z</time>
      </trkpt>
      <trkpt lat="45.70509910583496" lon="10.321569442749023">
        <ele>615.506142581613</ele>
        <time>2017-11-22T14:04:37.191000Z</time>
      </trkpt>
      <trkpt lat="45.70509910583496" lon="10.321784019470215">
        <ele>613.4192599896876</ele>
        <time>2017-11-22T14:04:37.431000Z</time>
      </trkpt>
      <trkpt lat="45.70494286715984" lon="10.321893319487572">
        <ele>602.4378949340918</ele>
        <time>2017-11-22T14:04:37.710000Z</time>
      </trkpt>
      <trkpt lat="45.70494278334081" lon="10.321893403306603">
        <ele>602.4369259924324</ele>
        <time>2017-11-22T14:04:37.710000Z</time>
      </trkpt>
      <trkpt lat="45.70445537567139" lon="10.322234630584717">
        <ele>597.294931422128</ele>
        <time>2017-11-22T14:04:38.580000Z</time>
      </trkpt>
      <trkpt lat="45.7041335105896" lon="10.323028564453125">
        <ele>594.5985391342227</ele>
        <time>2017-11-22T14:04:39.608000Z</time>
      </trkpt>
      <trkpt lat="45.70404767990112" lon="10.323479175567627">
        <ele>604.4798452082177</ele>
        <time>2017-11-22T14:04:40.131000Z</time>
      </trkpt>
      <trkpt lat="45.704026222229004" lon="10.323994159698486">
        <ele>610.239639121424</ele>
        <time>2017-11-22T14:04:40.709000Z</time>
      </trkpt>
      <trkpt lat="45.703983306884766" lon="10.324208736419678">
        <ele>617.0649327255527</ele>
        <time>2017-11-22T14:04:40.959000Z</time>
      </trkpt>
      <trkpt lat="45.70404767990112" lon="10.324251651763916">
        <ele>618.2001151796841</ele>
        <time>2017-11-22T14:04:41.073000Z</time>
      </trkpt>
      <trkpt lat="45.70411205291748" lon="10.324101448059082">
        <ele>614.4311431024489</ele>
        <time>2017-11-22T14:04:41.270000Z</time>
      </trkpt>
      <trkpt lat="45.704240798950195" lon="10.32341480255127">
        <ele>627.0412488786347</ele>
        <time>2017-11-22T14:04:42.066000Z</time>
      </trkpt>
      <trkpt lat="45.70434808731079" lon="10.323178768157959">
        <ele>619.2943774276481</ele>
        <time>2017-11-22T14:04:42.381000Z</time>
      </trkpt>
      <trkpt lat="45.70456266403198" lon="10.322942733764648">
        <ele>619.6426216967371</ele>
        <time>2017-11-22T14:04:42.815000Z</time>
      </trkpt>
      <trkpt lat="45.704756788909435" lon="10.32284558750689">
        <ele>619.9072826348505</ele>
        <time>2017-11-22T14:04:43.145000Z</time>
      </trkpt>
      <trkpt lat="45.70475687272847" lon="10.322845503687859">
        <ele>619.9085636633607</ele>
        <time>2017-11-22T14:04:43.145000Z</time>
      </trkpt>
      <trkpt lat="45.704777240753174" lon="10.322835445404053">
        <ele>620.1785298295875</ele>
        <time>2017-11-22T14:04:43.180000Z</time>
      </trkpt>
      <trkpt lat="45.704755783081055" lon="10.322985649108887">
        <ele>621.520112594586</ele>
        <time>2017-11-22T14:04:43.352000Z</time>
      </trkpt>
      <trkpt lat="45.70456266403198" lon="10.323264598846436">
        <ele>624.9572448413622</ele>
        <time>2017-11-22T14:04:43.792000Z</time>
      </trkpt>
      <trkpt lat="45.70445537567139" lon="10.323607921600342">
        <ele>636.2485893941516</ele>
        <time>2017-11-22T14:04:44.213000Z</time>
      </trkpt>
      <trkpt lat="45.70439100265503" lon="10.32442331314087">
        <ele>649.4292042624869</ele>
        <time>2017-11-22T14:04:45.132000Z</time>
      </trkpt>
      <trkpt lat="45.70432662963867" lon="10.324702262878418">
        <ele>652.0</ele>
        <time>2017-11-22T14:04:45.461000Z</time>
      </trkpt>
      <trkpt lat="45.70361852645874" lon="10.32538890838623">
        <ele>642.1642282254137</ele>
        <time>2017-11-22T14:04:46.832000Z</time>
      </trkpt>
      <trkpt lat="45.70344686508179" lon="10.325753688812256">
        <ele>640.6666666666666</ele>
        <time>2017-11-22T14:04:47.324000Z</time>
      </trkpt>
      <trkpt lat="45.70338249206543" lon="10.326247215270996">
        <ele>648.4631270193457</ele>
        <time>2017-11-22T14:04:47.886000Z</time>
      </trkpt>
      <trkpt lat="45.7034238986671" lon="10.326309325173497">
        <ele>648.827379170218</ele>
        <time>2017-11-22T14:04:47.982000Z</time>
      </trkpt>
      <trkpt lat="45.70342406630516" lon="10.32630949281156">
        <ele>648.828621188199</ele>
        <time>2017-11-22T14:04:47.982000Z</time>
      </trkpt>
      <trkpt lat="45.70389747619629" lon="10.327019691467285">
        <ele>652.9934270314346</ele>
        <time>2017-11-22T14:04:49.081000Z</time>
      </trkpt>
      <trkpt lat="45.70434808731079" lon="10.327813625335693">
        <ele>663.3577954546638</ele>
        <time>2017-11-22T14:04:50.226000Z</time>
      </trkpt>
      <trkpt lat="45.70452947169542" lon="10.328303212299943">
        <ele>662.5752102065554</ele>
        <time>2017-11-22T14:04:50.846000Z</time>
      </trkpt>
      <trkpt lat="45.70452947169542" lon="10.328303379938006">
        <ele>662.5749734916428</ele>
        <time>2017-11-22T14:04:50.846000Z</time>
      </trkpt>
      <trkpt lat="45.70456266403198" lon="10.32839298248291">
        <ele>660.4317512686474</ele>
        <time>2017-11-22T14:04:50.960000Z</time>
      </trkpt>
      <trkpt lat="45.7046914100647" lon="10.329315662384033">
        <ele>657.7697863708538</ele>
        <time>2017-11-22T14:04:52.013000Z</time>
      </trkpt>
      <trkpt lat="45.70486307144165" lon="10.329551696777344">
        <ele>658.9539575138442</ele>
        <time>2017-11-22T14:04:52.395000Z</time>
      </trkpt>
      <trkpt lat="45.704970359802246" lon="10.329809188842773">
        <ele>660.2809999129983</ele>
        <time>2017-11-22T14:04:52.731000Z</time>
      </trkpt>
      <trkpt lat="45.70529222488403" lon="10.330109596252441">
        <ele>666.0492009148426</ele>
        <time>2017-11-22T14:04:53.347000Z</time>
      </trkpt>
      <trkpt lat="45.705463886260986" lon="10.330367088317871">
        <ele>667.7195572283034</ele>
        <time>2017-11-22T14:04:53.746000Z</time>
      </trkpt>
      <trkpt lat="45.70589303970337" lon="10.330495834350586">
        <ele>676.6656509901768</ele>
        <time>2017-11-22T14:04:54.449000Z</time>
      </trkpt>
      <trkpt lat="45.70592908188701" lon="10.330567918717861">
        <ele>677.0816397117778</ele>
        <time>2017-11-22T14:04:54.548000Z</time>
      </trkpt>
      <trkpt lat="45.70592908188701" lon="10.330568002536893">
        <ele>677.0820330051633</ele>
        <time>2017-11-22T14:04:54.548000Z</time>
      </trkpt>
      <trkpt lat="45.70593595504761" lon="10.330581665039062">
        <ele>677.1610416331276</ele>
        <time>2017-11-22T14:04:54.567000Z</time>
      </trkpt>
      <trkpt lat="45.70593595504761" lon="10.330860614776611">
        <ele>678.1365885258336</ele>
        <time>2017-11-22T14:04:54.879000Z</time>
      </trkpt>
      <trkpt lat="45.70608615875244" lon="10.331289768218994">
        <ele>680.3889998800342</ele>
        <time>2017-11-22T14:04:55.416000Z</time>
      </trkpt>
      <trkpt lat="45.70632219314575" lon="10.331761837005615">
        <ele>677.5485038320604</ele>
        <time>2017-11-22T14:04:56.066000Z</time>
      </trkpt>
      <trkpt lat="45.70692300796509" lon="10.332019329071045">
        <ele>690.5780815221405</ele>
        <time>2017-11-22T14:04:57.071000Z</time>
      </trkpt>
      <trkpt lat="45.70741653442383" lon="10.333671569824219">
        <ele>682.637928760863</ele>
        <time>2017-11-22T14:04:59.083000Z</time>
      </trkpt>
      <trkpt lat="45.707459449768066" lon="10.334036350250244">
        <ele>683.0</ele>
        <time>2017-11-22T14:04:59.497000Z</time>
      </trkpt>
      <trkpt lat="45.70741670206189" lon="10.33412653952837">
        <ele>683.1661791376492</ele>
        <time>2017-11-22T14:04:59.619000Z</time>
      </trkpt>
      <trkpt lat="45.70741678588092" lon="10.334126371890306">
        <ele>683.166493468059</ele>
        <time>2017-11-22T14:04:59.619000Z</time>
      </trkpt>
      <trkpt lat="45.707266330718994" lon="10.334444046020508">
        <ele>683.0850201440217</ele>
        <time>2017-11-22T14:05:00.049000Z</time>
      </trkpt>
      <trkpt lat="45.70709466934204" lon="10.334551334381104">
        <ele>683.4939258210325</ele>
        <time>2017-11-22T14:05:00.349000Z</time>
      </trkpt>
      <trkpt lat="45.70690155029297" lon="10.334808826446533">
        <ele>684.0700015443405</ele>
        <time>2017-11-22T14:05:00.772000Z</time>
      </trkpt>
      <trkpt lat="45.706772804260254" lon="10.335173606872559">
        <ele>687.026462830649</ele>
        <time>2017-11-22T14:05:01.230000Z</time>
      </trkpt>
      <trkpt lat="45.706729888916016" lon="10.335538387298584">
        <ele>687.5904344419113</ele>
        <time>2017-11-22T14:05:01.644000Z</time>
      </trkpt>
      <trkpt lat="45.706751346588135" lon="10.335860252380371">
        <ele>687.8116240007215</ele>
        <time>2017-11-22T14:05:02.006000Z</time>
      </trkpt>
      <trkpt lat="45.70709466934204" lon="10.336503982543945">
        <ele>687.5306871558424</ele>
        <time>2017-11-22T14:05:02.913000Z</time>
      </trkpt>
      <trkpt lat="45.70718050003052" lon="10.337018966674805">
        <ele>685.4729719938715</ele>
        <time>2017-11-22T14:05:03.506000Z</time>
      </trkpt>
      <trkpt lat="45.70739507675171" lon="10.337426662445068">
        <ele>687.1236668583324</ele>
        <time>2017-11-22T14:05:04.078000Z</time>
      </trkpt>
      <trkpt lat="45.70756673812866" lon="10.337598323822021">
        <ele>692.4264353188613</ele>
        <time>2017-11-22T14:05:04.414000Z</time>
      </trkpt>
      <trkpt lat="45.708253383636475" lon="10.337941646575928">
        <ele>695.7939345824225</ele>
        <time>2017-11-22T14:05:05.580000Z</time>
      </trkpt>
      <trkpt lat="45.708967270329595" lon="10.338823506608605">
        <ele>695.6242721692848</ele>
        <time>2017-11-22T14:05:07.091000Z</time>
      </trkpt>
      <trkpt lat="45.708967270329595" lon="10.338823590427637">
        <ele>695.6240897046226</ele>
        <time>2017-11-22T14:05:07.091000Z</time>
      </trkpt>
      <trkpt lat="45.708982944488525" lon="10.338842868804932">
        <ele>695.5596787731791</ele>
        <time>2017-11-22T14:05:07.124000Z</time>
      </trkpt>
      <trkpt lat="45.70941209793091" lon="10.339186191558838">
        <ele>689.3605671209089</ele>
        <time>2017-11-22T14:05:07.912000Z</time>
      </trkpt>
      <trkpt lat="45.710012912750244" lon="10.339422225952148">
        <ele>694.6220115187353</ele>
        <time>2017-11-22T14:05:08.911000Z</time>
      </trkpt>
      <trkpt lat="45.71054935455322" lon="10.339357852935791">
        <ele>696.0</ele>
        <time>2017-11-22T14:05:09.774000Z</time>
      </trkpt>
      <trkpt lat="45.71067810058594" lon="10.339593887329102">
        <ele>695.7209049099539</ele>
        <time>2017-11-22T14:05:10.109000Z</time>
      </trkpt>
      <trkpt lat="45.71087121963501" lon="10.340452194213867">
        <ele>700.2139436513777</ele>
        <time>2017-11-22T14:05:11.118000Z</time>
      </trkpt>
      <trkpt lat="45.71115016937256" lon="10.340967178344727">
        <ele>692.9399429908509</ele>
        <time>2017-11-22T14:05:11.848000Z</time>
      </trkpt>
      <trkpt lat="45.71155786514282" lon="10.341289043426514">
        <ele>693.0759867416367</ele>
        <time>2017-11-22T14:05:12.594000Z</time>
      </trkpt>
      <trkpt lat="45.711987018585205" lon="10.34137487411499">
        <ele>693.8692808720867</ele>
        <time>2017-11-22T14:05:13.289000Z</time>
      </trkpt>
      <trkpt lat="45.7122015953064" lon="10.341310501098633">
        <ele>694.626657952046</ele>
        <time>2017-11-22T14:05:13.640000Z</time>
      </trkpt>
      <trkpt lat="45.71233042515814" lon="10.341246128082275">
        <ele>695.4471570729448</ele>
        <time>2017-11-22T14:05:13.859000Z</time>
      </trkpt>
      <trkpt lat="45.712459087371826" lon="10.341246128082275">
        <ele>696.2208484587874</ele>
        <time>2017-11-22T14:05:14.065000Z</time>
      </trkpt>
      <trkpt lat="45.712738037109375" lon="10.341503620147705">
        <ele>702.5498484186334</ele>
        <time>2017-11-22T14:05:14.597000Z</time>
      </trkpt>
      <trkpt lat="45.71303844451904" lon="10.341503620147705">
        <ele>704.3563043970438</ele>
        <time>2017-11-22T14:05:15.079000Z</time>
      </trkpt>
      <trkpt lat="45.71305990219116" lon="10.3416109085083">
        <ele>704.8249058728028</ele>
        <time>2017-11-22T14:05:15.204000Z</time>
      </trkpt>
      <trkpt lat="45.7135637383908" lon="10.3430718742311">
        <ele>714.0</ele>
        <time>2017-11-22T14:05:17.028000Z</time>
      </trkpt>
      <trkpt lat="45.7135637383908" lon="10.343072041869164">
        <ele>713.9990696829954</ele>
        <time>2017-11-22T14:05:17.028000Z</time>
      </trkpt>
      <trkpt lat="45.71370371617377" lon="10.343477725982666">
        <ele>707.4878276511016</ele>
        <time>2017-11-22T14:05:17.535000Z</time>
      </trkpt>
      <trkpt lat="45.71381092071533" lon="10.343735218048096">
        <ele>705.8241213515757</ele>
        <time>2017-11-22T14:05:17.871000Z</time>
      </trkpt>
      <trkpt lat="45.7139612082392" lon="10.343949794769287">
        <ele>706.2355554881764</ele>
        <time>2017-11-22T14:05:18.211000Z</time>
      </trkpt>
      <trkpt lat="45.71408987045288" lon="10.344057083129883">
        <ele>706.5242055977473</ele>
        <time>2017-11-22T14:05:18.450000Z</time>
      </trkpt>
      <trkpt lat="45.71417570114136" lon="10.344443321228027">
        <ele>710.4062434174692</ele>
        <time>2017-11-22T14:05:18.904000Z</time>
      </trkpt>
      <trkpt lat="45.71428298950195" lon="10.344572067260742">
        <ele>710.6776170575308</ele>
        <time>2017-11-22T14:05:19.128000Z</time>
      </trkpt>
      <trkpt lat="45.714454650878906" lon="10.344572067260742">
        <ele>711.010430982982</ele>
        <time>2017-11-22T14:05:19.403000Z</time>
      </trkpt>
      <trkpt lat="45.71490526199341" lon="10.344915390014648">
        <ele>712.0</ele>
        <time>2017-11-22T14:05:20.221000Z</time>
      </trkpt>
      <trkpt lat="45.71531295776367" lon="10.344979763031006">
        <ele>715.363671938841</ele>
        <time>2017-11-22T14:05:20.879000Z</time>
      </trkpt>
      <trkpt lat="45.71538403630257" lon="10.34509819932282">
        <ele>707.9286481725048</ele>
        <time>2017-11-22T14:05:21.054000Z</time>
      </trkpt>
      <trkpt lat="45.7153841201216" lon="10.345098283141851">
        <ele>707.9282403377538</ele>
        <time>2017-11-22T14:05:21.054000Z</time>
      </trkpt>
      <trkpt lat="45.71538420394063" lon="10.345098534598947">
        <ele>707.9274641751039</ele>
        <time>2017-11-22T14:05:21.054000Z</time>
      </trkpt>
      <trkpt lat="45.715506076812744" lon="10.345301628112793">
        <ele>707.1815213344079</ele>
        <time>2017-11-22T14:05:21.354000Z</time>
      </trkpt>
      <trkpt lat="45.7163440156728" lon="10.345930103212595">
        <ele>702.0746487428672</ele>
        <time>2017-11-22T14:05:22.870000Z</time>
      </trkpt>
      <trkpt lat="45.716344099491835" lon="10.345930270850658">
        <ele>702.0740959653748</ele>
        <time>2017-11-22T14:05:22.870000Z</time>
      </trkpt>
      <trkpt lat="45.71662187576294" lon="10.34613847732544">
        <ele>700.8702879393057</ele>
        <time>2017-11-22T14:05:23.373000Z</time>
      </trkpt>
      <trkpt lat="45.716986656188965" lon="10.34637451171875">
        <ele>698.0</ele>
        <time>2017-11-22T14:05:24.015000Z</time>
      </trkpt>
      <trkpt lat="45.71735143661499" lon="10.34637451171875">
        <ele>696.6314576955347</ele>
        <time>2017-11-22T14:05:24.600000Z</time>
      </trkpt>
      <trkpt lat="45.71765184402466" lon="10.34613847732544">
        <ele>693.0126415625909</ele>
        <time>2017-11-22T14:05:25.149000Z</time>
      </trkpt>
      <trkpt lat="45.71810245513916" lon="10.346202850341797">
        <ele>691.313700958504</ele>
        <time>2017-11-22T14:05:25.875000Z</time>
      </trkpt>
      <trkpt lat="45.718467235565186" lon="10.34635305404663">
        <ele>696.6643040073299</ele>
        <time>2017-11-22T14:05:26.483000Z</time>
      </trkpt>
      <trkpt lat="45.71876764297485" lon="10.346674919128418">
        <ele>692.3364534777793</ele>
        <time>2017-11-22T14:05:27.084000Z</time>
      </trkpt>
      <trkpt lat="45.71902513504028" lon="10.346696376800537">
        <ele>693.7849772600181</ele>
        <time>2017-11-22T14:05:27.497000Z</time>
      </trkpt>
      <trkpt lat="45.719196796417236" lon="10.346825122833252">
        <ele>701.2065335426245</ele>
        <time>2017-11-22T14:05:27.808000Z</time>
      </trkpt>
      <trkpt lat="45.71951866149902" lon="10.347297191619873">
        <ele>703.8068650207839</ele>
        <time>2017-11-22T14:05:28.547000Z</time>
      </trkpt>
      <trkpt lat="45.719733238220215" lon="10.347297191619873">
        <ele>705.0180618367389</ele>
        <time>2017-11-22T14:05:28.891000Z</time>
      </trkpt>
      <trkpt lat="45.719947814941406" lon="10.347211360931396">
        <ele>706.2756024903246</ele>
        <time>2017-11-22T14:05:29.248000Z</time>
      </trkpt>
      <trkpt lat="45.72007656097412" lon="10.347940921783447">
        <ele>715.5744524962619</ele>
        <time>2017-11-22T14:05:30.090000Z</time>
      </trkpt>
      <trkpt lat="45.72007656097412" lon="10.349249839782715">
        <ele>699.8183691444768</ele>
        <time>2017-11-22T14:05:31.555000Z</time>
      </trkpt>
      <trkpt lat="45.720205307006836" lon="10.349507331848145">
        <ele>698.1403659564784</ele>
        <time>2017-11-22T14:05:31.909000Z</time>
      </trkpt>
      <trkpt lat="45.72087049484253" lon="10.349485874176025">
        <ele>693.3681327115763</ele>
        <time>2017-11-22T14:05:32.976000Z</time>
      </trkpt>
      <trkpt lat="45.72132110595703" lon="10.349056720733643">
        <ele>702.4288986139354</ele>
        <time>2017-11-22T14:05:33.844000Z</time>
      </trkpt>
      <trkpt lat="45.72179317474365" lon="10.34837007522583">
        <ele>702.0</ele>
        <time>2017-11-22T14:05:34.923000Z</time>
      </trkpt>
      <trkpt lat="45.722200870513916" lon="10.3481125831604">
        <ele>717.4897236272071</ele>
        <time>2017-11-22T14:05:35.637000Z</time>
      </trkpt>
      <trkpt lat="45.722715854644775" lon="10.347511768341064">
        <ele>730.1574330060034</ele>
        <time>2017-11-22T14:05:36.702000Z</time>
      </trkpt>
      <trkpt lat="45.72274946607649" lon="10.34751788713038">
        <ele>730.3861324600495</ele>
        <time>2017-11-22T14:05:36.756000Z</time>
      </trkpt>
      <trkpt lat="45.722749549895525" lon="10.347517970949411">
        <ele>730.3868224668454</ele>
        <time>2017-11-22T14:05:36.756000Z</time>
      </trkpt>
      <trkpt lat="45.722951889038086" lon="10.347554683685303">
        <ele>731.7635092890536</ele>
        <time>2017-11-22T14:05:37.083000Z</time>
      </trkpt>
      <trkpt lat="45.72310209274292" lon="10.347704887390137">
        <ele>733.0</ele>
        <time>2017-11-22T14:05:37.377000Z</time>
      </trkpt>
      <trkpt lat="45.7231879234314" lon="10.34813404083252">
        <ele>731.8125862051539</ele>
        <time>2017-11-22T14:05:37.877000Z</time>
      </trkpt>
      <trkpt lat="45.72331666946411" lon="10.348241329193115">
        <ele>731.2450887843121</ele>
        <time>2017-11-22T14:05:38.116000Z</time>
      </trkpt>
      <trkpt lat="45.723488330841064" lon="10.348219871520996">
        <ele>727.9943827415128</ele>
        <time>2017-11-22T14:05:38.392000Z</time>
      </trkpt>
      <trkpt lat="45.723745822906494" lon="10.347812175750732">
        <ele>722.9811716872802</ele>
        <time>2017-11-22T14:05:39.007000Z</time>
      </trkpt>
      <trkpt lat="45.724003314971924" lon="10.347576141357422">
        <ele>718.9881780688344</ele>
        <time>2017-11-22T14:05:39.497000Z</time>
      </trkpt>
      <trkpt lat="45.72458267211914" lon="10.347576141357422">
        <ele>699.0874708026163</ele>
        <time>2017-11-22T14:05:40.426000Z</time>
      </trkpt>
      <trkpt lat="45.72460412979126" lon="10.347168445587158">
        <ele>706.6198647367701</ele>
        <time>2017-11-22T14:05:40.884000Z</time>
      </trkpt>
      <trkpt lat="45.724711418151855" lon="10.346524715423584">
        <ele>716.5410745258511</ele>
        <time>2017-11-22T14:05:41.625000Z</time>
      </trkpt>
      <trkpt lat="45.724754333496094" lon="10.345602035522461">
        <ele>732.6820311421749</ele>
        <time>2017-11-22T14:05:42.660000Z</time>
      </trkpt>
      <trkpt lat="45.72479724884033" lon="10.345473289489746">
        <ele>732.3639368516214</ele>
        <time>2017-11-22T14:05:42.820000Z</time>
      </trkpt>
      <trkpt lat="45.72488307952881" lon="10.345451831817627">
        <ele>732.085669901603</ele>
        <time>2017-11-22T14:05:42.960000Z</time>
      </trkpt>
      <trkpt lat="45.72559118270874" lon="10.345494747161865">
        <ele>727.4887948440468</ele>
        <time>2017-11-22T14:05:44.096000Z</time>
      </trkpt>
      <trkpt lat="45.72584867477417" lon="10.345408916473389">
        <ele>713.3695139019568</ele>
        <time>2017-11-22T14:05:44.520000Z</time>
      </trkpt>
      <trkpt lat="45.72657823562622" lon="10.345065593719482">
        <ele>706.9445507414565</ele>
        <time>2017-11-22T14:05:45.751000Z</time>
      </trkpt>
      <trkpt lat="45.72664260864258" lon="10.344915390014648">
        <ele>705.581792510798</ele>
        <time>2017-11-22T14:05:45.948000Z</time>
      </trkpt>
      <trkpt lat="45.72662115097046" lon="10.344593524932861">
        <ele>703.6933351441454</ele>
        <time>2017-11-22T14:05:46.310000Z</time>
      </trkpt>
      <trkpt lat="45.72653532028198" lon="10.34437894821167">
        <ele>704.1733314844827</ele>
        <time>2017-11-22T14:05:46.587000Z</time>
      </trkpt>
      <trkpt lat="45.726191997528076" lon="10.343928337097168">
        <ele>706.4679672447311</ele>
        <time>2017-11-22T14:05:47.333000Z</time>
      </trkpt>
      <trkpt lat="45.72629928588867" lon="10.34386396408081">
        <ele>706.791373033117</ele>
        <time>2017-11-22T14:05:47.519000Z</time>
      </trkpt>
      <trkpt lat="45.72640657424927" lon="10.3436279296875">
        <ele>707.3380492390137</ele>
        <time>2017-11-22T14:05:47.834000Z</time>
      </trkpt>
      <trkpt lat="45.726706981658936" lon="10.342984199523926">
        <ele>711.2551011645895</ele>
        <time>2017-11-22T14:05:48.701000Z</time>
      </trkpt>
      <trkpt lat="45.72662115097046" lon="10.342168807983398">
        <ele>720.1920243710048</ele>
        <time>2017-11-22T14:05:49.624000Z</time>
      </trkpt>
      <trkpt lat="45.7266640663147" lon="10.34212589263916">
        <ele>720.0953694121007</ele>
        <time>2017-11-22T14:05:49.708000Z</time>
      </trkpt>
      <trkpt lat="45.72677135467529" lon="10.34214735031128">
        <ele>723.2286455448898</ele>
        <time>2017-11-22T14:05:49.882000Z</time>
      </trkpt>
      <trkpt lat="45.727694034576416" lon="10.342791080474854">
        <ele>705.0</ele>
        <time>2017-11-22T14:05:51.527000Z</time>
      </trkpt>
      <trkpt lat="45.727972984313965" lon="10.34287691116333">
        <ele>705.0913859278375</ele>
        <time>2017-11-22T14:05:51.984000Z</time>
      </trkpt>
      <trkpt lat="45.728187561035156" lon="10.342791080474854">
        <ele>705.1627442922232</ele>
        <time>2017-11-22T14:05:52.341000Z</time>
      </trkpt>
      <trkpt lat="45.72838068008423" lon="10.34264087677002">
        <ele>691.6845803167657</ele>
        <time>2017-11-22T14:05:52.693000Z</time>
      </trkpt>
      <trkpt lat="45.728466510772705" lon="10.342340469360352">
        <ele>697.2122843118522</ele>
        <time>2017-11-22T14:05:53.056000Z</time>
      </trkpt>
      <trkpt lat="45.728466510772705" lon="10.341975688934326">
        <ele>697.4307174665734</ele>
        <time>2017-11-22T14:05:53.464000Z</time>
      </trkpt>
      <trkpt lat="45.72859525680542" lon="10.341718196868896">
        <ele>697.620377604408</ele>
        <time>2017-11-22T14:05:53.818000Z</time>
      </trkpt>
      <trkpt lat="45.728702545166016" lon="10.341289043426514">
        <ele>706.8933402872531</ele>
        <time>2017-11-22T14:05:54.328000Z</time>
      </trkpt>
      <trkpt lat="45.728837409988046" lon="10.341059798374772">
        <ele>706.3596173175625</ele>
        <time>2017-11-22T14:05:54.664000Z</time>
      </trkpt>
      <trkpt lat="45.72883749380708" lon="10.341059546917677">
        <ele>706.3591212374791</ele>
        <time>2017-11-22T14:05:54.664000Z</time>
      </trkpt>
      <trkpt lat="45.72891712188721" lon="10.340924263000488">
        <ele>706.0440899824513</ele>
        <time>2017-11-22T14:05:54.862000Z</time>
      </trkpt>
      <trkpt lat="45.72917461395264" lon="10.34090280532837">
        <ele>697.9980502769577</ele>
        <time>2017-11-22T14:05:55.275000Z</time>
      </trkpt>
      <trkpt lat="45.729711055755615" lon="10.340666770935059">
        <ele>703.0959978583705</ele>
        <time>2017-11-22T14:05:56.175000Z</time>
      </trkpt>
      <trkpt lat="45.730140209198" lon="10.340087413787842">
        <ele>686.2274620415511</ele>
        <time>2017-11-22T14:05:57.120000Z</time>
      </trkpt>
      <trkpt lat="45.73039770126343" lon="10.340044498443604">
        <ele>680.5188860848624</ele>
        <time>2017-11-22T14:05:57.536000Z</time>
      </trkpt>
      <trkpt lat="45.73067665100098" lon="10.339915752410889">
        <ele>681.0651040219885</ele>
        <time>2017-11-22T14:05:58.006000Z</time>
      </trkpt>
      <trkpt lat="45.730934143066406" lon="10.339679718017578">
        <ele>655.0</ele>
        <time>2017-11-22T14:05:58.496000Z</time>
      </trkpt>
      <trkpt lat="45.73108434677124" lon="10.33937931060791">
        <ele>657.1809940750908</ele>
        <time>2017-11-22T14:05:58.910000Z</time>
      </trkpt>
      <trkpt lat="45.73117017745972" lon="10.339100360870361">
        <ele>658.313589919217</ele>
        <time>2017-11-22T14:05:59.251000Z</time>
      </trkpt>
      <trkpt lat="45.73112726211548" lon="10.338821411132812">
        <ele>659.9995095403664</ele>
        <time>2017-11-22T14:05:59.571000Z</time>
      </trkpt>
      <trkpt lat="45.730934143066406" lon="10.338671207427979">
        <ele>661.8575598127296</ele>
        <time>2017-11-22T14:05:59.923000Z</time>
      </trkpt>
      <trkpt lat="45.73063373565674" lon="10.338563919067383">
        <ele>680.142060667692</ele>
        <time>2017-11-22T14:06:00.419000Z</time>
      </trkpt>
      <trkpt lat="45.730462074279785" lon="10.338413715362549">
        <ele>675.7276661833271</ele>
        <time>2017-11-22T14:06:00.741000Z</time>
      </trkpt>
      <trkpt lat="45.73037624359131" lon="10.338220596313477">
        <ele>669.5538270830857</ele>
        <time>2017-11-22T14:06:00.997000Z</time>
      </trkpt>
      <trkpt lat="45.73037624359131" lon="10.338091850280762">
        <ele>667.5815565841593</ele>
        <time>2017-11-22T14:06:01.141000Z</time>
      </trkpt>
      <trkpt lat="45.73106288909912" lon="10.337083339691162">
        <ele>623.0</ele>
        <time>2017-11-22T14:06:02.718000Z</time>
      </trkpt>
      <trkpt lat="45.73101997375488" lon="10.336740016937256">
        <ele>627.8532249409355</ele>
        <time>2017-11-22T14:06:03.108000Z</time>
      </trkpt>
      <trkpt lat="45.730934143066406" lon="10.33663272857666">
        <ele>623.4572730248833</ele>
        <time>2017-11-22T14:06:03.291000Z</time>
      </trkpt>
      <trkpt lat="45.730140209198" lon="10.336160659790039">
        <ele>656.9261592862584</ele>
        <time>2017-11-22T14:06:04.669000Z</time>
      </trkpt>
      <trkpt lat="45.72977542877197" lon="10.336096286773682">
        <ele>673.319262632881</ele>
        <time>2017-11-22T14:06:05.258000Z</time>
      </trkpt>
      <trkpt lat="45.72962522506714" lon="10.335988998413086">
        <ele>673.4920490365243</ele>
        <time>2017-11-22T14:06:05.527000Z</time>
      </trkpt>
      <trkpt lat="45.72951793670654" lon="10.335731506347656">
        <ele>672.7075461376904</ele>
        <time>2017-11-22T14:06:05.863000Z</time>
      </trkpt>
      <trkpt lat="45.72953939437866" lon="10.33540964126587">
        <ele>672.939897898318</ele>
        <time>2017-11-22T14:06:06.225000Z</time>
      </trkpt>
      <trkpt lat="45.72964668273926" lon="10.335195064544678">
        <ele>673.1295750588068</ele>
        <time>2017-11-22T14:06:06.520000Z</time>
      </trkpt>
      <trkpt lat="45.73016166687012" lon="10.334594249725342">
        <ele>651.1681453225729</ele>
        <time>2017-11-22T14:06:07.585000Z</time>
      </trkpt>
      <trkpt lat="45.73041915893555" lon="10.334079265594482">
        <ele>643.5359666434451</ele>
        <time>2017-11-22T14:06:08.294000Z</time>
      </trkpt>
      <trkpt lat="45.730226039886475" lon="10.33362865447998">
        <ele>638.0</ele>
        <time>2017-11-22T14:06:08.886000Z</time>
      </trkpt>
      <trkpt lat="45.73026895523071" lon="10.333328247070312">
        <ele>637.0494081826445</ele>
        <time>2017-11-22T14:06:09.229000Z</time>
      </trkpt>
      <trkpt lat="45.730226039886475" lon="10.333199501037598">
        <ele>637.227492090461</ele>
        <time>2017-11-22T14:06:09.389000Z</time>
      </trkpt>
      <trkpt lat="45.729947090148926" lon="10.33289909362793">
        <ele>647.5181878965017</ele>
        <time>2017-11-22T14:06:09.948000Z</time>
      </trkpt>
      <trkpt lat="45.72992571629584" lon="10.332705974578857">
        <ele>647.7622523299286</ele>
        <time>2017-11-22T14:06:10.167000Z</time>
      </trkpt>
      <trkpt lat="45.72994717396796" lon="10.332577228546143">
        <ele>647.9274716226208</ele>
        <time>2017-11-22T14:06:10.315000Z</time>
      </trkpt>
      <trkpt lat="45.73007583618164" lon="10.332233905792236">
        <ele>640.7471965435943</ele>
        <time>2017-11-22T14:06:10.751000Z</time>
      </trkpt>
      <trkpt lat="45.73039770126343" lon="10.331954956054688">
        <ele>641.6550732626195</ele>
        <time>2017-11-22T14:06:11.354000Z</time>
      </trkpt>
      <trkpt lat="45.730440616607666" lon="10.331761837005615">
        <ele>641.9964983387648</ele>
        <time>2017-11-22T14:06:11.581000Z</time>
      </trkpt>
      <trkpt lat="45.73037624359131" lon="10.331032276153564">
        <ele>645.2353284320227</ele>
        <time>2017-11-22T14:06:12.404000Z</time>
      </trkpt>
      <trkpt lat="45.730483531951904" lon="10.33013105392456">
        <ele>646.2839985785521</ele>
        <time>2017-11-22T14:06:13.427000Z</time>
      </trkpt>
      <trkpt lat="45.73039770126343" lon="10.32991647720337">
        <ele>648.5488387683137</ele>
        <time>2017-11-22T14:06:13.704000Z</time>
      </trkpt>
      <trkpt lat="45.73039778508246" lon="10.32965898513794">
        <ele>649.8657522181571</ele>
        <time>2017-11-22T14:06:13.992000Z</time>
      </trkpt>
      <trkpt lat="45.73061227798462" lon="10.329058170318604">
        <ele>657.9837747268608</ele>
        <time>2017-11-22T14:06:14.747000Z</time>
      </trkpt>
      <trkpt lat="45.73061227798462" lon="10.328671932220459">
        <ele>657.7202992137594</ele>
        <time>2017-11-22T14:06:15.179000Z</time>
      </trkpt>
      <trkpt lat="45.73091268539429" lon="10.328071117401123">
        <ele>652.5494880437458</ele>
        <time>2017-11-22T14:06:16.006000Z</time>
      </trkpt>
      <trkpt lat="45.73110580444336" lon="10.327813625335693">
        <ele>653.5606678124603</ele>
        <time>2017-11-22T14:06:16.429000Z</time>
      </trkpt>
      <trkpt lat="45.73140621185303" lon="10.327084064483643">
        <ele>658.1601908552262</ele>
        <time>2017-11-22T14:06:17.377000Z</time>
      </trkpt>
      <trkpt lat="45.73166370391846" lon="10.32663345336914">
        <ele>666.0570576734918</ele>
        <time>2017-11-22T14:06:18.029000Z</time>
      </trkpt>
      <trkpt lat="45.73187828063965" lon="10.32616138458252">
        <ele>685.0294484367747</ele>
        <time>2017-11-22T14:06:18.659000Z</time>
      </trkpt>
      <trkpt lat="45.731749534606934" lon="10.325002670288086">
        <ele>685.2827505589283</ele>
        <time>2017-11-22T14:06:19.972000Z</time>
      </trkpt>
      <trkpt lat="45.73183536529541" lon="10.324552059173584">
        <ele>678.7733438298476</ele>
        <time>2017-11-22T14:06:20.495000Z</time>
      </trkpt>
      <trkpt lat="45.73213577270508" lon="10.324037075042725">
        <ele>675.6045344699736</ele>
        <time>2017-11-22T14:06:21.246000Z</time>
      </trkpt>
      <trkpt lat="45.732736587524414" lon="10.323436260223389">
        <ele>683.5895724878916</ele>
        <time>2017-11-22T14:06:22.421000Z</time>
      </trkpt>
      <trkpt lat="45.73286533355713" lon="10.322771072387695">
        <ele>685.0</ele>
        <time>2017-11-22T14:06:23.193000Z</time>
      </trkpt>
      <trkpt lat="45.73301553726196" lon="10.322492122650146">
        <ele>687.5527534151857</ele>
        <time>2017-11-22T14:06:23.587000Z</time>
      </trkpt>
      <trkpt lat="45.73355197906494" lon="10.321826934814453">
        <ele>706.4693291531245</ele>
        <time>2017-11-22T14:06:24.724000Z</time>
      </trkpt>
      <trkpt lat="45.73378801345825" lon="10.321311950683594">
        <ele>708.1641596224553</ele>
        <time>2017-11-22T14:06:25.413000Z</time>
      </trkpt>
      <trkpt lat="45.73434591293335" lon="10.320303440093994">
        <ele>729.0</ele>
        <time>2017-11-22T14:06:26.853000Z</time>
      </trkpt>
      <trkpt lat="45.73479652404785" lon="10.318350791931152">
        <ele>724.0732632059085</ele>
        <time>2017-11-22T14:06:29.154000Z</time>
      </trkpt>
      <trkpt lat="45.73479652404785" lon="10.317771434783936">
        <ele>728.3335638307011</ele>
        <time>2017-11-22T14:06:29.802000Z</time>
      </trkpt>
      <trkpt lat="45.73464632034302" lon="10.317492485046387">
        <ele>733.1721794507206</ele>
        <time>2017-11-22T14:06:30.196000Z</time>
      </trkpt>
      <trkpt lat="45.73464632034302" lon="10.316355228424072">
        <ele>746.6685501609008</ele>
        <time>2017-11-22T14:06:31.469000Z</time>
      </trkpt>
      <trkpt lat="45.734453201293945" lon="10.314724445343018">
        <ele>766.0</ele>
        <time>2017-11-22T14:06:33.320000Z</time>
      </trkpt>
      <trkpt lat="45.73385230265558" lon="10.311948107555509">
        <ele>772.0</ele>
        <time>2017-11-22T14:06:36.573000Z</time>
      </trkpt>
      <trkpt lat="45.73385230265558" lon="10.311947939917445">
        <ele>772.0009053996196</ele>
        <time>2017-11-22T14:06:36.574000Z</time>
      </trkpt>
      <trkpt lat="45.73383092880249" lon="10.311849117279053">
        <ele>772.559675373107</ele>
        <time>2017-11-22T14:06:36.690000Z</time>
      </trkpt>
      <trkpt lat="45.733981132507324" lon="10.31191349029541">
        <ele>773.7728075493796</ele>
        <time>2017-11-22T14:06:36.941000Z</time>
      </trkpt>
      <trkpt lat="45.73413133621216" lon="10.312278270721436">
        <ele>776.6567244826236</ele>
        <time>2017-11-22T14:06:37.415000Z</time>
      </trkpt>
      <trkpt lat="45.734217166900635" lon="10.312750339508057">
        <ele>788.6451193847146</ele>
        <time>2017-11-22T14:06:37.961000Z</time>
      </trkpt>
      <trkpt lat="45.73428153991699" lon="10.312836170196533">
        <ele>789.503000706266</ele>
        <time>2017-11-22T14:06:38.102000Z</time>
      </trkpt>
      <trkpt lat="45.7345175743103" lon="10.31292200088501">
        <ele>791.8786750603527</ele>
        <time>2017-11-22T14:06:38.492000Z</time>
      </trkpt>
      <trkpt lat="45.73458194732666" lon="10.313050746917725">
        <ele>792.9570647930763</ele>
        <time>2017-11-22T14:06:38.669000Z</time>
      </trkpt>
      <trkpt lat="45.7346248626709" lon="10.31339406967163">
        <ele>789.3320303459069</ele>
        <time>2017-11-22T14:06:39.059000Z</time>
      </trkpt>
      <trkpt lat="45.73483943939209" lon="10.313458442687988">
        <ele>792.4146654023843</ele>
        <time>2017-11-22T14:06:39.410000Z</time>
      </trkpt>
      <trkpt lat="45.73509693145752" lon="10.31367301940918">
        <ele>809.9365554074869</ele>
        <time>2017-11-22T14:06:39.888000Z</time>
      </trkpt>
      <trkpt lat="45.73529005050659" lon="10.314295291900635">
        <ele>809.0894348655971</ele>
        <time>2017-11-22T14:06:40.650000Z</time>
      </trkpt>
      <trkpt lat="45.735225677490234" lon="10.314981937408447">
        <ele>812.2969426775226</ele>
        <time>2017-11-22T14:06:41.425000Z</time>
      </trkpt>
      <trkpt lat="45.73529005050659" lon="10.315496921539307">
        <ele>809.1647773081277</ele>
        <time>2017-11-22T14:06:42.010000Z</time>
      </trkpt>
      <trkpt lat="45.735440254211426" lon="10.315732955932617">
        <ele>808.6770749028386</ele>
        <time>2017-11-22T14:06:42.367000Z</time>
      </trkpt>
      <trkpt lat="45.73578357696533" lon="10.315797328948975">
        <ele>807.9196194329678</ele>
        <time>2017-11-22T14:06:42.922000Z</time>
      </trkpt>
      <trkpt lat="45.735955238342285" lon="10.316076278686523">
        <ele>815.1737663841055</ele>
        <time>2017-11-22T14:06:43.338000Z</time>
      </trkpt>
      <trkpt lat="45.73599815368652" lon="10.31639814376831">
        <ele>814.5240616550204</ele>
        <time>2017-11-22T14:06:43.705000Z</time>
      </trkpt>
      <trkpt lat="45.735933780670166" lon="10.31689167022705">
        <ele>810.1952677893693</ele>
        <time>2017-11-22T14:06:44.267000Z</time>
      </trkpt>
      <trkpt lat="45.73625564575195" lon="10.317213535308838">
        <ele>809.0802636637446</ele>
        <time>2017-11-22T14:06:44.896000Z</time>
      </trkpt>
      <trkpt lat="45.73636293411255" lon="10.317556858062744">
        <ele>805.6677783223904</ele>
        <time>2017-11-22T14:06:45.317000Z</time>
      </trkpt>
      <trkpt lat="45.73638439178467" lon="10.317878723144531">
        <ele>804.3665260528032</ele>
        <time>2017-11-22T14:06:45.679000Z</time>
      </trkpt>
      <trkpt lat="45.73627710342407" lon="10.318350791931152">
        <ele>800.7018147420313</ele>
        <time>2017-11-22T14:06:46.235000Z</time>
      </trkpt>
      <trkpt lat="45.73625564575195" lon="10.318822860717773">
        <ele>798.7979293078546</ele>
        <time>2017-11-22T14:06:46.764000Z</time>
      </trkpt>
      <trkpt lat="45.73659896850586" lon="10.319187641143799">
        <ele>795.0</ele>
        <time>2017-11-22T14:06:47.449000Z</time>
      </trkpt>
      <trkpt lat="45.736679434776306" lon="10.319211864843965">
        <ele>794.0660143069391</ele>
        <time>2017-11-22T14:06:47.581000Z</time>
      </trkpt>
      <trkpt lat="45.73667951859534" lon="10.319211864843965">
        <ele>794.0660816024068</ele>
        <time>2017-11-22T14:06:47.581000Z</time>
      </trkpt>
      <trkpt lat="45.73681354522705" lon="10.319252014160156">
        <ele>794.1760138778367</ele>
        <time>2017-11-22T14:06:47.801000Z</time>
      </trkpt>
      <trkpt lat="45.73687791824341" lon="10.319187641143799">
        <ele>794.2390403548452</ele>
        <time>2017-11-22T14:06:47.927000Z</time>
      </trkpt>
      <trkpt lat="45.73702812194824" lon="10.318694114685059">
        <ele>796.8740767951136</ele>
        <time>2017-11-22T14:06:48.529000Z</time>
      </trkpt>
      <trkpt lat="45.73726415634155" lon="10.31841516494751">
        <ele>797.1197303613541</ele>
        <time>2017-11-22T14:06:49.020000Z</time>
      </trkpt>
      <trkpt lat="45.73732852935791" lon="10.318093299865723">
        <ele>802.459757304226</ele>
        <time>2017-11-22T14:06:49.395000Z</time>
      </trkpt>
      <trkpt lat="45.73741436004639" lon="10.318007469177246">
        <ele>802.4627553882142</ele>
        <time>2017-11-22T14:06:49.563000Z</time>
      </trkpt>
      <trkpt lat="45.73788642883301" lon="10.317964553833008">
        <ele>794.8096376205671</ele>
        <time>2017-11-22T14:06:50.321000Z</time>
      </trkpt>
      <trkpt lat="45.737950801849365" lon="10.317556858062744">
        <ele>795.5721731399948</ele>
        <time>2017-11-22T14:06:50.789000Z</time>
      </trkpt>
      <trkpt lat="45.738487243652344" lon="10.3171706199646">
        <ele>800.4747184045101</ele>
        <time>2017-11-22T14:06:51.751000Z</time>
      </trkpt>
      <trkpt lat="45.738680362701416" lon="10.317106246948242">
        <ele>801.064005809065</ele>
        <time>2017-11-22T14:06:52.069000Z</time>
      </trkpt>
      <trkpt lat="45.73878765106201" lon="10.317299365997314">
        <ele>801.576005328242</ele>
        <time>2017-11-22T14:06:52.345000Z</time>
      </trkpt>
      <trkpt lat="45.73859453201294" lon="10.317771434783936">
        <ele>801.711029599136</ele>
        <time>2017-11-22T14:06:52.957000Z</time>
      </trkpt>
      <trkpt lat="45.73863375931978" lon="10.318712554872036">
        <ele>806.0</ele>
        <time>2017-11-22T14:06:54.012000Z</time>
      </trkpt>
      <trkpt lat="45.73863375931978" lon="10.3187127225101">
        <ele>806.0001020612503</ele>
        <time>2017-11-22T14:06:54.012000Z</time>
      </trkpt>
      <trkpt lat="45.73863744735718" lon="10.318801403045654">
        <ele>806.0541882245698</ele>
        <time>2017-11-22T14:06:54.111000Z</time>
      </trkpt>
      <trkpt lat="45.73874473571777" lon="10.318715572357178">
        <ele>806.1613778587935</ele>
        <time>2017-11-22T14:06:54.308000Z</time>
      </trkpt>
      <trkpt lat="45.73883056640625" lon="10.318286418914795">
        <ele>804.0998364482539</ele>
        <time>2017-11-22T14:06:54.807000Z</time>
      </trkpt>
      <trkpt lat="45.73908805847168" lon="10.317986011505127">
        <ele>804.3894922117511</ele>
        <time>2017-11-22T14:06:55.339000Z</time>
      </trkpt>
      <trkpt lat="45.73936700820923" lon="10.317814350128174">
        <ele>813.3731236314364</ele>
        <time>2017-11-22T14:06:55.826000Z</time>
      </trkpt>
      <trkpt lat="45.739431381225586" lon="10.317621231079102">
        <ele>815.1690665726214</ele>
        <time>2017-11-22T14:06:56.065000Z</time>
      </trkpt>
      <trkpt lat="45.739688873291016" lon="10.317277908325195">
        <ele>818.0648958938737</ele>
        <time>2017-11-22T14:06:56.629000Z</time>
      </trkpt>
      <trkpt lat="45.7400107383728" lon="10.317063331604004">
        <ele>828.0</ele>
        <time>2017-11-22T14:06:57.198000Z</time>
      </trkpt>
      <trkpt lat="45.740182399749756" lon="10.316805839538574">
        <ele>829.5730158824132</ele>
        <time>2017-11-22T14:06:57.596000Z</time>
      </trkpt>
      <trkpt lat="45.74035406112671" lon="10.31639814376831">
        <ele>834.6763637055639</ele>
        <time>2017-11-22T14:06:58.129000Z</time>
      </trkpt>
      <trkpt lat="45.74091204442084" lon="10.316162109375">
        <ele>841.6921626214852</ele>
        <time>2017-11-22T14:06:59.062000Z</time>
      </trkpt>
      <trkpt lat="45.74114799499512" lon="10.316333770751953">
        <ele>843.3671031357103</ele>
        <time>2017-11-22T14:06:59.486000Z</time>
      </trkpt>
      <trkpt lat="45.74155569076538" lon="10.316462516784668">
        <ele>843.4339500785469</ele>
        <time>2017-11-22T14:07:00.155000Z</time>
      </trkpt>
      <trkpt lat="45.741963386535645" lon="10.316720008850098">
        <ele>841.505291539499</ele>
        <time>2017-11-22T14:07:00.869000Z</time>
      </trkpt>
      <trkpt lat="45.741990795359015" lon="10.316893514245749">
        <ele>841.0759961650361</ele>
        <time>2017-11-22T14:07:01.068000Z</time>
      </trkpt>
      <trkpt lat="45.741990795359015" lon="10.316893681883812">
        <ele>841.0755916211642</ele>
        <time>2017-11-22T14:07:01.068000Z</time>
      </trkpt>
      <trkpt lat="45.74199087917805" lon="10.316893765702844">
        <ele>841.0752381847736</ele>
        <time>2017-11-22T14:07:01.068000Z</time>
      </trkpt>
      <trkpt lat="45.742027759552" lon="10.317127704620361">
        <ele>840.496472820174</ele>
        <time>2017-11-22T14:07:01.336000Z</time>
      </trkpt>
      <trkpt lat="45.741984844207764" lon="10.317363739013672">
        <ele>839.2800215668253</ele>
        <time>2017-11-22T14:07:01.609000Z</time>
      </trkpt>
      <trkpt lat="45.741941928863525" lon="10.31766414642334">
        <ele>834.4174194899642</ele>
        <time>2017-11-22T14:07:01.952000Z</time>
      </trkpt>
      <trkpt lat="45.74174880981445" lon="10.31792163848877">
        <ele>832.5323008124041</ele>
        <time>2017-11-22T14:07:02.375000Z</time>
      </trkpt>
      <trkpt lat="45.74181083589792" lon="10.318010821938515">
        <ele>831.904369533849</ele>
        <time>2017-11-22T14:07:02.516000Z</time>
      </trkpt>
      <trkpt lat="45.74181075207889" lon="10.31801057048142">
        <ele>831.9029797517134</ele>
        <time>2017-11-22T14:07:02.516000Z</time>
      </trkpt>
      <trkpt lat="45.74209221638739" lon="10.31841516494751">
        <ele>825.0539095388212</ele>
        <time>2017-11-22T14:07:03.155000Z</time>
      </trkpt>
      <trkpt lat="45.74226379394531" lon="10.318608283996582">
        <ele>823.494749145461</ele>
        <time>2017-11-22T14:07:03.505000Z</time>
      </trkpt>
      <trkpt lat="45.74230436235666" lon="10.318597974255681">
        <ele>823.453630119254</ele>
        <time>2017-11-22T14:07:03.571000Z</time>
      </trkpt>
      <trkpt lat="45.74230427853763" lon="10.318597974255681">
        <ele>823.4535464680257</ele>
        <time>2017-11-22T14:07:03.571000Z</time>
      </trkpt>
      <trkpt lat="45.74230436235666" lon="10.318597974254681">
        <ele>823.4534628167972</ele>
        <time>2017-11-22T14:07:03.571000Z</time>
      </trkpt>
      <trkpt lat="45.742435455322266" lon="10.318565368652344">
        <ele>823.3206759860508</ele>
        <time>2017-11-22T14:07:03.784000Z</time>
      </trkpt>
      <trkpt lat="45.74376583099365" lon="10.31714916229248">
        <ele>823.0</ele>
        <time>2017-11-22T14:07:06.441000Z</time>
      </trkpt>
      <trkpt lat="45.74389457702637" lon="10.317127704620361">
        <ele>822.864802738441</ele>
        <time>2017-11-22T14:07:06.649000Z</time>
      </trkpt>
      <trkpt lat="45.743980407714844" lon="10.317320823669434">
        <ele>822.6981382834725</ele>
        <time>2017-11-22T14:07:06.905000Z</time>
      </trkpt>
      <trkpt lat="45.743953166529536" lon="10.317647131159902">
        <ele>822.125583265244</ele>
        <time>2017-11-22T14:07:07.273000Z</time>
      </trkpt>
      <trkpt lat="45.743953166529536" lon="10.317647298797965">
        <ele>822.1257600221148</ele>
        <time>2017-11-22T14:07:07.273000Z</time>
      </trkpt>
      <trkpt lat="45.743916034698486" lon="10.318093299865723">
        <ele>822.599356712642</ele>
        <time>2017-11-22T14:07:07.776000Z</time>
      </trkpt>
      <trkpt lat="45.74400186538696" lon="10.3196382522583">
        <ele>832.7711989881991</ele>
        <time>2017-11-22T14:07:09.510000Z</time>
      </trkpt>
      <trkpt lat="45.74406623840332" lon="10.320110321044922">
        <ele>836.486973891565</ele>
        <time>2017-11-22T14:07:10.048000Z</time>
      </trkpt>
      <trkpt lat="45.7441520690918" lon="10.320496559143066">
        <ele>839.6183427533897</ele>
        <time>2017-11-22T14:07:10.501000Z</time>
      </trkpt>
      <trkpt lat="45.744216442108154" lon="10.320475101470947">
        <ele>850.6832927403983</ele>
        <time>2017-11-22T14:07:10.607000Z</time>
      </trkpt>
      <trkpt lat="45.74425935745239" lon="10.320453643798828">
        <ele>851.1864427068449</ele>
        <time>2017-11-22T14:07:10.680000Z</time>
      </trkpt>
      <trkpt lat="45.74428081512451" lon="10.320281982421875">
        <ele>852.5336541536952</ele>
        <time>2017-11-22T14:07:10.875000Z</time>
      </trkpt>
      <trkpt lat="45.744194984436035" lon="10.319938659667969">
        <ele>853.350917671472</ele>
        <time>2017-11-22T14:07:11.283000Z</time>
      </trkpt>
      <trkpt lat="45.74423789978027" lon="10.319552421569824">
        <ele>855.54171107987</ele>
        <time>2017-11-22T14:07:11.721000Z</time>
      </trkpt>
      <trkpt lat="45.74451684951782" lon="10.319209098815918">
        <ele>857.0900510306797</ele>
        <time>2017-11-22T14:07:12.311000Z</time>
      </trkpt>
      <trkpt lat="45.74464559555054" lon="10.318350791931152">
        <ele>858.0030765093203</ele>
        <time>2017-11-22T14:07:13.293000Z</time>
      </trkpt>
      <trkpt lat="45.74509620666504" lon="10.31665563583374">
        <ele>870.0</ele>
        <time>2017-11-22T14:07:15.322000Z</time>
      </trkpt>
      <trkpt lat="45.745224952697754" lon="10.316312313079834">
        <ele>870.7275687695534</ele>
        <time>2017-11-22T14:07:15.758000Z</time>
      </trkpt>
      <trkpt lat="45.74528932571411" lon="10.316312313079834">
        <ele>871.0943133031315</ele>
        <time>2017-11-22T14:07:15.861000Z</time>
      </trkpt>
      <trkpt lat="45.74533224105835" lon="10.31641960144043">
        <ele>871.5859702483186</ele>
        <time>2017-11-22T14:07:15.999000Z</time>
      </trkpt>
      <trkpt lat="45.745297875255346" lon="10.316625544801354">
        <ele>872.4278370750762</ele>
        <time>2017-11-22T14:07:16.236000Z</time>
      </trkpt>
      <trkpt lat="45.745297875255346" lon="10.316625712439418">
        <ele>872.4285035656882</ele>
        <time>2017-11-22T14:07:16.236000Z</time>
      </trkpt>
      <trkpt lat="45.745224952697754" lon="10.317063331604004">
        <ele>877.2172935397044</ele>
        <time>2017-11-22T14:07:16.739000Z</time>
      </trkpt>
      <trkpt lat="45.745439529418945" lon="10.31916618347168">
        <ele>889.0</ele>
        <time>2017-11-22T14:07:19.117000Z</time>
      </trkpt>
      <trkpt lat="45.74524641036987" lon="10.320453643798828">
        <ele>896.6716688227556</ele>
        <time>2017-11-22T14:07:20.590000Z</time>
      </trkpt>
      <trkpt lat="45.745203495025635" lon="10.321183204650879">
        <ele>897.6010801132674</ele>
        <time>2017-11-22T14:07:21.409000Z</time>
      </trkpt>
      <trkpt lat="45.74526786804199" lon="10.321483612060547">
        <ele>898.0</ele>
        <time>2017-11-22T14:07:21.761000Z</time>
      </trkpt>
      <trkpt lat="45.745418071746826" lon="10.321505069732666">
        <ele>898.9945312157228</ele>
        <time>2017-11-22T14:07:22.003000Z</time>
      </trkpt>
      <trkpt lat="45.74558981694281" lon="10.321462154388428">
        <ele>900.143158961591</ele>
        <time>2017-11-22T14:07:22.282000Z</time>
      </trkpt>
      <trkpt lat="45.74560674838722" lon="10.321508590131998">
        <ele>900.3840476089082</ele>
        <time>2017-11-22T14:07:22.341000Z</time>
      </trkpt>
      <trkpt lat="45.745606664568186" lon="10.321508506312966">
        <ele>900.3847210299551</ele>
        <time>2017-11-22T14:07:22.341000Z</time>
      </trkpt>
      <trkpt lat="45.745911598205566" lon="10.322341918945312">
        <ele>920.3779751914593</ele>
        <time>2017-11-22T14:07:23.394000Z</time>
      </trkpt>
      <trkpt lat="45.745954513549805" lon="10.322556495666504">
        <ele>916.7376012896149</ele>
        <time>2017-11-22T14:07:23.644000Z</time>
      </trkpt>
      <trkpt lat="45.74586868286133" lon="10.3236722946167">
        <ele>896.9349131317944</ele>
        <time>2017-11-22T14:07:24.900000Z</time>
      </trkpt>
      <trkpt lat="45.74612617492676" lon="10.324187278747559">
        <ele>878.0</ele>
        <time>2017-11-22T14:07:25.609000Z</time>
      </trkpt>
      <trkpt lat="45.74638366699219" lon="10.324337482452393">
        <ele>879.1704719883304</ele>
        <time>2017-11-22T14:07:26.055000Z</time>
      </trkpt>
      <trkpt lat="45.74728488922119" lon="10.324294567108154">
        <ele>887.3002237992941</ele>
        <time>2017-11-22T14:07:27.501000Z</time>
      </trkpt>
      <trkpt lat="45.74902296066284" lon="10.325109958648682">
        <ele>897.0</ele>
        <time>2017-11-22T14:07:30.433000Z</time>
      </trkpt>
      <trkpt lat="45.74951648712158" lon="10.326054096221924">
        <ele>892.4224827665574</ele>
        <time>2017-11-22T14:07:31.753000Z</time>
      </trkpt>
      <trkpt lat="45.74975252151489" lon="10.326268672943115">
        <ele>892.0</ele>
        <time>2017-11-22T14:07:32.201000Z</time>
      </trkpt>
      <trkpt lat="45.75001001358032" lon="10.326375961303711">
        <ele>888.5665663719692</ele>
        <time>2017-11-22T14:07:32.631000Z</time>
      </trkpt>
      <trkpt lat="45.75035333633423" lon="10.326333045959473">
        <ele>888.4379197330837</ele>
        <time>2017-11-22T14:07:33.183000Z</time>
      </trkpt>
      <trkpt lat="45.751447677612305" lon="10.325260162353516">
        <ele>890.2762969914285</ele>
        <time>2017-11-22T14:07:35.309000Z</time>
      </trkpt>
      <trkpt lat="45.75183391571045" lon="10.325109958648682">
        <ele>893.0</ele>
        <time>2017-11-22T14:07:35.951000Z</time>
      </trkpt>
      <trkpt lat="45.75224161148071" lon="10.324680805206299">
        <ele>898.3819785241358</ele>
        <time>2017-11-22T14:07:36.762000Z</time>
      </trkpt>
      <trkpt lat="45.75230598449707" lon="10.324702262878418">
        <ele>898.4318854844288</ele>
        <time>2017-11-22T14:07:36.868000Z</time>
      </trkpt>
      <trkpt lat="45.75239181518555" lon="10.324938297271729">
        <ele>898.5721258782575</ele>
        <time>2017-11-22T14:07:37.166000Z</time>
      </trkpt>
      <trkpt lat="45.752434730529785" lon="10.325582027435303">
        <ele>893.9128479078448</ele>
        <time>2017-11-22T14:07:37.889000Z</time>
      </trkpt>
      <trkpt lat="45.75239717960358" lon="10.325704403221607">
        <ele>894.1128700548801</ele>
        <time>2017-11-22T14:07:38.039000Z</time>
      </trkpt>
      <trkpt lat="45.75239726342261" lon="10.325704151764512">
        <ele>894.1132870128198</ele>
        <time>2017-11-22T14:07:38.039000Z</time>
      </trkpt>
      <trkpt lat="45.75185537338257" lon="10.327470302581787">
        <ele>899.0</ele>
        <time>2017-11-22T14:07:40.197000Z</time>
      </trkpt>
      <trkpt lat="45.7515549659729" lon="10.328586101531982">
        <ele>888.4425946506053</ele>
        <time>2017-11-22T14:07:41.535000Z</time>
      </trkpt>
      <trkpt lat="45.75149059295654" lon="10.329251289367676">
        <ele>887.8835557102461</ele>
        <time>2017-11-22T14:07:42.286000Z</time>
      </trkpt>
      <trkpt lat="45.75157642364502" lon="10.329766273498535">
        <ele>889.454258198091</ele>
        <time>2017-11-22T14:07:42.878000Z</time>
      </trkpt>
      <trkpt lat="45.751705169677734" lon="10.330002307891846">
        <ele>900.8936112845457</ele>
        <time>2017-11-22T14:07:43.213000Z</time>
      </trkpt>
      <trkpt lat="45.75232744216919" lon="10.330667495727539">
        <ele>909.9522701712667</ele>
        <time>2017-11-22T14:07:44.458000Z</time>
      </trkpt>
      <trkpt lat="45.75277805328369" lon="10.332469940185547">
        <ele>922.0</ele>
        <time>2017-11-22T14:07:46.600000Z</time>
      </trkpt>
      <trkpt lat="45.75273513793945" lon="10.332856178283691">
        <ele>907.6042809027</ele>
        <time>2017-11-22T14:07:47.037000Z</time>
      </trkpt>
      <trkpt lat="45.75265391729772" lon="10.332883168011904">
        <ele>904.937371893756</ele>
        <time>2017-11-22T14:07:47.171000Z</time>
      </trkpt>
      <trkpt lat="45.75265400111675" lon="10.332883168011904">
        <ele>904.9346907924893</ele>
        <time>2017-11-22T14:07:47.171000Z</time>
      </trkpt>
      <trkpt lat="45.75260639190674" lon="10.33289909362793">
        <ele>903.370894115346</ele>
        <time>2017-11-22T14:07:47.249000Z</time>
      </trkpt>
      <trkpt lat="45.75224161148071" lon="10.33266305923462">
        <ele>879.901947800889</ele>
        <time>2017-11-22T14:07:47.891000Z</time>
      </trkpt>
      <trkpt lat="45.751962661743164" lon="10.3326416015625">
        <ele>874.8966630078721</ele>
        <time>2017-11-22T14:07:48.339000Z</time>
      </trkpt>
      <trkpt lat="45.75125455856323" lon="10.33315658569336">
        <ele>855.0023566557275</ele>
        <time>2017-11-22T14:07:49.612000Z</time>
      </trkpt>
      <trkpt lat="45.750718116760254" lon="10.333199501037598">
        <ele>846.5213750375593</ele>
        <time>2017-11-22T14:07:50.473000Z</time>
      </trkpt>
      <trkpt lat="45.75011730194092" lon="10.333414077758789">
        <ele>861.3487641960237</ele>
        <time>2017-11-22T14:07:51.466000Z</time>
      </trkpt>
      <trkpt lat="45.749666690826416" lon="10.333263874053955">
        <ele>847.5531278731765</ele>
        <time>2017-11-22T14:07:52.208000Z</time>
      </trkpt>
      <trkpt lat="45.74930191040039" lon="10.333220958709717">
        <ele>849.6008282070935</ele>
        <time>2017-11-22T14:07:52.795000Z</time>
      </trkpt>
      <trkpt lat="45.74878692626953" lon="10.332963466644287">
        <ele>857.1335488391898</ele>
        <time>2017-11-22T14:07:53.669000Z</time>
      </trkpt>
      <trkpt lat="45.748679637908936" lon="10.332963466644287">
        <ele>858.3529953352822</ele>
        <time>2017-11-22T14:07:53.841000Z</time>
      </trkpt>
      <trkpt lat="45.747671127319336" lon="10.333564281463623">
        <ele>884.4335120176602</ele>
        <time>2017-11-22T14:07:55.592000Z</time>
      </trkpt>
      <trkpt lat="45.74739217758179" lon="10.33390760421753">
        <ele>874.0</ele>
        <time>2017-11-22T14:07:56.181000Z</time>
      </trkpt>
      <trkpt lat="45.74737071990967" lon="10.334186553955078">
        <ele>883.4721937087621</ele>
        <time>2017-11-22T14:07:56.495000Z</time>
      </trkpt>
      <trkpt lat="45.74732780456543" lon="10.334250926971436">
        <ele>884.0449665539721</ele>
        <time>2017-11-22T14:07:56.595000Z</time>
      </trkpt>
      <trkpt lat="45.74709177017212" lon="10.334315299987793">
        <ele>886.2601575852964</ele>
        <time>2017-11-22T14:07:56.980000Z</time>
      </trkpt>
      <trkpt lat="45.746662616729736" lon="10.335023403167725">
        <ele>891.294171444181</ele>
        <time>2017-11-22T14:07:58.029000Z</time>
      </trkpt>
      <trkpt lat="45.746426582336426" lon="10.335538387298584">
        <ele>895.25816539902</ele>
        <time>2017-11-22T14:07:58.718000Z</time>
      </trkpt>
      <trkpt lat="45.74637930840254" lon="10.335685489699244">
        <ele>896.3551944177976</ele>
        <time>2017-11-22T14:07:58.899000Z</time>
      </trkpt>
      <trkpt lat="45.74637939222157" lon="10.33568523824215">
        <ele>896.3570820846288</ele>
        <time>2017-11-22T14:07:58.899000Z</time>
      </trkpt>
      <trkpt lat="45.74623346328735" lon="10.33613920211792">
        <ele>904.4093925243446</ele>
        <time>2017-11-22T14:07:59.458000Z</time>
      </trkpt>
      <trkpt lat="45.74623346328735" lon="10.336289405822754">
        <ele>905.4268462818076</ele>
        <time>2017-11-22T14:07:59.626000Z</time>
      </trkpt>
      <trkpt lat="45.74631929397583" lon="10.33639669418335">
        <ele>906.5324251899641</ele>
        <time>2017-11-22T14:07:59.809000Z</time>
      </trkpt>
      <trkpt lat="45.74687719345093" lon="10.336697101593018">
        <ele>912.0176910167719</ele>
        <time>2017-11-22T14:08:00.764000Z</time>
      </trkpt>
      <trkpt lat="45.74689865112305" lon="10.336847305297852">
        <ele>912.2886765952653</ele>
        <time>2017-11-22T14:08:00.936000Z</time>
      </trkpt>
      <trkpt lat="45.746469497680664" lon="10.33837080001831">
        <ele>915.5258591365811</ele>
        <time>2017-11-22T14:08:02.774000Z</time>
      </trkpt>
      <trkpt lat="45.74629783630371" lon="10.339486598968506">
        <ele>926.6297739379761</ele>
        <time>2017-11-22T14:08:04.052000Z</time>
      </trkpt>
      <trkpt lat="45.746448040008545" lon="10.3401517868042">
        <ele>932.8009143013129</ele>
        <time>2017-11-22T14:08:04.834000Z</time>
      </trkpt>
      <trkpt lat="45.74655532836914" lon="10.3416109085083">
        <ele>927.6836025198583</ele>
        <time>2017-11-22T14:08:06.475000Z</time>
      </trkpt>
      <trkpt lat="45.74649095535278" lon="10.342061519622803">
        <ele>922.208865698873</ele>
        <time>2017-11-22T14:08:06.990000Z</time>
      </trkpt>
      <trkpt lat="45.74649095535278" lon="10.342469215393066">
        <ele>920.0528161293756</ele>
        <time>2017-11-22T14:08:07.446000Z</time>
      </trkpt>
      <trkpt lat="45.7466197013855" lon="10.343263149261475">
        <ele>914.0756578393842</ele>
        <time>2017-11-22T14:08:08.358000Z</time>
      </trkpt>
      <trkpt lat="45.7466197013855" lon="10.343842506408691">
        <ele>907.3171921918232</ele>
        <time>2017-11-22T14:08:09.006000Z</time>
      </trkpt>
      <trkpt lat="45.74649095535278" lon="10.344314575195312">
        <ele>904.2373263978639</ele>
        <time>2017-11-22T14:08:09.573000Z</time>
      </trkpt>
      <trkpt lat="45.74646036140621" lon="10.344351287931204">
        <ele>903.9650635551803</ele>
        <time>2017-11-22T14:08:09.637000Z</time>
      </trkpt>
      <trkpt lat="45.74646044522524" lon="10.344351036474109">
        <ele>903.9637367260069</ele>
        <time>2017-11-22T14:08:09.637000Z</time>
      </trkpt>
      <trkpt lat="45.74638366699219" lon="10.344443321228027">
        <ele>903.2800070708727</ele>
        <time>2017-11-22T14:08:09.798000Z</time>
      </trkpt>
      <trkpt lat="45.7460618019104" lon="10.344314575195312">
        <ele>901.0</ele>
        <time>2017-11-22T14:08:10.334000Z</time>
      </trkpt>
      <trkpt lat="45.74582576751709" lon="10.344336032867432">
        <ele>894.2480806418076</ele>
        <time>2017-11-22T14:08:10.713000Z</time>
      </trkpt>
      <trkpt lat="45.74563264846802" lon="10.344164371490479">
        <ele>885.2574487218232</ele>
        <time>2017-11-22T14:08:11.077000Z</time>
      </trkpt>
      <trkpt lat="45.74498891830444" lon="10.343971252441406">
        <ele>878.1984882691258</ele>
        <time>2017-11-22T14:08:12.131000Z</time>
      </trkpt>
      <trkpt lat="45.74477434158325" lon="10.344035625457764">
        <ele>875.9566124999455</ele>
        <time>2017-11-22T14:08:12.482000Z</time>
      </trkpt>
      <trkpt lat="45.744473934173584" lon="10.344314575195312">
        <ele>884.2757663084161</ele>
        <time>2017-11-22T14:08:13.056000Z</time>
      </trkpt>
      <trkpt lat="45.74423789978027" lon="10.344722270965576">
        <ele>884.949600864531</ele>
        <time>2017-11-22T14:08:13.649000Z</time>
      </trkpt>
      <trkpt lat="45.74406623840332" lon="10.344808101654053">
        <ele>882.6508672664604</ele>
        <time>2017-11-22T14:08:13.940000Z</time>
      </trkpt>
      <trkpt lat="45.74383020401001" lon="10.344207286834717">
        <ele>883.6245896903328</ele>
        <time>2017-11-22T14:08:14.711000Z</time>
      </trkpt>
      <trkpt lat="45.74340105056763" lon="10.343799591064453">
        <ele>877.5257657614351</ele>
        <time>2017-11-22T14:08:15.536000Z</time>
      </trkpt>
      <trkpt lat="45.743229473009706" lon="10.343713760375977">
        <ele>881.4712735661545</ele>
        <time>2017-11-22T14:08:15.827000Z</time>
      </trkpt>
      <trkpt lat="45.74299335479736" lon="10.343585014343262">
        <ele>880.9321384084083</ele>
        <time>2017-11-22T14:08:16.232000Z</time>
      </trkpt>
      <trkpt lat="45.74275732040405" lon="10.343563556671143">
        <ele>880.4274178690745</ele>
        <time>2017-11-22T14:08:16.611000Z</time>
      </trkpt>
      <trkpt lat="45.74253151193261" lon="10.343780647963285">
        <ele>881.3826731600205</ele>
        <time>2017-11-22T14:08:17.047000Z</time>
      </trkpt>
      <trkpt lat="45.74253159575164" lon="10.343780564144254">
        <ele>881.3837064515043</ele>
        <time>2017-11-22T14:08:17.047000Z</time>
      </trkpt>
      <trkpt lat="45.742199420928955" lon="10.344099998474121">
        <ele>888.427878845032</ele>
        <time>2017-11-22T14:08:17.688000Z</time>
      </trkpt>
      <trkpt lat="45.742220962420106" lon="10.344421863555908">
        <ele>894.0424257326703</ele>
        <time>2017-11-22T14:08:18.050000Z</time>
      </trkpt>
      <trkpt lat="45.742220962420106" lon="10.344529151916504">
        <ele>894.7993575737986</ele>
        <time>2017-11-22T14:08:18.170000Z</time>
      </trkpt>
      <trkpt lat="45.74217804707587" lon="10.344915390014648">
        <ele>897.5586331951318</ele>
        <time>2017-11-22T14:08:18.608000Z</time>
      </trkpt>
      <trkpt lat="45.74215658940375" lon="10.344979763031006">
        <ele>898.0029607728305</ele>
        <time>2017-11-22T14:08:18.688000Z</time>
      </trkpt>
      <trkpt lat="45.742177963256836" lon="10.345473289489746">
        <ele>902.0827561514412</ele>
        <time>2017-11-22T14:08:19.241000Z</time>
      </trkpt>
      <trkpt lat="45.74254274368286" lon="10.34663200378418">
        <ele>914.0</ele>
        <time>2017-11-22T14:08:20.663000Z</time>
      </trkpt>
      <trkpt lat="45.742529751732945" lon="10.346729401499033">
        <ele>916.9166118261415</ele>
        <time>2017-11-22T14:08:20.774000Z</time>
      </trkpt>
      <trkpt lat="45.74252983555198" lon="10.346729150041938">
        <ele>916.917314237112</ele>
        <time>2017-11-22T14:08:20.774000Z</time>
      </trkpt>
      <trkpt lat="45.74249982833862" lon="10.346953868865967">
        <ele>908.1606834821281</ele>
        <time>2017-11-22T14:08:21.030000Z</time>
      </trkpt>
      <trkpt lat="45.74239253997803" lon="10.347297191619873">
        <ele>909.1088630261635</ele>
        <time>2017-11-22T14:08:21.451000Z</time>
      </trkpt>
      <trkpt lat="45.74237108230591" lon="10.347490310668945">
        <ele>909.6017716640372</ele>
        <time>2017-11-22T14:08:21.670000Z</time>
      </trkpt>
      <trkpt lat="45.74230670928955" lon="10.347661972045898">
        <ele>912.4263066255339</ele>
        <time>2017-11-22T14:08:21.888000Z</time>
      </trkpt>
      <trkpt lat="45.741705894470215" lon="10.34837007522583">
        <ele>924.9027158788525</ele>
        <time>2017-11-22T14:08:23.135000Z</time>
      </trkpt>
      <trkpt lat="45.74162006378174" lon="10.34860610961914">
        <ele>912.7483035045196</ele>
        <time>2017-11-22T14:08:23.433000Z</time>
      </trkpt>
      <trkpt lat="45.74159860610962" lon="10.349249839782715">
        <ele>917.0934737512324</ele>
        <time>2017-11-22T14:08:24.154000Z</time>
      </trkpt>
      <trkpt lat="45.74138402938843" lon="10.349829196929932">
        <ele>917.5059797077325</ele>
        <time>2017-11-22T14:08:24.888000Z</time>
      </trkpt>
      <trkpt lat="45.74125528335571" lon="10.351030826568604">
        <ele>935.2675073157881</ele>
        <time>2017-11-22T14:08:26.248000Z</time>
      </trkpt>
      <trkpt lat="45.74127674102783" lon="10.351524353027344">
        <ele>939.3735424973511</ele>
        <time>2017-11-22T14:08:26.801000Z</time>
      </trkpt>
      <trkpt lat="45.741222593933344" lon="10.351784192025661">
        <ele>944.219540985087</ele>
        <time>2017-11-22T14:08:27.104000Z</time>
      </trkpt>
      <trkpt lat="45.741222593933344" lon="10.351784275844693">
        <ele>944.219802479652</ele>
        <time>2017-11-22T14:08:27.104000Z</time>
      </trkpt>
      <trkpt lat="45.741169452667236" lon="10.352039337158203">
        <ele>945.0502331665139</ele>
        <time>2017-11-22T14:08:27.402000Z</time>
      </trkpt>
      <trkpt lat="45.74108362197876" lon="10.35212516784668">
        <ele>945.5181129968006</ele>
        <time>2017-11-22T14:08:27.570000Z</time>
      </trkpt>
      <trkpt lat="45.74065446853638" lon="10.352210998535156">
        <ele>932.9855735487087</ele>
        <time>2017-11-22T14:08:28.265000Z</time>
      </trkpt>
      <trkpt lat="45.739924907684326" lon="10.35334825515747">
        <ele>934.1726761924019</ele>
        <time>2017-11-22T14:08:29.993000Z</time>
      </trkpt>
      <trkpt lat="45.739731788635254" lon="10.353777408599854">
        <ele>933.2702145597077</ele>
        <time>2017-11-22T14:08:30.564000Z</time>
      </trkpt>
      <trkpt lat="45.739710330963135" lon="10.353949069976807">
        <ele>932.9619990959142</ele>
        <time>2017-11-22T14:08:30.759000Z</time>
      </trkpt>
      <trkpt lat="45.73964595794678" lon="10.354485511779785">
        <ele>932.0</ele>
        <time>2017-11-22T14:08:31.368000Z</time>
      </trkpt>
      <trkpt lat="45.73965551331639" lon="10.354585088789463">
        <ele>932.1468122559464</ele>
        <time>2017-11-22T14:08:31.480000Z</time>
      </trkpt>
      <trkpt lat="45.73965551331639" lon="10.354585340246558">
        <ele>932.1471795385687</ele>
        <time>2017-11-22T14:08:31.481000Z</time>
      </trkpt>
      <trkpt lat="45.739688873291016" lon="10.354936122894287">
        <ele>932.6642733484306</ele>
        <time>2017-11-22T14:08:31.877000Z</time>
      </trkpt>
      <trkpt lat="45.73975324630737" lon="10.35487174987793">
        <ele>932.8285604674796</ele>
        <time>2017-11-22T14:08:32.003000Z</time>
      </trkpt>
      <trkpt lat="45.739731788635254" lon="10.354442596435547">
        <ele>933.4569951631929</ele>
        <time>2017-11-22T14:08:32.484000Z</time>
      </trkpt>
      <trkpt lat="45.73990345001221" lon="10.354142189025879">
        <ele>934.0240851472917</ele>
        <time>2017-11-22T14:08:32.918000Z</time>
      </trkpt>
      <trkpt lat="45.74050426483154" lon="10.353841781616211">
        <ele>943.1667801626827</ele>
        <time>2017-11-22T14:08:33.938000Z</time>
      </trkpt>
      <trkpt lat="45.740675926208496" lon="10.35386323928833">
        <ele>944.5593510112116</ele>
        <time>2017-11-22T14:08:34.214000Z</time>
      </trkpt>
      <trkpt lat="45.74076175689697" lon="10.354013442993164">
        <ele>945.6542787614993</ele>
        <time>2017-11-22T14:08:34.431000Z</time>
      </trkpt>
      <trkpt lat="45.74086904525757" lon="10.35463571548462">
        <ele>953.0604898531495</ele>
        <time>2017-11-22T14:08:35.148000Z</time>
      </trkpt>
      <trkpt lat="45.74091849848628" lon="10.35469975322485">
        <ele>953.0078428122465</ele>
        <time>2017-11-22T14:08:35.255000Z</time>
      </trkpt>
      <trkpt lat="45.74091858230531" lon="10.354699837043881">
        <ele>953.0077620806642</ele>
        <time>2017-11-22T14:08:35.255000Z</time>
      </trkpt>
      <trkpt lat="45.741233825683594" lon="10.35510778427124">
        <ele>949.0055920673184</ele>
        <time>2017-11-22T14:08:35.936000Z</time>
      </trkpt>
      <trkpt lat="45.74134111404419" lon="10.3556227684021">
        <ele>948.7093426591094</ele>
        <time>2017-11-22T14:08:36.537000Z</time>
      </trkpt>
      <trkpt lat="45.741684436798096" lon="10.356202125549316">
        <ele>949.6237238131067</ele>
        <time>2017-11-22T14:08:37.387000Z</time>
      </trkpt>
      <trkpt lat="45.742027759552" lon="10.356566905975342">
        <ele>948.4740256900022</ele>
        <time>2017-11-22T14:08:38.072000Z</time>
      </trkpt>
      <trkpt lat="45.742692947387695" lon="10.357167720794678">
        <ele>938.1901078987008</ele>
        <time>2017-11-22T14:08:39.333000Z</time>
      </trkpt>
      <trkpt lat="45.74333667755127" lon="10.357468128204346">
        <ele>938.7314148851534</ele>
        <time>2017-11-22T14:08:40.418000Z</time>
      </trkpt>
      <trkpt lat="45.74340105056763" lon="10.35761833190918">
        <ele>928.5273784679416</ele>
        <time>2017-11-22T14:08:40.615000Z</time>
      </trkpt>
      <trkpt lat="45.743465423583984" lon="10.358326435089111">
        <ele>925.0</ele>
        <time>2017-11-22T14:08:41.414000Z</time>
      </trkpt>
      <trkpt lat="45.74352979660034" lon="10.358412265777588">
        <ele>912.9712122720999</ele>
        <time>2017-11-22T14:08:41.555000Z</time>
      </trkpt>
      <trkpt lat="45.74383020401001" lon="10.358412265777588">
        <ele>909.4564371267442</ele>
        <time>2017-11-22T14:08:42.037000Z</time>
      </trkpt>
      <trkpt lat="45.744194984436035" lon="10.358798503875732">
        <ele>911.1497597537095</ele>
        <time>2017-11-22T14:08:42.764000Z</time>
      </trkpt>
      <trkpt lat="45.74434518814087" lon="10.359227657318115">
        <ele>896.1388439988691</ele>
        <time>2017-11-22T14:08:43.301000Z</time>
      </trkpt>
      <trkpt lat="45.7444953918457" lon="10.359914302825928">
        <ele>888.6283880012576</ele>
        <time>2017-11-22T14:08:44.106000Z</time>
      </trkpt>
      <trkpt lat="45.74462413787842" lon="10.360171794891357">
        <ele>876.3223093681794</ele>
        <time>2017-11-22T14:08:44.460000Z</time>
      </trkpt>
      <trkpt lat="45.7451605796814" lon="10.360794067382812">
        <ele>871.0</ele>
        <time>2017-11-22T14:08:45.566000Z</time>
      </trkpt>
      <trkpt lat="45.74556827545166" lon="10.361137390136719">
        <ele>858.4334309958114</ele>
        <time>2017-11-22T14:08:46.324000Z</time>
      </trkpt>
      <trkpt lat="45.7460618019104" lon="10.361266136169434">
        <ele>854.9022355369513</ele>
        <time>2017-11-22T14:08:47.128000Z</time>
      </trkpt>
      <trkpt lat="45.74608325958252" lon="10.36137342453003">
        <ele>854.1456620682749</ele>
        <time>2017-11-22T14:08:47.253000Z</time>
      </trkpt>
      <trkpt lat="45.74604034423828" lon="10.361437797546387">
        <ele>853.5421592449269</ele>
        <time>2017-11-22T14:08:47.353000Z</time>
      </trkpt>
      <trkpt lat="45.74533224105835" lon="10.361394882202148">
        <ele>844.9907753318803</ele>
        <time>2017-11-22T14:08:48.489000Z</time>
      </trkpt>
      <trkpt lat="45.74531078338623" lon="10.361480712890625">
        <ele>844.489231802705</ele>
        <time>2017-11-22T14:08:48.591000Z</time>
      </trkpt>
      <trkpt lat="45.74535369873047" lon="10.36158800125122">
        <ele>843.8089527757334</ele>
        <time>2017-11-22T14:08:48.729000Z</time>
      </trkpt>
      <trkpt lat="45.74586868286133" lon="10.361952781677246">
        <ele>832.2805164223561</ele>
        <time>2017-11-22T14:08:49.650000Z</time>
      </trkpt>
      <trkpt lat="45.74601888656616" lon="10.361995697021484">
        <ele>831.9169587302445</ele>
        <time>2017-11-22T14:08:49.896000Z</time>
      </trkpt>
      <trkpt lat="45.74649095535278" lon="10.361781120300293">
        <ele>830.7413837633403</ele>
        <time>2017-11-22T14:08:50.690000Z</time>
      </trkpt>
      <trkpt lat="45.7466197013855" lon="10.361888408660889">
        <ele>830.3878607994376</ele>
        <time>2017-11-22T14:08:50.929000Z</time>
      </trkpt>
      <trkpt lat="45.746684074401855" lon="10.362446308135986">
        <ele>838.2200650148187</ele>
        <time>2017-11-22T14:08:51.562000Z</time>
      </trkpt>
      <trkpt lat="45.74709177017212" lon="10.3635835647583">
        <ele>828.0</ele>
        <time>2017-11-22T14:08:52.992000Z</time>
      </trkpt>
      <trkpt lat="45.7470703125" lon="10.363669395446777">
        <ele>826.8543417381262</ele>
        <time>2017-11-22T14:08:53.094000Z</time>
      </trkpt>
      <trkpt lat="45.74705044738948" lon="10.363676100969315">
        <ele>826.4868390460994</ele>
        <time>2017-11-22T14:08:53.127000Z</time>
      </trkpt>
      <trkpt lat="45.74705027975142" lon="10.363676100969315">
        <ele>826.4838203732703</ele>
        <time>2017-11-22T14:08:53.127000Z</time>
      </trkpt>
      <trkpt lat="45.74700593948364" lon="10.363690853118896">
        <ele>825.6641448178019</ele>
        <time>2017-11-22T14:08:53.200000Z</time>
      </trkpt>
      <trkpt lat="45.74683427810669" lon="10.363433361053467">
        <ele>821.1892998853936</ele>
        <time>2017-11-22T14:08:53.598000Z</time>
      </trkpt>
      <trkpt lat="45.74653387069702" lon="10.363540649414062">
        <ele>805.9477012520416</ele>
        <time>2017-11-22T14:08:54.094000Z</time>
      </trkpt>
      <trkpt lat="45.74636220932007" lon="10.363883972167969">
        <ele>800.6404166817034</ele>
        <time>2017-11-22T14:08:54.566000Z</time>
      </trkpt>
      <trkpt lat="45.74623346328735" lon="10.364463329315186">
        <ele>790.0</ele>
        <time>2017-11-22T14:08:55.246000Z</time>
      </trkpt>
      <trkpt lat="45.74625492095947" lon="10.36461353302002">
        <ele>789.756548187066</ele>
        <time>2017-11-22T14:08:55.418000Z</time>
      </trkpt>
      <trkpt lat="45.74631929397583" lon="10.364720821380615">
        <ele>789.5318747967691</ele>
        <time>2017-11-22T14:08:55.576000Z</time>
      </trkpt>
      <trkpt lat="45.746747609227896" lon="10.364955766126513">
        <ele>793.1549790679591</ele>
        <time>2017-11-22T14:08:56.311000Z</time>
      </trkpt>
      <trkpt lat="45.74674769304693" lon="10.364955766126513">
        <ele>793.1547883435918</ele>
        <time>2017-11-22T14:08:56.311000Z</time>
      </trkpt>
      <trkpt lat="45.74698448181152" lon="10.36508560180664">
        <ele>784.5778968734197</ele>
        <time>2017-11-22T14:08:56.717000Z</time>
      </trkpt>
      <trkpt lat="45.7478214148432" lon="10.365042686462402">
        <ele>783.0056286275999</ele>
        <time>2017-11-22T14:08:58.060000Z</time>
      </trkpt>
      <trkpt lat="45.74840077199042" lon="10.365257263183594">
        <ele>786.0</ele>
        <time>2017-11-22T14:08:59.019000Z</time>
      </trkpt>
      <trkpt lat="45.74855097569525" lon="10.365300178527832">
        <ele>787.1897456852626</ele>
        <time>2017-11-22T14:08:59.265000Z</time>
      </trkpt>
      <trkpt lat="45.74934482574463" lon="10.365149974822998">
        <ele>798.0765527991451</ele>
        <time>2017-11-22T14:09:00.549000Z</time>
      </trkpt>
      <trkpt lat="45.75001001358032" lon="10.365386009216309">
        <ele>806.0664353395383</ele>
        <time>2017-11-22T14:09:01.648000Z</time>
      </trkpt>
      <trkpt lat="45.750224590301514" lon="10.365386009216309">
        <ele>806.8482165677457</ele>
        <time>2017-11-22T14:09:01.992000Z</time>
      </trkpt>
      <trkpt lat="45.75058937072754" lon="10.365278720855713">
        <ele>808.2049452963983</ele>
        <time>2017-11-22T14:09:02.589000Z</time>
      </trkpt>
      <trkpt lat="45.75086832046509" lon="10.36562204360962">
        <ele>807.0997685173767</ele>
        <time>2017-11-22T14:09:03.178000Z</time>
      </trkpt>
      <trkpt lat="45.750975608825684" lon="10.365643501281738">
        <ele>806.3759503645009</ele>
        <time>2017-11-22T14:09:03.352000Z</time>
      </trkpt>
      <trkpt lat="45.751211643218994" lon="10.365386009216309">
        <ele>804.3938974995298</ele>
        <time>2017-11-22T14:09:03.828000Z</time>
      </trkpt>
      <trkpt lat="45.75174808502197" lon="10.365407466888428">
        <ele>797.808146627697</ele>
        <time>2017-11-22T14:09:04.688000Z</time>
      </trkpt>
      <trkpt lat="45.7520055770874" lon="10.36562204360962">
        <ele>795.8179401411811</ele>
        <time>2017-11-22T14:09:05.166000Z</time>
      </trkpt>
      <trkpt lat="45.752155780792236" lon="10.3656005859375">
        <ele>794.3267378236693</ele>
        <time>2017-11-22T14:09:05.408000Z</time>
      </trkpt>
      <trkpt lat="45.75260639190674" lon="10.365257263183594">
        <ele>782.2852227450791</ele>
        <time>2017-11-22T14:09:06.226000Z</time>
      </trkpt>
      <trkpt lat="45.752971172332764" lon="10.365235805511475">
        <ele>777.5071430595243</ele>
        <time>2017-11-22T14:09:06.811000Z</time>
      </trkpt>
      <trkpt lat="45.753164291381836" lon="10.36508560180664">
        <ele>774.6314954382528</ele>
        <time>2017-11-22T14:09:07.163000Z</time>
      </trkpt>
      <trkpt lat="45.753487162292004" lon="10.364643121138215">
        <ele>759.7041459052252</ele>
        <time>2017-11-22T14:09:07.879000Z</time>
      </trkpt>
      <trkpt lat="45.753487246111035" lon="10.364643037319183">
        <ele>759.7023322222643</ele>
        <time>2017-11-22T14:09:07.879000Z</time>
      </trkpt>
      <trkpt lat="45.75374364852905" lon="10.364291667938232">
        <ele>753.4071401224361</ele>
        <time>2017-11-22T14:09:08.448000Z</time>
      </trkpt>
      <trkpt lat="45.753915309906006" lon="10.363819599151611">
        <ele>751.8159803330051</ele>
        <time>2017-11-22T14:09:09.043000Z</time>
      </trkpt>
      <trkpt lat="45.75423717498779" lon="10.363519191741943">
        <ele>731.0</ele>
        <time>2017-11-22T14:09:09.659000Z</time>
      </trkpt>
      <trkpt lat="45.75438737869263" lon="10.36184549331665">
        <ele>754.9289139506518</ele>
        <time>2017-11-22T14:09:11.547000Z</time>
      </trkpt>
      <trkpt lat="45.75449466705322" lon="10.361566543579102">
        <ele>758.8340138288359</ele>
        <time>2017-11-22T14:09:11.903000Z</time>
      </trkpt>
      <trkpt lat="45.754923820495605" lon="10.360965728759766">
        <ele>758.5778567001335</ele>
        <time>2017-11-22T14:09:12.865000Z</time>
      </trkpt>
      <trkpt lat="45.755181312561035" lon="10.36036491394043">
        <ele>742.4417513009375</ele>
        <time>2017-11-22T14:09:13.654000Z</time>
      </trkpt>
      <trkpt lat="45.75526714324951" lon="10.360021591186523">
        <ele>743.2440715981828</ele>
        <time>2017-11-22T14:09:14.062000Z</time>
      </trkpt>
      <trkpt lat="45.75526714324951" lon="10.359506607055664">
        <ele>747.3770210137619</ele>
        <time>2017-11-22T14:09:14.638000Z</time>
      </trkpt>
      <trkpt lat="45.75550317764282" lon="10.358884334564209">
        <ele>749.935221974752</ele>
        <time>2017-11-22T14:09:15.430000Z</time>
      </trkpt>
      <trkpt lat="45.75556755065918" lon="10.358047485351562">
        <ele>764.7638652529616</ele>
        <time>2017-11-22T14:09:16.372000Z</time>
      </trkpt>
      <trkpt lat="45.75601816177368" lon="10.357038974761963">
        <ele>789.6907841010861</ele>
        <time>2017-11-22T14:09:17.712000Z</time>
      </trkpt>
      <trkpt lat="45.756189823150635" lon="10.357038974761963">
        <ele>790.419829991707</ele>
        <time>2017-11-22T14:09:17.987000Z</time>
      </trkpt>
      <trkpt lat="45.75623273849487" lon="10.35710334777832">
        <ele>790.6836566217681</ele>
        <time>2017-11-22T14:09:18.087000Z</time>
      </trkpt>
      <trkpt lat="45.75653314590454" lon="10.357897281646729">
        <ele>782.0265676031087</ele>
        <time>2017-11-22T14:09:19.097000Z</time>
      </trkpt>
      <trkpt lat="45.75672626495361" lon="10.358240604400635">
        <ele>794.0</ele>
        <time>2017-11-22T14:09:19.590000Z</time>
      </trkpt>
      <trkpt lat="45.75685501098633" lon="10.35834789276123">
        <ele>776.353645885014</ele>
        <time>2017-11-22T14:09:19.829000Z</time>
      </trkpt>
      <trkpt lat="45.75739145278931" lon="10.358519554138184">
        <ele>764.126089751857</ele>
        <time>2017-11-22T14:09:20.710000Z</time>
      </trkpt>
      <trkpt lat="45.75797080993652" lon="10.359227657318115">
        <ele>743.1878957103745</ele>
        <time>2017-11-22T14:09:21.931000Z</time>
      </trkpt>
      <trkpt lat="45.75859308242798" lon="10.359892845153809">
        <ele>717.3486747872984</ele>
        <time>2017-11-22T14:09:23.175000Z</time>
      </trkpt>
      <trkpt lat="45.7586145401001" lon="10.360064506530762">
        <ele>700.6843883095075</ele>
        <time>2017-11-22T14:09:23.370000Z</time>
      </trkpt>
      <trkpt lat="45.75859718956053" lon="10.360068026930094">
        <ele>700.875185092737</ele>
        <time>2017-11-22T14:09:23.398000Z</time>
      </trkpt>
      <trkpt lat="45.7585971057415" lon="10.360068026930094">
        <ele>700.8760977176777</ele>
        <time>2017-11-22T14:09:23.398000Z</time>
      </trkpt>
      <trkpt lat="45.7585072517395" lon="10.36008596420288">
        <ele>701.8638749109141</ele>
        <time>2017-11-22T14:09:23.543000Z</time>
      </trkpt>
      <trkpt lat="45.75835704803467" lon="10.359764099121094">
        <ele>718.8054332273456</ele>
        <time>2017-11-22T14:09:23.976000Z</time>
      </trkpt>
      <trkpt lat="45.75779914855957" lon="10.359549522399902">
        <ele>728.4281011680068</ele>
        <time>2017-11-22T14:09:24.902000Z</time>
      </trkpt>
      <trkpt lat="45.75724124908447" lon="10.359141826629639">
        <ele>739.2464940460019</ele>
        <time>2017-11-22T14:09:25.906000Z</time>
      </trkpt>
      <trkpt lat="45.75676918029785" lon="10.359270572662354">
        <ele>721.7343241292078</ele>
        <time>2017-11-22T14:09:26.676000Z</time>
      </trkpt>
      <trkpt lat="45.75653314590454" lon="10.35886287689209">
        <ele>723.384601955058</ele>
        <time>2017-11-22T14:09:27.269000Z</time>
      </trkpt>
      <trkpt lat="45.756425857543945" lon="10.358755588531494">
        <ele>721.7271468930329</ele>
        <time>2017-11-22T14:09:27.479000Z</time>
      </trkpt>
      <trkpt lat="45.75629711151123" lon="10.358755588531494">
        <ele>719.5610040588595</ele>
        <time>2017-11-22T14:09:27.685000Z</time>
      </trkpt>
      <trkpt lat="45.75625419616699" lon="10.35884141921997">
        <ele>718.3214332242214</ele>
        <time>2017-11-22T14:09:27.803000Z</time>
      </trkpt>
      <trkpt lat="45.75627565383911" lon="10.359013080596924">
        <ele>716.2742235453552</ele>
        <time>2017-11-22T14:09:27.998000Z</time>
      </trkpt>
      <trkpt lat="45.75655460357666" lon="10.360171794891357">
        <ele>686.2185929847446</ele>
        <time>2017-11-22T14:09:29.369000Z</time>
      </trkpt>
      <trkpt lat="45.75661897659302" lon="10.36109447479248">
        <ele>671.0</ele>
        <time>2017-11-22T14:09:30.406000Z</time>
      </trkpt>
      <trkpt lat="45.7565975189209" lon="10.361630916595459">
        <ele>668.234518322396</ele>
        <time>2017-11-22T14:09:31.007000Z</time>
      </trkpt>
      <trkpt lat="45.75651168823242" lon="10.362167358398438">
        <ele>662.7352342120417</ele>
        <time>2017-11-22T14:09:31.623000Z</time>
      </trkpt>
      <trkpt lat="45.75629711151123" lon="10.362725257873535">
        <ele>653.5783738890735</ele>
        <time>2017-11-22T14:09:32.336000Z</time>
      </trkpt>
      <trkpt lat="45.755409551784396" lon="10.364709170535207">
        <ele>638.0</ele>
        <time>2017-11-22T14:09:34.972000Z</time>
      </trkpt>
      <trkpt lat="45.755409467965364" lon="10.36470933817327">
        <ele>637.9964354788349</ele>
        <time>2017-11-22T14:09:34.972000Z</time>
      </trkpt>
      <trkpt lat="45.755202770233154" lon="10.365171432495117">
        <ele>618.8428297382516</ele>
        <time>2017-11-22T14:09:35.586000Z</time>
      </trkpt>
      <trkpt lat="45.75485944747925" lon="10.366137027740479">
        <ele>628.878228404799</ele>
        <time>2017-11-22T14:09:36.798000Z</time>
      </trkpt>
      <trkpt lat="45.75464487075806" lon="10.366458892822266">
        <ele>628.7558450871983</ele>
        <time>2017-11-22T14:09:37.296000Z</time>
      </trkpt>
      <trkpt lat="45.7544732093811" lon="10.367124080657959">
        <ele>616.1909988599203</ele>
        <time>2017-11-22T14:09:38.089000Z</time>
      </trkpt>
      <trkpt lat="45.75430154800415" lon="10.367424488067627">
        <ele>618.1214441498229</ele>
        <time>2017-11-22T14:09:38.523000Z</time>
      </trkpt>
      <trkpt lat="45.75410842895508" lon="10.367939472198486">
        <ele>629.3614232381484</ele>
        <time>2017-11-22T14:09:39.177000Z</time>
      </trkpt>
      <trkpt lat="45.75400114059448" lon="10.367982387542725">
        <ele>630.1551012198353</ele>
        <time>2017-11-22T14:09:39.356000Z</time>
      </trkpt>
      <trkpt lat="45.75376510620117" lon="10.367918014526367">
        <ele>631.867098290947</ele>
        <time>2017-11-22T14:09:39.741000Z</time>
      </trkpt>
      <trkpt lat="45.75327157974243" lon="10.367553234100342">
        <ele>633.264063982463</ele>
        <time>2017-11-22T14:09:40.631000Z</time>
      </trkpt>
      <trkpt lat="45.75303554534912" lon="10.367510318756104">
        <ele>632.195893130327</ele>
        <time>2017-11-22T14:09:41.012000Z</time>
      </trkpt>
      <trkpt lat="45.752949714660645" lon="10.3676176071167">
        <ele>631.6845811300062</ele>
        <time>2017-11-22T14:09:41.195000Z</time>
      </trkpt>
      <trkpt lat="45.75277805328369" lon="10.368025302886963">
        <ele>630.1929295905384</ele>
        <time>2017-11-22T14:09:41.728000Z</time>
      </trkpt>
      <trkpt lat="45.75262784957886" lon="10.368947982788086">
        <ele>608.8583513137219</ele>
        <time>2017-11-22T14:09:42.788000Z</time>
      </trkpt>
      <trkpt lat="45.75256213545799" lon="10.369112268090248">
        <ele>607.0592985050218</ele>
        <time>2017-11-22T14:09:43Z</time>
      </trkpt>
      <trkpt lat="45.75256205163896" lon="10.36911235190928">
        <ele>607.0579068985581</ele>
        <time>2017-11-22T14:09:43Z</time>
      </trkpt>
      <trkpt lat="45.75254201889038" lon="10.369162559509277">
        <ele>606.508434413221</ele>
        <time>2017-11-22T14:09:43.065000Z</time>
      </trkpt>
      <trkpt lat="45.75204849243164" lon="10.369870662689209">
        <ele>597.0</ele>
        <time>2017-11-22T14:09:44.185000Z</time>
      </trkpt>
      <trkpt lat="45.75187683105469" lon="10.370235443115234">
        <ele>590.4058647068955</ele>
        <time>2017-11-22T14:09:44.677000Z</time>
      </trkpt>
      <trkpt lat="45.75161933898926" lon="10.370235443115234">
        <ele>594.294650486936</ele>
        <time>2017-11-22T14:09:45.090000Z</time>
      </trkpt>
      <trkpt lat="45.751469219103456" lon="10.370171070098877">
        <ele>593.8212740292324</ele>
        <time>2017-11-22T14:09:45.341000Z</time>
      </trkpt>
      <trkpt lat="45.7514048460871" lon="10.370171070098877">
        <ele>593.6268038075758</ele>
        <time>2017-11-22T14:09:45.444000Z</time>
      </trkpt>
      <trkpt lat="45.75134038925171" lon="10.370192527770996">
        <ele>593.4268959353079</ele>
        <time>2017-11-22T14:09:45.550000Z</time>
      </trkpt>
      <trkpt lat="45.750975608825684" lon="10.370814800262451">
        <ele>591.7136965160182</ele>
        <time>2017-11-22T14:09:46.459000Z</time>
      </trkpt>
      <trkpt lat="45.75078248977661" lon="10.370922088623047">
        <ele>587.4187018970744</ele>
        <time>2017-11-22T14:09:46.791000Z</time>
      </trkpt>
      <trkpt lat="45.75039625167847" lon="10.370986461639404">
        <ele>586.2391084131441</ele>
        <time>2017-11-22T14:09:47.414000Z</time>
      </trkpt>
      <trkpt lat="45.7496452331543" lon="10.371372699737549">
        <ele>586.3337358251905</ele>
        <time>2017-11-22T14:09:48.693000Z</time>
      </trkpt>
      <trkpt lat="45.749452114105225" lon="10.371866226196289">
        <ele>572.4283196910154</ele>
        <time>2017-11-22T14:09:49.326000Z</time>
      </trkpt>
      <trkpt lat="45.74910879135132" lon="10.371780395507812">
        <ele>568.4708997363192</ele>
        <time>2017-11-22T14:09:49.885000Z</time>
      </trkpt>
      <trkpt lat="45.74878692626953" lon="10.37182331085205">
        <ele>567.5084637103073</ele>
        <time>2017-11-22T14:09:50.403000Z</time>
      </trkpt>
      <trkpt lat="45.748658180236816" lon="10.371909141540527">
        <ele>567.085696616119</ele>
        <time>2017-11-22T14:09:50.631000Z</time>
      </trkpt>
      <trkpt lat="45.7486367225647" lon="10.37208080291748">
        <ele>566.7233761271347</ele>
        <time>2017-11-22T14:09:50.826000Z</time>
      </trkpt>
      <trkpt lat="45.74863923713565" lon="10.372083904221654">
        <ele>566.703007422281</ele>
        <time>2017-11-22T14:09:50.831000Z</time>
      </trkpt>
      <trkpt lat="45.74863932095468" lon="10.372083988040686">
        <ele>566.7023799010966</ele>
        <time>2017-11-22T14:09:50.832000Z</time>
      </trkpt>
      <trkpt lat="45.748722553253174" lon="10.372188091278076">
        <ele>566.0241073882239</ele>
        <time>2017-11-22T14:09:51.009000Z</time>
      </trkpt>
      <trkpt lat="45.749409198760986" lon="10.372467041015625">
        <ele>560.9755977639365</ele>
        <time>2017-11-22T14:09:52.153000Z</time>
      </trkpt>
      <trkpt lat="45.749452114105225" lon="10.372617244720459">
        <ele>548.0048296229713</ele>
        <time>2017-11-22T14:09:52.335000Z</time>
      </trkpt>
      <trkpt lat="45.749409198760986" lon="10.372703075408936">
        <ele>546.9395811461177</ele>
        <time>2017-11-22T14:09:52.453000Z</time>
      </trkpt>
      <trkpt lat="45.74904441833496" lon="10.372638702392578">
        <ele>545.9592122605899</ele>
        <time>2017-11-22T14:09:53.042000Z</time>
      </trkpt>
      <trkpt lat="45.748958587646484" lon="10.372681617736816">
        <ele>544.6449414982726</ele>
        <time>2017-11-22T14:09:53.188000Z</time>
      </trkpt>
      <trkpt lat="45.748937129974365" lon="10.372767448425293">
        <ele>543.7251351088231</ele>
        <time>2017-11-22T14:09:53.290000Z</time>
      </trkpt>
      <trkpt lat="45.74893964454532" lon="10.372769543901086">
        <ele>543.6830805352225</ele>
        <time>2017-11-22T14:09:53.295000Z</time>
      </trkpt>
      <trkpt lat="45.74893972836435" lon="10.372769543901086">
        <ele>543.6818687092588</ele>
        <time>2017-11-22T14:09:53.295000Z</time>
      </trkpt>
      <trkpt lat="45.74906587600708" lon="10.372874736785889">
        <ele>541.5717778168561</ele>
        <time>2017-11-22T14:09:53.529000Z</time>
      </trkpt>
      <trkpt lat="45.74949502944946" lon="10.372939109802246">
        <ele>531.0</ele>
        <time>2017-11-22T14:09:54.221000Z</time>
      </trkpt>
      <trkpt lat="45.74973106384277" lon="10.372617244720459">
        <ele>533.4201504797329</ele>
        <time>2017-11-22T14:09:54.743000Z</time>
      </trkpt>
      <trkpt lat="45.75005292892456" lon="10.372445583343506">
        <ele>546.304490542913</ele>
        <time>2017-11-22T14:09:55.294000Z</time>
      </trkpt>
      <trkpt lat="45.75028896331787" lon="10.372531414031982">
        <ele>535.1133129799772</ele>
        <time>2017-11-22T14:09:55.684000Z</time>
      </trkpt>
      <trkpt lat="45.75050354003906" lon="10.372467041015625">
        <ele>549.7417357555929</ele>
        <time>2017-11-22T14:09:56.035000Z</time>
      </trkpt>
      <trkpt lat="45.750975608825684" lon="10.372531414031982">
        <ele>531.3580590952502</ele>
        <time>2017-11-22T14:09:56.795000Z</time>
      </trkpt>
      <trkpt lat="45.75110443867743" lon="10.372488498687744">
        <ele>541.4301350190996</ele>
        <time>2017-11-22T14:09:57.007000Z</time>
      </trkpt>
      <trkpt lat="45.751233184710145" lon="10.372467041015625">
        <ele>539.8675000885128</ele>
        <time>2017-11-22T14:09:57.215000Z</time>
      </trkpt>
      <trkpt lat="45.75179100036621" lon="10.373024940490723">
        <ele>518.0</ele>
        <time>2017-11-22T14:09:58.305000Z</time>
      </trkpt>
      <trkpt lat="45.751836178824306" lon="10.37300968542695">
        <ele>518.0636198118292</ele>
        <time>2017-11-22T14:09:58.379000Z</time>
      </trkpt>
      <trkpt lat="45.75183634646237" lon="10.37300968542695">
        <ele>518.0638495864335</ele>
        <time>2017-11-22T14:09:58.379000Z</time>
      </trkpt>
      <trkpt lat="45.752177238464355" lon="10.372896194458008">
        <ele>518.5435378783932</ele>
        <time>2017-11-22T14:09:58.940000Z</time>
      </trkpt>
      <trkpt lat="45.75249910354614" lon="10.37285327911377">
        <ele>518.9866102513462</ele>
        <time>2017-11-22T14:09:59.458000Z</time>
      </trkpt>
      <trkpt lat="45.7525634765625" lon="10.372960567474365">
        <ele>517.4552721740305</ele>
        <time>2017-11-22T14:09:59.616000Z</time>
      </trkpt>
      <trkpt lat="45.75252056121826" lon="10.3731107711792">
        <ele>517.6105020635523</ele>
        <time>2017-11-22T14:09:59.798000Z</time>
      </trkpt>
      <trkpt lat="45.75269230641425" lon="10.37308931350708">
        <ele>517.8467989627239</ele>
        <time>2017-11-22T14:10:00.074000Z</time>
      </trkpt>
      <trkpt lat="45.75284242630005" lon="10.37308931350708">
        <ele>519.3125455950651</ele>
        <time>2017-11-22T14:10:00.315000Z</time>
      </trkpt>
      <trkpt lat="45.75314283370972" lon="10.372917652130127">
        <ele>522.470225435317</ele>
        <time>2017-11-22T14:10:00.833000Z</time>
      </trkpt>
      <trkpt lat="45.75387239456177" lon="10.373067855834961">
        <ele>538.0</ele>
        <time>2017-11-22T14:10:02.015000Z</time>
      </trkpt>
      <trkpt lat="45.755181312561035" lon="10.373497009277344">
        <ele>525.4130331657707</ele>
        <time>2017-11-22T14:10:04.168000Z</time>
      </trkpt>
      <trkpt lat="45.755936270579696" lon="10.373497009277344">
        <ele>529.540717465197</ele>
        <time>2017-11-22T14:10:05.378000Z</time>
      </trkpt>
      <trkpt lat="45.75597524642944" lon="10.373497009277344">
        <ele>529.7185658930784</ele>
        <time>2017-11-22T14:10:05.440000Z</time>
      </trkpt>
      <trkpt lat="45.756168365478516" lon="10.373668670654297">
        <ele>530.7554906269529</ele>
        <time>2017-11-22T14:10:05.804000Z</time>
      </trkpt>
      <trkpt lat="45.75698375701904" lon="10.373754501342773">
        <ele>539.1528438957204</ele>
        <time>2017-11-22T14:10:07.115000Z</time>
      </trkpt>
      <trkpt lat="45.757198333740234" lon="10.37409782409668">
        <ele>537.8185028982384</ele>
        <time>2017-11-22T14:10:07.631000Z</time>
      </trkpt>
      <trkpt lat="45.7574987411499" lon="10.374376773834229">
        <ele>533.0</ele>
        <time>2017-11-22T14:10:08.205000Z</time>
      </trkpt>
      <trkpt lat="45.75882911682129" lon="10.37459135055542">
        <ele>564.3313956248131</ele>
        <time>2017-11-22T14:10:10.351000Z</time>
      </trkpt>
      <trkpt lat="45.75923681259155" lon="10.374698638916016">
        <ele>578.1094575771375</ele>
        <time>2017-11-22T14:10:11.016000Z</time>
      </trkpt>
      <trkpt lat="45.75958013534546" lon="10.374934673309326">
        <ele>584.6420570644149</ele>
        <time>2017-11-22T14:10:11.626000Z</time>
      </trkpt>
      <trkpt lat="45.76005220413208" lon="10.374999046325684">
        <ele>592.2002534476264</ele>
        <time>2017-11-22T14:10:12.386000Z</time>
      </trkpt>
      <trkpt lat="45.76026678085327" lon="10.37508487701416">
        <ele>576.8608505313941</ele>
        <time>2017-11-22T14:10:12.743000Z</time>
      </trkpt>
      <trkpt lat="45.760241970419884" lon="10.375171797350049">
        <ele>576.1728117837476</ele>
        <time>2017-11-22T14:10:12.848000Z</time>
      </trkpt>
      <trkpt lat="45.760242054238915" lon="10.375171545892954">
        <ele>576.170770066521</ele>
        <time>2017-11-22T14:10:12.848000Z</time>
      </trkpt>
      <trkpt lat="45.76022386550903" lon="10.375235080718994">
        <ele>575.6676320655557</ele>
        <time>2017-11-22T14:10:12.925000Z</time>
      </trkpt>
      <trkpt lat="45.760159492492676" lon="10.375256538391113">
        <ele>574.973601247652</ele>
        <time>2017-11-22T14:10:13.031000Z</time>
      </trkpt>
      <trkpt lat="45.75985908508301" lon="10.375213623046875">
        <ele>571.4700084809455</ele>
        <time>2017-11-22T14:10:13.515000Z</time>
      </trkpt>
      <trkpt lat="45.75822830200195" lon="10.375299453735352">
        <ele>552.0</ele>
        <time>2017-11-22T14:10:16.131000Z</time>
      </trkpt>
      <trkpt lat="45.75788497924805" lon="10.375471115112305">
        <ele>551.8342613094078</ele>
        <time>2017-11-22T14:10:16.714000Z</time>
      </trkpt>
      <trkpt lat="45.7576060295105" lon="10.37534236907959">
        <ele>551.5018682678947</ele>
        <time>2017-11-22T14:10:17.184000Z</time>
      </trkpt>
      <trkpt lat="45.75732707977295" lon="10.375299453735352">
        <ele>550.5169904223158</ele>
        <time>2017-11-22T14:10:17.634000Z</time>
      </trkpt>
      <trkpt lat="45.756940841674805" lon="10.375492572784424">
        <ele>550.0530152665528</ele>
        <time>2017-11-22T14:10:18.290000Z</time>
      </trkpt>
      <trkpt lat="45.75683355331421" lon="10.375428199768066">
        <ele>550.4582262539544</ele>
        <time>2017-11-22T14:10:18.476000Z</time>
      </trkpt>
      <trkpt lat="45.756683349609375" lon="10.375170707702637">
        <ele>552.7597356462494</ele>
        <time>2017-11-22T14:10:18.851000Z</time>
      </trkpt>
      <trkpt lat="45.75638294219971" lon="10.37484884262085">
        <ele>550.779334541709</ele>
        <time>2017-11-22T14:10:19.452000Z</time>
      </trkpt>
      <trkpt lat="45.75610399246216" lon="10.374913215637207">
        <ele>553.5562376213326</ele>
        <time>2017-11-22T14:10:19.905000Z</time>
      </trkpt>
      <trkpt lat="45.755674839019775" lon="10.37532091140747">
        <ele>570.2831569160774</ele>
        <time>2017-11-22T14:10:20.730000Z</time>
      </trkpt>
      <trkpt lat="45.75453758239746" lon="10.37585735321045">
        <ele>596.0</ele>
        <time>2017-11-22T14:10:22.649000Z</time>
      </trkpt>
      <trkpt lat="45.754226027056575" lon="10.376120880246162">
        <ele>598.3414205286984</ele>
        <time>2017-11-22T14:10:23.229000Z</time>
      </trkpt>
      <trkpt lat="45.75422619469464" lon="10.37612079642713">
        <ele>598.342569640772</ele>
        <time>2017-11-22T14:10:23.229000Z</time>
      </trkpt>
      <trkpt lat="45.753700733184814" lon="10.37656545639038">
        <ele>599.2920242977308</ele>
        <time>2017-11-22T14:10:24.207000Z</time>
      </trkpt>
      <trkpt lat="45.753421783447266" lon="10.376672744750977">
        <ele>610.161314614941</ele>
        <time>2017-11-22T14:10:24.670000Z</time>
      </trkpt>
      <trkpt lat="45.753164291381836" lon="10.376672744750977">
        <ele>607.6026525514968</ele>
        <time>2017-11-22T14:10:25.083000Z</time>
      </trkpt>
      <trkpt lat="45.75303554534912" lon="10.376758575439453">
        <ele>607.846027673726</ele>
        <time>2017-11-22T14:10:25.311000Z</time>
      </trkpt>
      <trkpt lat="45.75303554534912" lon="10.376887321472168">
        <ele>608.0</ele>
        <time>2017-11-22T14:10:25.455000Z</time>
      </trkpt>
      <trkpt lat="45.75305314734578" lon="10.376904839649796">
        <ele>608.0605924653862</ele>
        <time>2017-11-22T14:10:25.489000Z</time>
      </trkpt>
      <trkpt lat="45.75305306352675" lon="10.376904672011733">
        <ele>608.0609993423749</ele>
        <time>2017-11-22T14:10:25.490000Z</time>
      </trkpt>
      <trkpt lat="45.75309991836548" lon="10.376951694488525">
        <ele>608.2227316291816</ele>
        <time>2017-11-22T14:10:25.582000Z</time>
      </trkpt>
      <trkpt lat="45.75322866439819" lon="10.376973152160645">
        <ele>608.5892108346992</ele>
        <time>2017-11-22T14:10:25.790000Z</time>
      </trkpt>
      <trkpt lat="45.753722190856934" lon="10.376865863800049">
        <ele>613.0006054125223</ele>
        <time>2017-11-22T14:10:26.590000Z</time>
      </trkpt>
      <trkpt lat="45.75477361679077" lon="10.376307964324951">
        <ele>604.1706843110047</ele>
        <time>2017-11-22T14:10:28.387000Z</time>
      </trkpt>
      <trkpt lat="45.75488090515137" lon="10.376286506652832">
        <ele>604.8343680785462</ele>
        <time>2017-11-22T14:10:28.561000Z</time>
      </trkpt>
      <trkpt lat="45.75493630953133" lon="10.376434111967683">
        <ele>605.5508488696388</ele>
        <time>2017-11-22T14:10:28.748000Z</time>
      </trkpt>
      <trkpt lat="45.7549362257123" lon="10.37643394432962">
        <ele>605.5517304778791</ele>
        <time>2017-11-22T14:10:28.748000Z</time>
      </trkpt>
      <trkpt lat="45.754945278167725" lon="10.376458168029785">
        <ele>605.6691970683681</ele>
        <time>2017-11-22T14:10:28.779000Z</time>
      </trkpt>
      <trkpt lat="45.754451751708984" lon="10.376694202423096">
        <ele>619.190083407383</ele>
        <time>2017-11-22T14:10:29.613000Z</time>
      </trkpt>
      <trkpt lat="45.75352907180786" lon="10.377423763275146">
        <ele>619.8990801091155</ele>
        <time>2017-11-22T14:10:31.302000Z</time>
      </trkpt>
      <trkpt lat="45.75234889984131" lon="10.377638339996338">
        <ele>637.0</ele>
        <time>2017-11-22T14:10:33.209000Z</time>
      </trkpt>
      <trkpt lat="45.75176954269409" lon="10.377616882324219">
        <ele>636.7843577284725</ele>
        <time>2017-11-22T14:10:34.138000Z</time>
      </trkpt>
      <trkpt lat="45.75176954269409" lon="10.377659713849425">
        <ele>636.7732374068474</ele>
        <time>2017-11-22T14:10:34.186000Z</time>
      </trkpt>
      <trkpt lat="45.75176954269409" lon="10.377659630030394">
        <ele>636.7732156449657</ele>
        <time>2017-11-22T14:10:34.188000Z</time>
      </trkpt>
      <trkpt lat="45.75176954269409" lon="10.377745628356934">
        <ele>636.7508879541883</ele>
        <time>2017-11-22T14:10:34.284000Z</time>
      </trkpt>
      <trkpt lat="45.75187683105469" lon="10.37783145904541">
        <ele>636.7051690024758</ele>
        <time>2017-11-22T14:10:34.481000Z</time>
      </trkpt>
      <trkpt lat="45.752177238464355" lon="10.377874374389648">
        <ele>637.0002450338142</ele>
        <time>2017-11-22T14:10:34.965000Z</time>
      </trkpt>
      <trkpt lat="45.75284242630005" lon="10.378174781799316">
        <ele>637.0152544772618</ele>
        <time>2017-11-22T14:10:36.083000Z</time>
      </trkpt>
      <trkpt lat="45.7535719871521" lon="10.378196239471436">
        <ele>644.4286690946543</ele>
        <time>2017-11-22T14:10:37.253000Z</time>
      </trkpt>
      <trkpt lat="45.75423717498779" lon="10.37806749343872">
        <ele>656.3592332507548</ele>
        <time>2017-11-22T14:10:38.329000Z</time>
      </trkpt>
      <trkpt lat="45.75432300567627" lon="10.378110408782959">
        <ele>657.342980717967</ele>
        <time>2017-11-22T14:10:38.475000Z</time>
      </trkpt>
      <trkpt lat="45.75433759018779" lon="10.37821258418262">
        <ele>657.7372056299209</ele>
        <time>2017-11-22T14:10:38.592000Z</time>
      </trkpt>
      <trkpt lat="45.754337506368756" lon="10.378212332725525">
        <ele>657.7382590432513</ele>
        <time>2017-11-22T14:10:38.592000Z</time>
      </trkpt>
      <trkpt lat="45.75434446334839" lon="10.378260612487793">
        <ele>657.9246090451647</ele>
        <time>2017-11-22T14:10:38.647000Z</time>
      </trkpt>
      <trkpt lat="45.75428009033203" lon="10.37832498550415">
        <ele>658.3498539339776</ele>
        <time>2017-11-22T14:10:38.773000Z</time>
      </trkpt>
      <trkpt lat="45.75348615646362" lon="10.378518104553223">
        <ele>666.7125446895519</ele>
        <time>2017-11-22T14:10:40.064000Z</time>
      </trkpt>
      <trkpt lat="45.75267084874213" lon="10.378925800323486">
        <ele>666.3365582195046</ele>
        <time>2017-11-22T14:10:41.448000Z</time>
      </trkpt>
      <trkpt lat="45.751919746398926" lon="10.379526615142822">
        <ele>680.0</ele>
        <time>2017-11-22T14:10:42.827000Z</time>
      </trkpt>
      <trkpt lat="45.75153350830078" lon="10.379762649536133">
        <ele>678.1278116665794</ele>
        <time>2017-11-22T14:10:43.500000Z</time>
      </trkpt>
      <trkpt lat="45.75048208236694" lon="10.379912853240967">
        <ele>679.1161137219101</ele>
        <time>2017-11-22T14:10:45.194000Z</time>
      </trkpt>
      <trkpt lat="45.750160217285156" lon="10.380105972290039">
        <ele>687.3706376406345</ele>
        <time>2017-11-22T14:10:45.753000Z</time>
      </trkpt>
      <trkpt lat="45.74958086013794" lon="10.380556583404541">
        <ele>689.0</ele>
        <time>2017-11-22T14:10:46.810000Z</time>
      </trkpt>
      <trkpt lat="45.7495379447937" lon="10.380685329437256">
        <ele>689.7664770632101</ele>
        <time>2017-11-22T14:10:46.970000Z</time>
      </trkpt>
      <trkpt lat="45.74960231781006" lon="10.380856990814209">
        <ele>696.8133598671243</ele>
        <time>2017-11-22T14:10:47.188000Z</time>
      </trkpt>
      <trkpt lat="45.74966333806515" lon="10.380838802084327">
        <ele>697.293175500759</ele>
        <time>2017-11-22T14:10:47.288000Z</time>
      </trkpt>
      <trkpt lat="45.749663254246116" lon="10.380838802084327">
        <ele>697.293820777793</ele>
        <time>2017-11-22T14:10:47.288000Z</time>
      </trkpt>
      <trkpt lat="45.75024604797363" lon="10.380663871765137">
        <ele>697.8777848532715</ele>
        <time>2017-11-22T14:10:48.243000Z</time>
      </trkpt>
      <trkpt lat="45.750954151153564" lon="10.380620956420898">
        <ele>705.6672910177646</ele>
        <time>2017-11-22T14:10:49.379000Z</time>
      </trkpt>
      <trkpt lat="45.75097242370248" lon="10.380730843171477">
        <ele>706.642645394088</ele>
        <time>2017-11-22T14:10:49.505000Z</time>
      </trkpt>
      <trkpt lat="45.75097242370248" lon="10.380730591714382">
        <ele>706.6448165280987</ele>
        <time>2017-11-22T14:10:49.506000Z</time>
      </trkpt>
      <trkpt lat="45.750975608825684" lon="10.380749702453613">
        <ele>706.8144642966964</ele>
        <time>2017-11-22T14:10:49.528000Z</time>
      </trkpt>
      <trkpt lat="45.75037479400635" lon="10.3810715675354">
        <ele>722.0846437209134</ele>
        <time>2017-11-22T14:10:50.556000Z</time>
      </trkpt>
      <trkpt lat="45.750203132629395" lon="10.38135051727295">
        <ele>724.6145976998705</ele>
        <time>2017-11-22T14:10:50.972000Z</time>
      </trkpt>
      <trkpt lat="45.7496452331543" lon="10.382616519927979">
        <ele>734.7173447833219</ele>
        <time>2017-11-22T14:10:52.647000Z</time>
      </trkpt>
      <trkpt lat="45.74962377548218" lon="10.382766723632812">
        <ele>735.342236574175</ele>
        <time>2017-11-22T14:10:52.819000Z</time>
      </trkpt>
      <trkpt lat="45.749666690826416" lon="10.382895469665527">
        <ele>735.9434126015936</ele>
        <time>2017-11-22T14:10:52.979000Z</time>
      </trkpt>
      <trkpt lat="45.74974397197366" lon="10.382934026420116">
        <ele>736.4375210322136</ele>
        <time>2017-11-22T14:10:53.110000Z</time>
      </trkpt>
      <trkpt lat="45.749743888154626" lon="10.382934026420116">
        <ele>736.4380271475703</ele>
        <time>2017-11-22T14:10:53.110000Z</time>
      </trkpt>
      <trkpt lat="45.74975252151489" lon="10.382938385009766">
        <ele>736.4932972165484</ele>
        <time>2017-11-22T14:10:53.125000Z</time>
      </trkpt>
      <trkpt lat="45.74983835220337" lon="10.382916927337646">
        <ele>737.0193861654446</ele>
        <time>2017-11-22T14:10:53.265000Z</time>
      </trkpt>
      <trkpt lat="45.750160217285156" lon="10.382080078125">
        <ele>747.1665525395546</ele>
        <time>2017-11-22T14:10:54.334000Z</time>
      </trkpt>
      <trkpt lat="45.75024604797363" lon="10.381994247436523">
        <ele>747.9744833393161</ele>
        <time>2017-11-22T14:10:54.502000Z</time>
      </trkpt>
      <trkpt lat="45.75035333633423" lon="10.382037162780762">
        <ele>748.8343526621162</ele>
        <time>2017-11-22T14:10:54.681000Z</time>
      </trkpt>
      <trkpt lat="45.75050354003906" lon="10.382230281829834">
        <ele>750.3920916690128</ele>
        <time>2017-11-22T14:10:55.005000Z</time>
      </trkpt>
      <trkpt lat="45.75050354003906" lon="10.382423400878906">
        <ele>750.997572071488</ele>
        <time>2017-11-22T14:10:55.221000Z</time>
      </trkpt>
      <trkpt lat="45.75014228001237" lon="10.383637268096209">
        <ele>758.8017433872823</ele>
        <time>2017-11-22T14:10:56.697000Z</time>
      </trkpt>
      <trkpt lat="45.7501423638314" lon="10.383637100458145">
        <ele>758.802046990046</ele>
        <time>2017-11-22T14:10:56.697000Z</time>
      </trkpt>
      <trkpt lat="45.749967098236084" lon="10.384225845336914">
        <ele>756.7443452324541</ele>
        <time>2017-11-22T14:10:57.413000Z</time>
      </trkpt>
      <trkpt lat="45.74990280903876" lon="10.38459062576294">
        <ele>758.2869161355502</ele>
        <time>2017-11-22T14:10:57.834000Z</time>
      </trkpt>
      <trkpt lat="45.74979543685913" lon="10.385448932647705">
        <ele>765.5287597238457</ele>
        <time>2017-11-22T14:10:58.809000Z</time>
      </trkpt>
      <trkpt lat="45.7496452331543" lon="10.386135578155518">
        <ele>766.1909231534942</ele>
        <time>2017-11-22T14:10:59.614000Z</time>
      </trkpt>
      <trkpt lat="45.74953802861273" lon="10.386393070220947">
        <ele>765.2167872911622</ele>
        <time>2017-11-22T14:10:59.949000Z</time>
      </trkpt>
      <trkpt lat="45.74936628341675" lon="10.386393070220947">
        <ele>764.4171685987212</ele>
        <time>2017-11-22T14:11:00.224000Z</time>
      </trkpt>
      <trkpt lat="45.74906587600708" lon="10.386264324188232">
        <ele>749.0614333374165</ele>
        <time>2017-11-22T14:11:00.727000Z</time>
      </trkpt>
      <trkpt lat="45.74889421463013" lon="10.38630723953247">
        <ele>747.0112732646708</ele>
        <time>2017-11-22T14:11:01.006000Z</time>
      </trkpt>
      <trkpt lat="45.748658180236816" lon="10.3865647315979">
        <ele>745.1883558441092</ele>
        <time>2017-11-22T14:11:01.482000Z</time>
      </trkpt>
      <trkpt lat="45.7486367225647" lon="10.386500358581543">
        <ele>744.882438439893</ele>
        <time>2017-11-22T14:11:01.562000Z</time>
      </trkpt>
      <trkpt lat="45.74864820577204" lon="10.386445792391896">
        <ele>744.6380420997529</ele>
        <time>2017-11-22T14:11:01.626000Z</time>
      </trkpt>
      <trkpt lat="45.748648289591074" lon="10.386445624753833">
        <ele>744.6371577579863</ele>
        <time>2017-11-22T14:11:01.626000Z</time>
      </trkpt>
      <trkpt lat="45.748722553253174" lon="10.38609266281128">
        <ele>743.0563071618468</ele>
        <time>2017-11-22T14:11:02.038000Z</time>
      </trkpt>
      <trkpt lat="45.748679637908936" lon="10.385985374450684">
        <ele>742.5260144434172</ele>
        <time>2017-11-22T14:11:02.176000Z</time>
      </trkpt>
      <trkpt lat="45.74850797653198" lon="10.385942459106445">
        <ele>741.4551969076093</ele>
        <time>2017-11-22T14:11:02.455000Z</time>
      </trkpt>
      <trkpt lat="45.7475209236145" lon="10.386135578155518">
        <ele>734.0</ele>
        <time>2017-11-22T14:11:04.052000Z</time>
      </trkpt>
      <trkpt lat="45.74700593948364" lon="10.386114120483398">
        <ele>719.9237786692861</ele>
        <time>2017-11-22T14:11:04.878000Z</time>
      </trkpt>
      <trkpt lat="45.74636220932007" lon="10.386028289794922">
        <ele>713.9308527491243</ele>
        <time>2017-11-22T14:11:05.914000Z</time>
      </trkpt>
      <trkpt lat="45.74537515640259" lon="10.386114120483398">
        <ele>708.0</ele>
        <time>2017-11-22T14:11:07.499000Z</time>
      </trkpt>
      <trkpt lat="45.744967460632324" lon="10.386478900909424">
        <ele>704.2437283752619</ele>
        <time>2017-11-22T14:11:08.270000Z</time>
      </trkpt>
      <trkpt lat="45.74493141844869" lon="10.386575041338801">
        <ele>704.5992573348954</ele>
        <time>2017-11-22T14:11:08.392000Z</time>
      </trkpt>
      <trkpt lat="45.744931334629655" lon="10.386575041338801">
        <ele>704.5996486167763</ele>
        <time>2017-11-22T14:11:08.392000Z</time>
      </trkpt>
      <trkpt lat="45.74490308761597" lon="10.386650562286377">
        <ele>704.878782774409</ele>
        <time>2017-11-22T14:11:08.488000Z</time>
      </trkpt>
      <trkpt lat="45.74490308761597" lon="10.387444496154785">
        <ele>712.1318519316295</ele>
        <time>2017-11-22T14:11:09.376000Z</time>
      </trkpt>
      <trkpt lat="45.744967460632324" lon="10.387659072875977">
        <ele>711.8752679036937</ele>
        <time>2017-11-22T14:11:09.637000Z</time>
      </trkpt>
      <trkpt lat="45.74509620666504" lon="10.38783073425293">
        <ele>728.3440277770575</ele>
        <time>2017-11-22T14:11:09.919000Z</time>
      </trkpt>
      <trkpt lat="45.7451605796814" lon="10.388023853302002">
        <ele>729.0252302426316</ele>
        <time>2017-11-22T14:11:10.158000Z</time>
      </trkpt>
      <trkpt lat="45.74513912200928" lon="10.388238430023193">
        <ele>729.7151853378208</ele>
        <time>2017-11-22T14:11:10.401000Z</time>
      </trkpt>
      <trkpt lat="45.74509620666504" lon="10.388431549072266">
        <ele>728.3602786857051</ele>
        <time>2017-11-22T14:11:10.628000Z</time>
      </trkpt>
      <trkpt lat="45.744967460632324" lon="10.388603210449219">
        <ele>712.28049462394</ele>
        <time>2017-11-22T14:11:10.910000Z</time>
      </trkpt>
      <trkpt lat="45.74462413787842" lon="10.38883924484253">
        <ele>708.4988510193215</ele>
        <time>2017-11-22T14:11:11.520000Z</time>
      </trkpt>
      <trkpt lat="45.744452476501465" lon="10.389182567596436">
        <ele>713.5629968738382</ele>
        <time>2017-11-22T14:11:11.993000Z</time>
      </trkpt>
      <trkpt lat="45.744452476501465" lon="10.38956880569458">
        <ele>713.3168244670178</ele>
        <time>2017-11-22T14:11:12.425000Z</time>
      </trkpt>
      <trkpt lat="45.74455976486206" lon="10.390405654907227">
        <ele>716.4412011691884</ele>
        <time>2017-11-22T14:11:13.377000Z</time>
      </trkpt>
      <trkpt lat="45.744473934173584" lon="10.390706062316895">
        <ele>710.8499986956868</ele>
        <time>2017-11-22T14:11:13.740000Z</time>
      </trkpt>
      <trkpt lat="45.74406623840332" lon="10.391242504119873">
        <ele>680.8553016579485</ele>
        <time>2017-11-22T14:11:14.627000Z</time>
      </trkpt>
      <trkpt lat="45.743958950042725" lon="10.391285419464111">
        <ele>678.8289468206154</ele>
        <time>2017-11-22T14:11:14.806000Z</time>
      </trkpt>
      <trkpt lat="45.74391360394657" lon="10.391277708113194">
        <ele>677.998243499513</ele>
        <time>2017-11-22T14:11:14.879000Z</time>
      </trkpt>
      <trkpt lat="45.743913520127535" lon="10.391277708113194">
        <ele>677.9967187036068</ele>
        <time>2017-11-22T14:11:14.879000Z</time>
      </trkpt>
      <trkpt lat="45.74383020401001" lon="10.391263961791992">
        <ele>676.471057848231</ele>
        <time>2017-11-22T14:11:15.013000Z</time>
      </trkpt>
      <trkpt lat="45.74337959289551" lon="10.390856266021729">
        <ele>670.751446164074</ele>
        <time>2017-11-22T14:11:15.867000Z</time>
      </trkpt>
      <trkpt lat="45.7425856590271" lon="10.39081335067749">
        <ele>650.8910596397809</ele>
        <time>2017-11-22T14:11:17.141000Z</time>
      </trkpt>
      <trkpt lat="45.74249982833862" lon="10.390770435333252">
        <ele>657.2389832825154</ele>
        <time>2017-11-22T14:11:17.287000Z</time>
      </trkpt>
      <trkpt lat="45.74232816696167" lon="10.390148162841797">
        <ele>655.6016461975252</ele>
        <time>2017-11-22T14:11:18.036000Z</time>
      </trkpt>
      <trkpt lat="45.74226379394531" lon="10.390040874481201">
        <ele>654.9616260639996</ele>
        <time>2017-11-22T14:11:18.194000Z</time>
      </trkpt>
      <trkpt lat="45.741984844207764" lon="10.389976501464844">
        <ele>644.7969322399205</ele>
        <time>2017-11-22T14:11:18.647000Z</time>
      </trkpt>
      <trkpt lat="45.74179172515869" lon="10.3895902633667">
        <ele>642.6476562821907</ele>
        <time>2017-11-22T14:11:19.179000Z</time>
      </trkpt>
      <trkpt lat="45.741448402404785" lon="10.389504432678223">
        <ele>645.943064465915</ele>
        <time>2017-11-22T14:11:19.738000Z</time>
      </trkpt>
      <trkpt lat="45.74129819869995" lon="10.389418601989746">
        <ele>644.6881400284456</ele>
        <time>2017-11-22T14:11:19.997000Z</time>
      </trkpt>
      <trkpt lat="45.741212368011475" lon="10.389225482940674">
        <ele>643.448117098762</ele>
        <time>2017-11-22T14:11:20.253000Z</time>
      </trkpt>
      <trkpt lat="45.74086904525757" lon="10.387680530548096">
        <ele>624.0</ele>
        <time>2017-11-22T14:11:22.067000Z</time>
      </trkpt>
      <trkpt lat="45.74074029922485" lon="10.387530326843262">
        <ele>635.4702795933788</ele>
        <time>2017-11-22T14:11:22.333000Z</time>
      </trkpt>
      <trkpt lat="45.74054718017578" lon="10.3875732421875">
        <ele>637.9856684483346</ele>
        <time>2017-11-22T14:11:22.646000Z</time>
      </trkpt>
      <trkpt lat="45.74018550105393" lon="10.387782622128725">
        <ele>643.0065092461917</ele>
        <time>2017-11-22T14:11:23.271000Z</time>
      </trkpt>
      <trkpt lat="45.7401854172349" lon="10.387782789766788">
        <ele>643.0060761000631</ele>
        <time>2017-11-22T14:11:23.271000Z</time>
      </trkpt>
      <trkpt lat="45.74013948440552" lon="10.38780927658081">
        <ele>642.8570634730596</ele>
        <time>2017-11-22T14:11:23.350000Z</time>
      </trkpt>
      <trkpt lat="45.73981761932373" lon="10.387873649597168">
        <ele>633.2123319533858</ele>
        <time>2017-11-22T14:11:23.871000Z</time>
      </trkpt>
      <trkpt lat="45.73964595794678" lon="10.387980937957764">
        <ele>632.6486954927046</ele>
        <time>2017-11-22T14:11:24.171000Z</time>
      </trkpt>
      <trkpt lat="45.73953866958618" lon="10.388152599334717">
        <ele>632.1646857572936</ele>
        <time>2017-11-22T14:11:24.429000Z</time>
      </trkpt>
      <trkpt lat="45.739238262176514" lon="10.38832426071167">
        <ele>631.0018409057668</ele>
        <time>2017-11-22T14:11:24.947000Z</time>
      </trkpt>
      <trkpt lat="45.738937854766846" lon="10.388367176055908">
        <ele>633.9163701720507</ele>
        <time>2017-11-22T14:11:25.431000Z</time>
      </trkpt>
      <trkpt lat="45.73831558227539" lon="10.388603210449219">
        <ele>622.1285311393073</ele>
        <time>2017-11-22T14:11:26.463000Z</time>
      </trkpt>
      <trkpt lat="45.73812246322632" lon="10.388731956481934">
        <ele>620.7648531207701</ele>
        <time>2017-11-22T14:11:26.804000Z</time>
      </trkpt>
      <trkpt lat="45.73782205581665" lon="10.389032363891602">
        <ele>618.4194654020258</ele>
        <time>2017-11-22T14:11:27.391000Z</time>
      </trkpt>
      <trkpt lat="45.73756456375122" lon="10.389182567596436">
        <ele>632.1528035620672</ele>
        <time>2017-11-22T14:11:27.837000Z</time>
      </trkpt>
      <trkpt lat="45.737199783325195" lon="10.389225482940674">
        <ele>623.4515801254698</ele>
        <time>2017-11-22T14:11:28.424000Z</time>
      </trkpt>
      <trkpt lat="45.73679208755493" lon="10.389182567596436">
        <ele>622.294975678103</ele>
        <time>2017-11-22T14:11:29.079000Z</time>
      </trkpt>
      <trkpt lat="45.736805498600006" lon="10.389396473765373">
        <ele>621.8708683941172</ele>
        <time>2017-11-22T14:11:29.319000Z</time>
      </trkpt>
      <trkpt lat="45.736805498600006" lon="10.389396557584405">
        <ele>621.8700434630136</ele>
        <time>2017-11-22T14:11:29.321000Z</time>
      </trkpt>
      <trkpt lat="45.73681354522705" lon="10.389525890350342">
        <ele>620.5921277737943</ele>
        <time>2017-11-22T14:11:29.466000Z</time>
      </trkpt>
      <trkpt lat="45.73674917221069" lon="10.389761924743652">
        <ele>618.0980706889296</ele>
        <time>2017-11-22T14:11:29.750000Z</time>
      </trkpt>
      <trkpt lat="45.7366418838501" lon="10.389912128448486">
        <ele>605.3162036152885</ele>
        <time>2017-11-22T14:11:29.990000Z</time>
      </trkpt>
      <trkpt lat="45.736491680145264" lon="10.389890670776367">
        <ele>603.1876912189518</ele>
        <time>2017-11-22T14:11:30.232000Z</time>
      </trkpt>
      <trkpt lat="45.73632001876831" lon="10.390255451202393">
        <ele>604.1910978921414</ele>
        <time>2017-11-22T14:11:30.724000Z</time>
      </trkpt>
      <trkpt lat="45.736212730407715" lon="10.390276908874512">
        <ele>602.6635647924398</ele>
        <time>2017-11-22T14:11:30.898000Z</time>
      </trkpt>
      <trkpt lat="45.73604106903076" lon="10.389976501464844">
        <ele>593.509153783055</ele>
        <time>2017-11-22T14:11:31.332000Z</time>
      </trkpt>
      <trkpt lat="45.735955238342285" lon="10.389933586120605">
        <ele>593.0214699498744</ele>
        <time>2017-11-22T14:11:31.478000Z</time>
      </trkpt>
      <trkpt lat="45.73586940765381" lon="10.389976501464844">
        <ele>593.3803878220685</ele>
        <time>2017-11-22T14:11:31.624000Z</time>
      </trkpt>
      <trkpt lat="45.73582649230957" lon="10.390448570251465">
        <ele>590.3589229471752</ele>
        <time>2017-11-22T14:11:32.157000Z</time>
      </trkpt>
      <trkpt lat="45.735740661621094" lon="10.390727519989014">
        <ele>591.1990067855179</ele>
        <time>2017-11-22T14:11:32.498000Z</time>
      </trkpt>
      <trkpt lat="45.73554754257202" lon="10.391006469726562">
        <ele>596.9483862404687</ele>
        <time>2017-11-22T14:11:32.938000Z</time>
      </trkpt>
      <trkpt lat="45.735204219818115" lon="10.39132833480835">
        <ele>598.5682939644927</ele>
        <time>2017-11-22T14:11:33.596000Z</time>
      </trkpt>
      <trkpt lat="45.73516130447388" lon="10.391392707824707">
        <ele>599.2673158405879</ele>
        <time>2017-11-22T14:11:33.696000Z</time>
      </trkpt>
      <trkpt lat="45.73511838912964" lon="10.391607284545898">
        <ele>601.0200947291709</ele>
        <time>2017-11-22T14:11:33.946000Z</time>
      </trkpt>
      <trkpt lat="45.73541879653931" lon="10.392937660217285">
        <ele>621.0</ele>
        <time>2017-11-22T14:11:35.511000Z</time>
      </trkpt>
      <trkpt lat="45.73541879653931" lon="10.39306640625">
        <ele>618.8804173645495</ele>
        <time>2017-11-22T14:11:35.655000Z</time>
      </trkpt>
      <trkpt lat="45.73532315902412" lon="10.393085600808263">
        <ele>616.6025613890533</ele>
        <time>2017-11-22T14:11:35.810000Z</time>
      </trkpt>
      <trkpt lat="45.73532307520509" lon="10.393085600808263">
        <ele>616.6005843252592</ele>
        <time>2017-11-22T14:11:35.810000Z</time>
      </trkpt>
      <trkpt lat="45.73531150817871" lon="10.39308786392212">
        <ele>616.325217269418</ele>
        <time>2017-11-22T14:11:35.829000Z</time>
      </trkpt>
      <trkpt lat="45.7350754737854" lon="10.391972064971924">
        <ele>594.7969186084341</ele>
        <time>2017-11-22T14:11:37.134000Z</time>
      </trkpt>
      <trkpt lat="45.73477506637573" lon="10.391371250152588">
        <ele>565.629350459367</ele>
        <time>2017-11-22T14:11:37.961000Z</time>
      </trkpt>
      <trkpt lat="45.73486089706421" lon="10.3910493850708">
        <ele>564.3079715566965</ele>
        <time>2017-11-22T14:11:38.347000Z</time>
      </trkpt>
      <trkpt lat="45.73537588119507" lon="10.390169620513916">
        <ele>575.5137049314549</ele>
        <time>2017-11-22T14:11:39.632000Z</time>
      </trkpt>
      <trkpt lat="45.7353363186121" lon="10.390070797875524">
        <ele>575.2342274138524</ele>
        <time>2017-11-22T14:11:39.759000Z</time>
      </trkpt>
      <trkpt lat="45.73533623479307" lon="10.390070546418428">
        <ele>575.2335438066604</ele>
        <time>2017-11-22T14:11:39.759000Z</time>
      </trkpt>
      <trkpt lat="45.73533296585083" lon="10.39006233215332">
        <ele>575.2103473860565</ele>
        <time>2017-11-22T14:11:39.770000Z</time>
      </trkpt>
      <trkpt lat="45.73524713516235" lon="10.39008378982544">
        <ele>574.9041181252293</ele>
        <time>2017-11-22T14:11:39.910000Z</time>
      </trkpt>
      <trkpt lat="45.73490381240845" lon="10.390684604644775">
        <ele>561.9992482804264</ele>
        <time>2017-11-22T14:11:40.779000Z</time>
      </trkpt>
      <trkpt lat="45.73453903198242" lon="10.390985012054443">
        <ele>565.8537668678485</ele>
        <time>2017-11-22T14:11:41.454000Z</time>
      </trkpt>
      <trkpt lat="45.734474658966064" lon="10.391221046447754">
        <ele>566.1142830725852</ele>
        <time>2017-11-22T14:11:41.738000Z</time>
      </trkpt>
      <trkpt lat="45.734453201293945" lon="10.391757488250732">
        <ele>570.3333333333334</ele>
        <time>2017-11-22T14:11:42.339000Z</time>
      </trkpt>
      <trkpt lat="45.73432839475572" lon="10.391757488250732">
        <ele>570.0833592286289</ele>
        <time>2017-11-22T14:11:42.539000Z</time>
      </trkpt>
      <trkpt lat="45.73430299758911" lon="10.391757488250732">
        <ele>570.0324914289475</ele>
        <time>2017-11-22T14:11:42.580000Z</time>
      </trkpt>
      <trkpt lat="45.73434591293335" lon="10.391221046447754">
        <ele>565.6109739613713</ele>
        <time>2017-11-22T14:11:43.184000Z</time>
      </trkpt>
      <trkpt lat="45.73428153991699" lon="10.391092300415039">
        <ele>565.3895727401679</ele>
        <time>2017-11-22T14:11:43.361000Z</time>
      </trkpt>
      <trkpt lat="45.734195709228516" lon="10.391113758087158">
        <ele>565.2150654500067</ele>
        <time>2017-11-22T14:11:43.501000Z</time>
      </trkpt>
      <trkpt lat="45.73410987854004" lon="10.391521453857422">
        <ele>552.9530799118041</ele>
        <time>2017-11-22T14:11:43.977000Z</time>
      </trkpt>
      <trkpt lat="45.73413133621216" lon="10.391757488250732">
        <ele>555.6203175925752</ele>
        <time>2017-11-22T14:11:44.243000Z</time>
      </trkpt>
      <trkpt lat="45.73441028594971" lon="10.39233684539795">
        <ele>566.969705757475</ele>
        <time>2017-11-22T14:11:45.031000Z</time>
      </trkpt>
      <trkpt lat="45.73438882827759" lon="10.39255142211914">
        <ele>563.0</ele>
        <time>2017-11-22T14:11:45.274000Z</time>
      </trkpt>
      <trkpt lat="45.734316911548376" lon="10.392587380483747">
        <ele>562.1903560137729</ele>
        <time>2017-11-22T14:11:45.396000Z</time>
      </trkpt>
      <trkpt lat="45.734316827729344" lon="10.392587464302778">
        <ele>562.1892695072743</ele>
        <time>2017-11-22T14:11:45.396000Z</time>
      </trkpt>
      <trkpt lat="45.734260166063905" lon="10.392615795135498">
        <ele>561.5513681144179</ele>
        <time>2017-11-22T14:11:45.492000Z</time>
      </trkpt>
      <trkpt lat="45.73413133621216" lon="10.392465591430664">
        <ele>549.4459317971815</ele>
        <time>2017-11-22T14:11:45.758000Z</time>
      </trkpt>
      <trkpt lat="45.733959674835205" lon="10.392036437988281">
        <ele>542.2982250369872</ele>
        <time>2017-11-22T14:11:46.311000Z</time>
      </trkpt>
      <trkpt lat="45.73380947113037" lon="10.391542911529541">
        <ele>531.5179419258642</ele>
        <time>2017-11-22T14:11:46.913000Z</time>
      </trkpt>
      <trkpt lat="45.73376655578613" lon="10.391221046447754">
        <ele>526.782663665722</ele>
        <time>2017-11-22T14:11:47.280000Z</time>
      </trkpt>
      <trkpt lat="45.733938217163086" lon="10.390641689300537">
        <ele>513.6874630982676</ele>
        <time>2017-11-22T14:11:47.984000Z</time>
      </trkpt>
      <trkpt lat="45.73404550552368" lon="10.389890670776367">
        <ele>502.167448173743</ele>
        <time>2017-11-22T14:11:48.842000Z</time>
      </trkpt>
      <trkpt lat="45.73415279388428" lon="10.389676094055176">
        <ele>502.91374198000614</ele>
        <time>2017-11-22T14:11:49.137000Z</time>
      </trkpt>
      <trkpt lat="45.73441028594971" lon="10.38956880569458">
        <ele>516.0</ele>
        <time>2017-11-22T14:11:49.567000Z</time>
      </trkpt>
      <trkpt lat="45.734453201293945" lon="10.389525890350342">
        <ele>515.6190756329612</ele>
        <time>2017-11-22T14:11:49.651000Z</time>
      </trkpt>
      <trkpt lat="45.734431743621826" lon="10.389440059661865">
        <ele>515.1559031080054</ele>
        <time>2017-11-22T14:11:49.753000Z</time>
      </trkpt>
      <trkpt lat="45.73436737060547" lon="10.389418601989746">
        <ele>514.6748475316576</ele>
        <time>2017-11-22T14:11:49.859000Z</time>
      </trkpt>
      <trkpt lat="45.7340669631958" lon="10.389525890350342">
        <ele>500.42140849224205</ele>
        <time>2017-11-22T14:11:50.355000Z</time>
      </trkpt>
      <trkpt lat="45.73389530181885" lon="10.389783382415771">
        <ele>498.6124392397255</ele>
        <time>2017-11-22T14:11:50.753000Z</time>
      </trkpt>
      <trkpt lat="45.73378801345825" lon="10.39029836654663">
        <ele>503.882076881341</ele>
        <time>2017-11-22T14:11:51.354000Z</time>
      </trkpt>
      <trkpt lat="45.733702182769775" lon="10.390276908874512">
        <ele>503.24791521833293</ele>
        <time>2017-11-22T14:11:51.494000Z</time>
      </trkpt>
      <trkpt lat="45.73379966430366" lon="10.389653043821454">
        <ele>492.0</ele>
        <time>2017-11-22T14:11:52.209000Z</time>
      </trkpt>
      <trkpt lat="45.73379974812269" lon="10.389652792364359">
        <ele>491.9987062874561</ele>
        <time>2017-11-22T14:11:52.209000Z</time>
      </trkpt>
      <trkpt lat="45.73380947113037" lon="10.3895902633667">
        <ele>491.70129130600185</ele>
        <time>2017-11-22T14:11:52.281000Z</time>
      </trkpt>
      <trkpt lat="45.73404550552368" lon="10.38905382156372">
        <ele>482.09059867293354</ele>
        <time>2017-11-22T14:11:52.991000Z</time>
      </trkpt>
      <trkpt lat="45.734689235687256" lon="10.388131141662598">
        <ele>477.367338136924</ele>
        <time>2017-11-22T14:11:54.451000Z</time>
      </trkpt>
      <trkpt lat="45.73456048965454" lon="10.38808822631836">
        <ele>476.80724552010156</ele>
        <time>2017-11-22T14:11:54.663000Z</time>
      </trkpt>
      <trkpt lat="45.73389530181885" lon="10.388774871826172">
        <ele>472.0</ele>
        <time>2017-11-22T14:11:55.977000Z</time>
      </trkpt>
      <trkpt lat="45.73376655578613" lon="10.389010906219482">
        <ele>469.6126532607381</ele>
        <time>2017-11-22T14:11:56.312000Z</time>
      </trkpt>
      <trkpt lat="45.73365926742554" lon="10.38905382156372">
        <ele>468.34080198643693</ele>
        <time>2017-11-22T14:11:56.491000Z</time>
      </trkpt>
      <trkpt lat="45.73363780975342" lon="10.388967990875244">
        <ele>467.6142136889207</ele>
        <time>2017-11-22T14:11:56.593000Z</time>
      </trkpt>
      <trkpt lat="45.73385238647461" lon="10.388646125793457">
        <ele>464.06704771470874</ele>
        <time>2017-11-22T14:11:57.091000Z</time>
      </trkpt>
      <trkpt lat="45.73395892046392" lon="10.38823532871902">
        <ele>450.9078436156544</ele>
        <time>2017-11-22T14:11:57.581000Z</time>
      </trkpt>
      <trkpt lat="45.73395900428295" lon="10.388235077261925">
        <ele>450.9056228208911</ele>
        <time>2017-11-22T14:11:57.581000Z</time>
      </trkpt>
      <trkpt lat="45.73400259017944" lon="10.38806676864624">
        <ele>449.4749354544761</ele>
        <time>2017-11-22T14:11:57.782000Z</time>
      </trkpt>
      <trkpt lat="45.73428153991699" lon="10.387659072875977">
        <ele>460.13638481457593</ele>
        <time>2017-11-22T14:11:58.421000Z</time>
      </trkpt>
      <trkpt lat="45.73464632034302" lon="10.387530326843262">
        <ele>459.81720467791615</ele>
        <time>2017-11-22T14:11:59.023000Z</time>
      </trkpt>
      <trkpt lat="45.7350754737854" lon="10.386993885040283">
        <ele>451.0</ele>
        <time>2017-11-22T14:11:59.936000Z</time>
      </trkpt>
      <trkpt lat="45.73537588119507" lon="10.38684368133545">
        <ele>449.91703681864686</ele>
        <time>2017-11-22T14:12:00.446000Z</time>
      </trkpt>
      <trkpt lat="45.735697746276855" lon="10.3865647315979">
        <ele>440.970009898151</ele>
        <time>2017-11-22T14:12:01.049000Z</time>
      </trkpt>
      <trkpt lat="45.73648606427014" lon="10.386351076886058">
        <ele>440.23925257157777</ele>
        <time>2017-11-22T14:12:02.335000Z</time>
      </trkpt>
      <trkpt lat="45.73648614808917" lon="10.386351076886058">
        <ele>440.2394098953749</ele>
        <time>2017-11-22T14:12:02.335000Z</time>
      </trkpt>
      <trkpt lat="45.736727714538574" lon="10.386285781860352">
        <ele>447.03414855164766</ele>
        <time>2017-11-22T14:12:02.729000Z</time>
      </trkpt>
      <trkpt lat="45.73704957962036" lon="10.385921001434326">
        <ele>446.40096567710833</ele>
        <time>2017-11-22T14:12:03.387000Z</time>
      </trkpt>
      <trkpt lat="45.737178325653076" lon="10.385856628417969">
        <ele>446.19057649998695</ele>
        <time>2017-11-22T14:12:03.606000Z</time>
      </trkpt>
      <trkpt lat="45.737221240997314" lon="10.385727882385254">
        <ele>441.03693508351836</ele>
        <time>2017-11-22T14:12:03.766000Z</time>
      </trkpt>
      <trkpt lat="45.73721906170249" lon="10.385727128013968">
        <ele>441.0280480421057</ele>
        <time>2017-11-22T14:12:03.770000Z</time>
      </trkpt>
      <trkpt lat="45.73713541030884" lon="10.385706424713135">
        <ele>440.6915516949669</ele>
        <time>2017-11-22T14:12:03.906000Z</time>
      </trkpt>
      <trkpt lat="45.73679208755493" lon="10.38607120513916">
        <ele>443.99728325791824</ele>
        <time>2017-11-22T14:12:04.591000Z</time>
      </trkpt>
      <trkpt lat="45.73655605316162" lon="10.386178493499756">
        <ele>436.6823773029467</ele>
        <time>2017-11-22T14:12:04.988000Z</time>
      </trkpt>
      <trkpt lat="45.73612689971924" lon="10.386178493499756">
        <ele>434.9812566223236</ele>
        <time>2017-11-22T14:12:05.676000Z</time>
      </trkpt>
      <trkpt lat="45.73589094914496" lon="10.38607120513916">
        <ele>434.0</ele>
        <time>2017-11-22T14:12:06.073000Z</time>
      </trkpt>
      <trkpt lat="45.73550462722778" lon="10.38609266281128">
        <ele>430.7545649733019</ele>
        <time>2017-11-22T14:12:06.693000Z</time>
      </trkpt>
      <trkpt lat="45.73529005050659" lon="10.386157035827637">
        <ele>430.04833482347595</ele>
        <time>2017-11-22T14:12:07.044000Z</time>
      </trkpt>
      <trkpt lat="45.73477506637573" lon="10.386693477630615">
        <ele>427.99722607878203</ele>
        <time>2017-11-22T14:12:08.065000Z</time>
      </trkpt>
      <trkpt lat="45.734474658966064" lon="10.38684368133545">
        <ele>427.0603419825771</ele>
        <time>2017-11-22T14:12:08.575000Z</time>
      </trkpt>
      <trkpt lat="45.733959674835205" lon="10.386886596679688">
        <ele>423.87471777237033</ele>
        <time>2017-11-22T14:12:09.402000Z</time>
      </trkpt>
      <trkpt lat="45.73376655578613" lon="10.386950969696045">
        <ele>423.2908814836221</ele>
        <time>2017-11-22T14:12:09.720000Z</time>
      </trkpt>
      <trkpt lat="45.73359489440918" lon="10.387144088745117">
        <ele>422.7889406334291</ele>
        <time>2017-11-22T14:12:10.070000Z</time>
      </trkpt>
      <trkpt lat="45.73338031768799" lon="10.387723445892334">
        <ele>429.6490826305822</ele>
        <time>2017-11-22T14:12:10.804000Z</time>
      </trkpt>
      <trkpt lat="45.73310136795044" lon="10.388238430023193">
        <ele>422.84137714360594</ele>
        <time>2017-11-22T14:12:11.533000Z</time>
      </trkpt>
      <trkpt lat="45.73289760388434" lon="10.388527102768421">
        <ele>424.9624865816725</ele>
        <time>2017-11-22T14:12:11.992000Z</time>
      </trkpt>
      <trkpt lat="45.73289752006531" lon="10.388527270406485">
        <ele>424.961620893673</ele>
        <time>2017-11-22T14:12:11.992000Z</time>
      </trkpt>
      <trkpt lat="45.73284387588501" lon="10.388603210449219">
        <ele>424.5080453142193</ele>
        <time>2017-11-22T14:12:12.113000Z</time>
      </trkpt>
      <trkpt lat="45.73265075683594" lon="10.388796329498291">
        <ele>423.0915828955238</ele>
        <time>2017-11-22T14:12:12.491000Z</time>
      </trkpt>
      <trkpt lat="45.73202848434448" lon="10.389204025268555">
        <ele>414.97618091239184</ele>
        <time>2017-11-22T14:12:13.588000Z</time>
      </trkpt>
      <trkpt lat="45.731470584869385" lon="10.389697551727295">
        <ele>405.87626333212046</ele>
        <time>2017-11-22T14:12:14.639000Z</time>
      </trkpt>
      <trkpt lat="45.73112726211548" lon="10.389761924743652">
        <ele>405.106824896154</ele>
        <time>2017-11-22T14:12:15.194000Z</time>
      </trkpt>
      <trkpt lat="45.73086977005005" lon="10.389633178710938">
        <ele>404.50077704961654</ele>
        <time>2017-11-22T14:12:15.631000Z</time>
      </trkpt>
      <trkpt lat="45.730483531951904" lon="10.389654636383057">
        <ele>403.641833591955</ele>
        <time>2017-11-22T14:12:16.251000Z</time>
      </trkpt>
      <trkpt lat="45.730204582214355" lon="10.389761924743652">
        <ele>402.462429831427</ele>
        <time>2017-11-22T14:12:16.714000Z</time>
      </trkpt>
      <trkpt lat="45.729947090148926" lon="10.389869213104248">
        <ele>402.8760043085731</ele>
        <time>2017-11-22T14:12:17.144000Z</time>
      </trkpt>
      <trkpt lat="45.729496479034424" lon="10.390233993530273">
        <ele>397.7674463961207</ele>
        <time>2017-11-22T14:12:17.974000Z</time>
      </trkpt>
      <trkpt lat="45.72911024093628" lon="10.390663146972656">
        <ele>395.8473822814041</ele>
        <time>2017-11-22T14:12:18.758000Z</time>
      </trkpt>
      <trkpt lat="45.72876691818237" lon="10.390877723693848">
        <ele>398.22021213804265</ele>
        <time>2017-11-22T14:12:19.358000Z</time>
      </trkpt>
      <trkpt lat="45.72829484939575" lon="10.390963554382324">
        <ele>393.0</ele>
        <time>2017-11-22T14:12:20.121000Z</time>
      </trkpt>
      <trkpt lat="45.7276725769043" lon="10.391521453857422">
        <ele>393.19039893279023</ele>
        <time>2017-11-22T14:12:21.298000Z</time>
      </trkpt>
      <trkpt lat="45.72730779647827" lon="10.39156436920166">
        <ele>395.61866217793516</ele>
        <time>2017-11-22T14:12:21.885000Z</time>
      </trkpt>
      <trkpt lat="45.72707176208496" lon="10.391457080841064">
        <ele>395.68288914347363</ele>
        <time>2017-11-22T14:12:22.282000Z</time>
      </trkpt>
      <trkpt lat="45.72690010070801" lon="10.391457080841064">
        <ele>394.6262451439709</ele>
        <time>2017-11-22T14:12:22.557000Z</time>
      </trkpt>
      <trkpt lat="45.72664260864258" lon="10.392100811004639">
        <ele>385.7715723006313</ele>
        <time>2017-11-22T14:12:23.387000Z</time>
      </trkpt>
      <trkpt lat="45.726449489593506" lon="10.392272472381592">
        <ele>384.3725873699459</ele>
        <time>2017-11-22T14:12:23.751000Z</time>
      </trkpt>
      <trkpt lat="45.72617053985596" lon="10.392401218414307">
        <ele>382.8735503151347</ele>
        <time>2017-11-22T14:12:24.221000Z</time>
      </trkpt>
      <trkpt lat="45.72587013244629" lon="10.392658710479736">
        <ele>386.5369079984221</ele>
        <time>2017-11-22T14:12:24.782000Z</time>
      </trkpt>
      <trkpt lat="45.72511911392212" lon="10.39405345916748">
        <ele>383.5252807339241</ele>
        <time>2017-11-22T14:12:26.753000Z</time>
      </trkpt>
      <trkpt lat="45.724754333496094" lon="10.394418239593506">
        <ele>381.0821392045532</ele>
        <time>2017-11-22T14:12:27.466000Z</time>
      </trkpt>
      <trkpt lat="45.7245397567749" lon="10.394504070281982">
        <ele>380.7137949019111</ele>
        <time>2017-11-22T14:12:27.823000Z</time>
      </trkpt>
      <trkpt lat="45.723938941955566" lon="10.394504070281982">
        <ele>379.7204335547301</ele>
        <time>2017-11-22T14:12:28.786000Z</time>
      </trkpt>
      <trkpt lat="45.72357416152954" lon="10.394890308380127">
        <ele>379.3012718741252</ele>
        <time>2017-11-22T14:12:29.513000Z</time>
      </trkpt>
      <trkpt lat="45.723252296447754" lon="10.39506196975708">
        <ele>378.3172430682392</ele>
        <time>2017-11-22T14:12:30.064000Z</time>
      </trkpt>
      <trkpt lat="45.72290897369385" lon="10.39506196975708">
        <ele>378.0</ele>
        <time>2017-11-22T14:12:30.614000Z</time>
      </trkpt>
      <trkpt lat="45.722479820251465" lon="10.394933223724365">
        <ele>381.361532874548</ele>
        <time>2017-11-22T14:12:31.317000Z</time>
      </trkpt>
      <trkpt lat="45.722243869677186" lon="10.394718647003174">
        <ele>381.8044582783911</ele>
        <time>2017-11-22T14:12:31.765000Z</time>
      </trkpt>
      <trkpt lat="45.722050750628114" lon="10.39454698562622">
        <ele>382.164649326465</ele>
        <time>2017-11-22T14:12:32.129000Z</time>
      </trkpt>
      <trkpt lat="45.721986293792725" lon="10.394525527954102">
        <ele>382.26952111360987</ele>
        <time>2017-11-22T14:12:32.235000Z</time>
      </trkpt>
      <trkpt lat="45.721986377611756" lon="10.394525527954102">
        <ele>382.26955491766415</ele>
        <time>2017-11-22T14:12:32.235000Z</time>
      </trkpt>
      <trkpt lat="45.72166442871094" lon="10.394761562347412">
        <ele>388.4154159438917</ele>
        <time>2017-11-22T14:12:32.815000Z</time>
      </trkpt>
      <trkpt lat="45.72129964828491" lon="10.395255088806152">
        <ele>377.61778277311186</ele>
        <time>2017-11-22T14:12:33.619000Z</time>
      </trkpt>
      <trkpt lat="45.720977783203125" lon="10.395426750183105">
        <ele>377.75629708805667</ele>
        <time>2017-11-22T14:12:34.170000Z</time>
      </trkpt>
      <trkpt lat="45.72059154510498" lon="10.39555549621582">
        <ele>384.6744311712487</ele>
        <time>2017-11-22T14:12:34.806000Z</time>
      </trkpt>
      <trkpt lat="45.720248222351074" lon="10.396091938018799">
        <ele>372.1887067687257</ele>
        <time>2017-11-22T14:12:35.621000Z</time>
      </trkpt>
      <trkpt lat="45.72009801864624" lon="10.396199226379395">
        <ele>371.4776521364629</ele>
        <time>2017-11-22T14:12:35.890000Z</time>
      </trkpt>
      <trkpt lat="45.71990489959717" lon="10.396499633789062">
        <ele>378.936516689513</ele>
        <time>2017-11-22T14:12:36.347000Z</time>
      </trkpt>
      <trkpt lat="45.71977615356445" lon="10.39682149887085">
        <ele>365.53578952064845</ele>
        <time>2017-11-22T14:12:36.762000Z</time>
      </trkpt>
      <trkpt lat="45.71934700012207" lon="10.397229194641113">
        <ele>360.76213352111836</ele>
        <time>2017-11-22T14:12:37.588000Z</time>
      </trkpt>
      <trkpt lat="45.718982219696045" lon="10.39783000946045">
        <ele>359.0</ele>
        <time>2017-11-22T14:12:38.479000Z</time>
      </trkpt>
      <trkpt lat="45.718467235565186" lon="10.398452281951904">
        <ele>356.3772608660392</ele>
        <time>2017-11-22T14:12:39.559000Z</time>
      </trkpt>
      <trkpt lat="45.718411076813936" lon="10.398667445406318">
        <ele>356.14968621960753</ele>
        <time>2017-11-22T14:12:39.816000Z</time>
      </trkpt>
      <trkpt lat="45.718411076813936" lon="10.39866752922535">
        <ele>356.14960317854064</ele>
        <time>2017-11-22T14:12:39.817000Z</time>
      </trkpt>
      <trkpt lat="45.718209743499756" lon="10.399439334869385">
        <ele>355.0</ele>
        <time>2017-11-22T14:12:40.739000Z</time>
      </trkpt>
      <trkpt lat="45.7180380821228" lon="10.399696826934814">
        <ele>355.4182648745271</ele>
        <time>2017-11-22T14:12:41.137000Z</time>
      </trkpt>
      <trkpt lat="45.71730852127075" lon="10.399889945983887">
        <ele>356.6816156712537</ele>
        <time>2017-11-22T14:12:42.326000Z</time>
      </trkpt>
      <trkpt lat="45.71681499481201" lon="10.399589538574219">
        <ele>353.4477248860494</ele>
        <time>2017-11-22T14:12:43.186000Z</time>
      </trkpt>
      <trkpt lat="45.71666479110718" lon="10.3995680809021">
        <ele>354.5374132050426</ele>
        <time>2017-11-22T14:12:43.428000Z</time>
      </trkpt>
      <trkpt lat="45.71535587310791" lon="10.400340557098389">
        <ele>336.0</ele>
        <time>2017-11-22T14:12:45.698000Z</time>
      </trkpt>
      <trkpt lat="45.71522553451359" lon="10.400483971461654">
        <ele>337.7127614488773</ele>
        <time>2017-11-22T14:12:45.961000Z</time>
      </trkpt>
      <trkpt lat="45.71522545069456" lon="10.400483971461654">
        <ele>337.7136348924934</ele>
        <time>2017-11-22T14:12:45.961000Z</time>
      </trkpt>
      <trkpt lat="45.71492671966553" lon="10.40081262588501">
        <ele>347.6390147011379</ele>
        <time>2017-11-22T14:12:46.565000Z</time>
      </trkpt>
      <trkpt lat="45.712051475420594" lon="10.40179967880249">
        <ele>329.0</ele>
        <time>2017-11-22T14:12:51.305000Z</time>
      </trkpt>
      <trkpt lat="45.71104288101196" lon="10.402894020080566">
        <ele>324.0</ele>
        <time>2017-11-22T14:12:53.334000Z</time>
      </trkpt>
      <trkpt lat="45.71035623550415" lon="10.403902530670166">
        <ele>324.0</ele>
        <time>2017-11-22T14:12:54.911000Z</time>
      </trkpt>
      <trkpt lat="45.71016311645508" lon="10.40428876876831">
        <ele>323.65478217855116</ele>
        <time>2017-11-22T14:12:55.443000Z</time>
      </trkpt>
      <trkpt lat="45.70984410122037" lon="10.40410939604044">
        <ele>327.9924216409933</ele>
        <time>2017-11-22T14:12:55.992000Z</time>
      </trkpt>
      <trkpt lat="45.70984426885843" lon="10.404109479859471">
        <ele>327.9929419633161</ele>
        <time>2017-11-22T14:12:55.992000Z</time>
      </trkpt>
      <trkpt lat="45.70981979370117" lon="10.404095649719238">
        <ele>328.07004463592915</ele>
        <time>2017-11-22T14:12:56.034000Z</time>
      </trkpt>
      <trkpt lat="45.70964813232422" lon="10.403859615325928">
        <ele>328.76740930665886</ele>
        <time>2017-11-22T14:12:56.416000Z</time>
      </trkpt>
      <trkpt lat="45.709004402160645" lon="10.40330171585083">
        <ele>330.3056589180912</ele>
        <time>2017-11-22T14:12:57.622000Z</time>
      </trkpt>
      <trkpt lat="45.70836067199707" lon="10.402851104736328">
        <ele>331.0</ele>
        <time>2017-11-22T14:12:58.771000Z</time>
      </trkpt>
      <trkpt lat="45.70799597539008" lon="10.402357578277588">
        <ele>328.3333333333333</ele>
        <time>2017-11-22T14:12:59.575000Z</time>
      </trkpt>
      <trkpt lat="45.70788868702948" lon="10.402207374572754">
        <ele>328.3333333333333</ele>
        <time>2017-11-22T14:12:59.816000Z</time>
      </trkpt>
      <trkpt lat="45.70778760127723" lon="10.402072761207819">
        <ele>328.3333333333333</ele>
        <time>2017-11-22T14:13:00.037000Z</time>
      </trkpt>
      <trkpt lat="45.707787685096264" lon="10.40207284502685">
        <ele>328.3333333333333</ele>
        <time>2017-11-22T14:13:00.037000Z</time>
      </trkpt>
      <trkpt lat="45.70763119496405" lon="10.401864051818848">
        <ele>328.3333333333333</ele>
        <time>2017-11-22T14:13:00.380000Z</time>
      </trkpt>
      <trkpt lat="45.70694446563721" lon="10.4005765914917">
        <ele>331.0</ele>
        <time>2017-11-22T14:13:02.194000Z</time>
      </trkpt>
      <trkpt lat="45.706322276964784" lon="10.399160385131836">
        <ele>328.2618257322735</ele>
        <time>2017-11-22T14:13:04.067000Z</time>
      </trkpt>
      <trkpt lat="45.7061505317688" lon="10.3985595703125">
        <ele>327.7167315659323</ele>
        <time>2017-11-22T14:13:04.794000Z</time>
      </trkpt>
      <trkpt lat="45.70570511743426" lon="10.396202746778727">
        <ele>319.0</ele>
        <time>2017-11-22T14:13:07.527000Z</time>
      </trkpt>
      <trkpt lat="45.70570511743426" lon="10.396202495321631">
        <ele>319.0014262308341</ele>
        <time>2017-11-22T14:13:07.527000Z</time>
      </trkpt>
      <trkpt lat="45.70563554763794" lon="10.39583444595337">
        <ele>321.16407395885193</ele>
        <time>2017-11-22T14:13:07.954000Z</time>
      </trkpt>
      <trkpt lat="45.705249309539795" lon="10.39456844329834">
        <ele>334.0</ele>
        <time>2017-11-22T14:13:09.501000Z</time>
      </trkpt>
      <trkpt lat="45.70475863292813" lon="10.392093267291784">
        <ele>327.0</ele>
        <time>2017-11-22T14:13:12.382000Z</time>
      </trkpt>
      <trkpt lat="45.7047585491091" lon="10.39209301583469">
        <ele>326.9994172161135</ele>
        <time>2017-11-22T14:13:12.382000Z</time>
      </trkpt>
      <trkpt lat="45.704283714294434" lon="10.389697551727295">
        <ele>320.12448857105187</ele>
        <time>2017-11-22T14:13:15.170000Z</time>
      </trkpt>
      <trkpt lat="45.70387601852417" lon="10.3885817527771">
        <ele>311.0</ele>
        <time>2017-11-22T14:13:16.580000Z</time>
      </trkpt>
      <trkpt lat="45.70344694890082" lon="10.387723445892334">
        <ele>313.0</ele>
        <time>2017-11-22T14:13:17.762000Z</time>
      </trkpt>
      <trkpt lat="45.70306062698364" lon="10.38733720779419">
        <ele>311.0003556620713</ele>
        <time>2017-11-22T14:13:18.517000Z</time>
      </trkpt>
      <trkpt lat="45.703060710802674" lon="10.38733720779419">
        <ele>311.0001778310356</ele>
        <time>2017-11-22T14:13:18.517000Z</time>
      </trkpt>
      <trkpt lat="45.70306062698364" lon="10.38733720779519">
        <ele>311.0</ele>
        <time>2017-11-22T14:13:18.517000Z</time>
      </trkpt>
    </trkseg>
  </trk>
</gpx>